<?xml version="1.0" encoding="UTF-8" standalone="no" ?>
<gpx xmlns="http://www.topografix.com/GPX/1/1" xmlns:xsi="http://www.w3.org/2001/XMLSchema-instance" xsi:schemaLocation="http://www.topografix.com/GPX/1/1 http://www.topografix.com/GPX/1/1/gpx.xsd" version="1.1" creator="VisuGPX - https://www.visugpx.com">
  <metadata>
    <name>Estupas -Campan (Via Cbn Ourdincède)</name>
    <desc><![CDATA[Parcours raide au départ, et descente accidentée après les cabanes d'Ourdincède.
Randonnée  faite un jour de brouillard ce qui nous a fortement réduit la vue sur la vallée de Ste Marie de Campan.
Quelques montées accentuées vers le 11 ème km.]]></desc>
  </metadata>
  <trk>
    <name><![CDATA[TN Estupas Campan(Via Cbn Ourdincède)  21 MARS 2017]]></name>
    <trkseg>
      <trkpt lat="42.9732" lon="0.24337">
        <ele>907.22</ele>
        <time>2017-03-21T08:20:13Z</time>
      </trkpt>
      <trkpt lat="42.97329" lon="0.24341">
        <ele>907.51</ele>
        <time>2017-03-21T08:21:27Z</time>
      </trkpt>
      <trkpt lat="42.97319" lon="0.24342">
        <ele>907.41</ele>
        <time>2017-03-21T08:21:51Z</time>
      </trkpt>
      <trkpt lat="42.97306" lon="0.24342">
        <ele>907.78</ele>
        <time>2017-03-21T08:22:03Z</time>
      </trkpt>
      <trkpt lat="42.97303" lon="0.24346">
        <ele>907.94</ele>
        <time>2017-03-21T08:22:57Z</time>
      </trkpt>
      <trkpt lat="42.97308" lon="0.24345">
        <ele>907.56</ele>
        <time>2017-03-21T08:23:51Z</time>
      </trkpt>
      <trkpt lat="42.97304" lon="0.24345">
        <ele>907.6</ele>
        <time>2017-03-21T08:24:54Z</time>
      </trkpt>
      <trkpt lat="42.97306" lon="0.24345">
        <ele>907.88</ele>
        <time>2017-03-21T08:25:36Z</time>
      </trkpt>
      <trkpt lat="42.97304" lon="0.24344">
        <ele>908.37</ele>
        <time>2017-03-21T08:26:26Z</time>
      </trkpt>
      <trkpt lat="42.97303" lon="0.24343">
        <ele>908.02</ele>
        <time>2017-03-21T08:27:09Z</time>
      </trkpt>
      <trkpt lat="42.97301" lon="0.24342">
        <ele>908.36</ele>
        <time>2017-03-21T08:28:26Z</time>
      </trkpt>
      <trkpt lat="42.97315" lon="0.24339">
        <ele>907.27</ele>
        <time>2017-03-21T08:28:43Z</time>
      </trkpt>
      <trkpt lat="42.97325" lon="0.24334">
        <ele>907.01</ele>
        <time>2017-03-21T08:28:52Z</time>
      </trkpt>
      <trkpt lat="42.97334" lon="0.24332">
        <ele>906.13</ele>
        <time>2017-03-21T08:29:01Z</time>
      </trkpt>
      <trkpt lat="42.97344" lon="0.24327">
        <ele>905.93</ele>
        <time>2017-03-21T08:29:10Z</time>
      </trkpt>
      <trkpt lat="42.97353" lon="0.24324">
        <ele>905.44</ele>
        <time>2017-03-21T08:29:18Z</time>
      </trkpt>
      <trkpt lat="42.97362" lon="0.24327">
        <ele>906.07</ele>
        <time>2017-03-21T08:29:30Z</time>
      </trkpt>
      <trkpt lat="42.97372" lon="0.24324">
        <ele>905.13</ele>
        <time>2017-03-21T08:29:39Z</time>
      </trkpt>
      <trkpt lat="42.97383" lon="0.24321">
        <ele>905.64</ele>
        <time>2017-03-21T08:29:47Z</time>
      </trkpt>
      <trkpt lat="42.97392" lon="0.24318">
        <ele>905.69</ele>
        <time>2017-03-21T08:29:55Z</time>
      </trkpt>
      <trkpt lat="42.97402" lon="0.24317">
        <ele>905.5</ele>
        <time>2017-03-21T08:30:03Z</time>
      </trkpt>
      <trkpt lat="42.97412" lon="0.24316">
        <ele>904.48</ele>
        <time>2017-03-21T08:30:11Z</time>
      </trkpt>
      <trkpt lat="42.97421" lon="0.24314">
        <ele>905.15</ele>
        <time>2017-03-21T08:30:20Z</time>
      </trkpt>
      <trkpt lat="42.97431" lon="0.24312">
        <ele>904.59</ele>
        <time>2017-03-21T08:30:28Z</time>
      </trkpt>
      <trkpt lat="42.97441" lon="0.24313">
        <ele>904.46</ele>
        <time>2017-03-21T08:30:38Z</time>
      </trkpt>
      <trkpt lat="42.97452" lon="0.24311">
        <ele>905.07</ele>
        <time>2017-03-21T08:30:46Z</time>
      </trkpt>
      <trkpt lat="42.97462" lon="0.24312">
        <ele>904.87</ele>
        <time>2017-03-21T08:30:54Z</time>
      </trkpt>
      <trkpt lat="42.97473" lon="0.24313">
        <ele>903.92</ele>
        <time>2017-03-21T08:31:02Z</time>
      </trkpt>
      <trkpt lat="42.97482" lon="0.24315">
        <ele>904.18</ele>
        <time>2017-03-21T08:31:10Z</time>
      </trkpt>
      <trkpt lat="42.97493" lon="0.24316">
        <ele>903.79</ele>
        <time>2017-03-21T08:31:18Z</time>
      </trkpt>
      <trkpt lat="42.97503" lon="0.24316">
        <ele>904.03</ele>
        <time>2017-03-21T08:31:25Z</time>
      </trkpt>
      <trkpt lat="42.97513" lon="0.24315">
        <ele>903.5</ele>
        <time>2017-03-21T08:31:33Z</time>
      </trkpt>
      <trkpt lat="42.97519" lon="0.24324">
        <ele>903.09</ele>
        <time>2017-03-21T08:31:42Z</time>
      </trkpt>
      <trkpt lat="42.97519" lon="0.24339">
        <ele>902.76</ele>
        <time>2017-03-21T08:31:51Z</time>
      </trkpt>
      <trkpt lat="42.97517" lon="0.24346">
        <ele>901.39</ele>
        <time>2017-03-21T08:32:41Z</time>
      </trkpt>
      <trkpt lat="42.97515" lon="0.24355">
        <ele>901.36</ele>
        <time>2017-03-21T08:33:04Z</time>
      </trkpt>
      <trkpt lat="42.97512" lon="0.24367">
        <ele>901.89</ele>
        <time>2017-03-21T08:33:24Z</time>
      </trkpt>
      <trkpt lat="42.97503" lon="0.24373">
        <ele>903.31</ele>
        <time>2017-03-21T08:33:36Z</time>
      </trkpt>
      <trkpt lat="42.97497" lon="0.24381">
        <ele>903.77</ele>
        <time>2017-03-21T08:33:47Z</time>
      </trkpt>
      <trkpt lat="42.9749" lon="0.24391">
        <ele>904.18</ele>
        <time>2017-03-21T08:33:57Z</time>
      </trkpt>
      <trkpt lat="42.97485" lon="0.24403">
        <ele>905.5</ele>
        <time>2017-03-21T08:34:06Z</time>
      </trkpt>
      <trkpt lat="42.97482" lon="0.24416">
        <ele>905.52</ele>
        <time>2017-03-21T08:34:16Z</time>
      </trkpt>
      <trkpt lat="42.97481" lon="0.24428">
        <ele>905.69</ele>
        <time>2017-03-21T08:34:26Z</time>
      </trkpt>
      <trkpt lat="42.97478" lon="0.24439">
        <ele>908.56</ele>
        <time>2017-03-21T08:34:36Z</time>
      </trkpt>
      <trkpt lat="42.97478" lon="0.24451">
        <ele>909.62</ele>
        <time>2017-03-21T08:34:50Z</time>
      </trkpt>
      <trkpt lat="42.97472" lon="0.24455">
        <ele>912.8</ele>
        <time>2017-03-21T08:35:16Z</time>
      </trkpt>
      <trkpt lat="42.97464" lon="0.2445">
        <ele>914.68</ele>
        <time>2017-03-21T08:35:36Z</time>
      </trkpt>
      <trkpt lat="42.97455" lon="0.24446">
        <ele>915.97</ele>
        <time>2017-03-21T08:36:01Z</time>
      </trkpt>
      <trkpt lat="42.97446" lon="0.24438">
        <ele>921.55</ele>
        <time>2017-03-21T08:36:23Z</time>
      </trkpt>
      <trkpt lat="42.97435" lon="0.24432">
        <ele>925.87</ele>
        <time>2017-03-21T08:36:47Z</time>
      </trkpt>
      <trkpt lat="42.97426" lon="0.24431">
        <ele>928.51</ele>
        <time>2017-03-21T08:37:10Z</time>
      </trkpt>
      <trkpt lat="42.97418" lon="0.2443">
        <ele>932.65</ele>
        <time>2017-03-21T08:37:32Z</time>
      </trkpt>
      <trkpt lat="42.97409" lon="0.24432">
        <ele>936.05</ele>
        <time>2017-03-21T08:37:54Z</time>
      </trkpt>
      <trkpt lat="42.97398" lon="0.2443">
        <ele>939.12</ele>
        <time>2017-03-21T08:38:15Z</time>
      </trkpt>
      <trkpt lat="42.97388" lon="0.24433">
        <ele>939.19</ele>
        <time>2017-03-21T08:38:29Z</time>
      </trkpt>
      <trkpt lat="42.97378" lon="0.24434">
        <ele>943.8</ele>
        <time>2017-03-21T08:38:48Z</time>
      </trkpt>
      <trkpt lat="42.97372" lon="0.2444">
        <ele>947.14</ele>
        <time>2017-03-21T08:39:08Z</time>
      </trkpt>
      <trkpt lat="42.97367" lon="0.24448">
        <ele>949.17</ele>
        <time>2017-03-21T08:39:30Z</time>
      </trkpt>
      <trkpt lat="42.97361" lon="0.24458">
        <ele>953.03</ele>
        <time>2017-03-21T08:39:46Z</time>
      </trkpt>
      <trkpt lat="42.97356" lon="0.24471">
        <ele>954.87</ele>
        <time>2017-03-21T08:40:01Z</time>
      </trkpt>
      <trkpt lat="42.97348" lon="0.24481">
        <ele>958.89</ele>
        <time>2017-03-21T08:40:14Z</time>
      </trkpt>
      <trkpt lat="42.97343" lon="0.24491">
        <ele>955.54</ele>
        <time>2017-03-21T08:40:28Z</time>
      </trkpt>
      <trkpt lat="42.97338" lon="0.24501">
        <ele>962.85</ele>
        <time>2017-03-21T08:40:43Z</time>
      </trkpt>
      <trkpt lat="42.9734" lon="0.24513">
        <ele>961.7</ele>
        <time>2017-03-21T08:40:56Z</time>
      </trkpt>
      <trkpt lat="42.97342" lon="0.24525">
        <ele>966.46</ele>
        <time>2017-03-21T08:41:12Z</time>
      </trkpt>
      <trkpt lat="42.97342" lon="0.24536">
        <ele>970.92</ele>
        <time>2017-03-21T08:41:33Z</time>
      </trkpt>
      <trkpt lat="42.97338" lon="0.24549">
        <ele>972.46</ele>
        <time>2017-03-21T08:41:54Z</time>
      </trkpt>
      <trkpt lat="42.97335" lon="0.24563">
        <ele>975.36</ele>
        <time>2017-03-21T08:42:15Z</time>
      </trkpt>
      <trkpt lat="42.97332" lon="0.24576">
        <ele>979.16</ele>
        <time>2017-03-21T08:42:34Z</time>
      </trkpt>
      <trkpt lat="42.97331" lon="0.24591">
        <ele>979.26</ele>
        <time>2017-03-21T08:42:55Z</time>
      </trkpt>
      <trkpt lat="42.97328" lon="0.24605">
        <ele>984.59</ele>
        <time>2017-03-21T08:43:15Z</time>
      </trkpt>
      <trkpt lat="42.97329" lon="0.24618">
        <ele>986.07</ele>
        <time>2017-03-21T08:43:33Z</time>
      </trkpt>
      <trkpt lat="42.97319" lon="0.24632">
        <ele>989.44</ele>
        <time>2017-03-21T08:43:52Z</time>
      </trkpt>
      <trkpt lat="42.97314" lon="0.24645">
        <ele>991.77</ele>
        <time>2017-03-21T08:44:11Z</time>
      </trkpt>
      <trkpt lat="42.97313" lon="0.24657">
        <ele>993.04</ele>
        <time>2017-03-21T08:44:29Z</time>
      </trkpt>
      <trkpt lat="42.97311" lon="0.2467">
        <ele>997.07</ele>
        <time>2017-03-21T08:44:47Z</time>
      </trkpt>
      <trkpt lat="42.9731" lon="0.24682">
        <ele>1000.73</ele>
        <time>2017-03-21T08:45:06Z</time>
      </trkpt>
      <trkpt lat="42.97312" lon="0.24694">
        <ele>1000.56</ele>
        <time>2017-03-21T08:45:24Z</time>
      </trkpt>
      <trkpt lat="42.97307" lon="0.24707">
        <ele>1003.09</ele>
        <time>2017-03-21T08:45:42Z</time>
      </trkpt>
      <trkpt lat="42.97303" lon="0.24719">
        <ele>1006</ele>
        <time>2017-03-21T08:46:01Z</time>
      </trkpt>
      <trkpt lat="42.97299" lon="0.2473">
        <ele>1008.89</ele>
        <time>2017-03-21T08:46:22Z</time>
      </trkpt>
      <trkpt lat="42.97293" lon="0.24742">
        <ele>1012.41</ele>
        <time>2017-03-21T08:46:45Z</time>
      </trkpt>
      <trkpt lat="42.9729" lon="0.24755">
        <ele>1016.49</ele>
        <time>2017-03-21T08:47:07Z</time>
      </trkpt>
      <trkpt lat="42.97289" lon="0.24768">
        <ele>1019.57</ele>
        <time>2017-03-21T08:47:26Z</time>
      </trkpt>
      <trkpt lat="42.97288" lon="0.24785">
        <ele>1021.11</ele>
        <time>2017-03-21T08:47:43Z</time>
      </trkpt>
      <trkpt lat="42.97283" lon="0.24796">
        <ele>1024.56</ele>
        <time>2017-03-21T08:48:02Z</time>
      </trkpt>
      <trkpt lat="42.97276" lon="0.2481">
        <ele>1027.2</ele>
        <time>2017-03-21T08:48:21Z</time>
      </trkpt>
      <trkpt lat="42.97269" lon="0.24825">
        <ele>1029.61</ele>
        <time>2017-03-21T08:48:38Z</time>
      </trkpt>
      <trkpt lat="42.97264" lon="0.24834">
        <ele>1030.58</ele>
        <time>2017-03-21T08:49:07Z</time>
      </trkpt>
      <trkpt lat="42.97264" lon="0.2484">
        <ele>1031.07</ele>
        <time>2017-03-21T08:51:06Z</time>
      </trkpt>
      <trkpt lat="42.97264" lon="0.24841">
        <ele>1031.46</ele>
        <time>2017-03-21T08:52:08Z</time>
      </trkpt>
      <trkpt lat="42.97261" lon="0.24851">
        <ele>1032.4</ele>
        <time>2017-03-21T08:52:35Z</time>
      </trkpt>
      <trkpt lat="42.97262" lon="0.24865">
        <ele>1034.62</ele>
        <time>2017-03-21T08:52:57Z</time>
      </trkpt>
      <trkpt lat="42.97261" lon="0.24877">
        <ele>1038.41</ele>
        <time>2017-03-21T08:53:16Z</time>
      </trkpt>
      <trkpt lat="42.97258" lon="0.2489">
        <ele>1042.63</ele>
        <time>2017-03-21T08:53:36Z</time>
      </trkpt>
      <trkpt lat="42.97253" lon="0.24904">
        <ele>1044.42</ele>
        <time>2017-03-21T08:53:56Z</time>
      </trkpt>
      <trkpt lat="42.9725" lon="0.24917">
        <ele>1045.62</ele>
        <time>2017-03-21T08:54:17Z</time>
      </trkpt>
      <trkpt lat="42.97246" lon="0.24933">
        <ele>1049.87</ele>
        <time>2017-03-21T08:54:38Z</time>
      </trkpt>
      <trkpt lat="42.97244" lon="0.24948">
        <ele>1051.76</ele>
        <time>2017-03-21T08:54:58Z</time>
      </trkpt>
      <trkpt lat="42.97238" lon="0.24958">
        <ele>1055.14</ele>
        <time>2017-03-21T08:55:19Z</time>
      </trkpt>
      <trkpt lat="42.97236" lon="0.24973">
        <ele>1057.81</ele>
        <time>2017-03-21T08:55:40Z</time>
      </trkpt>
      <trkpt lat="42.97234" lon="0.24985">
        <ele>1060.55</ele>
        <time>2017-03-21T08:56:01Z</time>
      </trkpt>
      <trkpt lat="42.97228" lon="0.24996">
        <ele>1063.25</ele>
        <time>2017-03-21T08:56:23Z</time>
      </trkpt>
      <trkpt lat="42.97222" lon="0.25006">
        <ele>1065.44</ele>
        <time>2017-03-21T08:56:41Z</time>
      </trkpt>
      <trkpt lat="42.97215" lon="0.25014">
        <ele>1068.28</ele>
        <time>2017-03-21T08:57:03Z</time>
      </trkpt>
      <trkpt lat="42.97207" lon="0.25023">
        <ele>1070.49</ele>
        <time>2017-03-21T08:57:26Z</time>
      </trkpt>
      <trkpt lat="42.97198" lon="0.25028">
        <ele>1072.12</ele>
        <time>2017-03-21T08:57:52Z</time>
      </trkpt>
      <trkpt lat="42.97191" lon="0.25036">
        <ele>1074.33</ele>
        <time>2017-03-21T08:58:23Z</time>
      </trkpt>
      <trkpt lat="42.97182" lon="0.25043">
        <ele>1078.58</ele>
        <time>2017-03-21T08:58:42Z</time>
      </trkpt>
      <trkpt lat="42.97174" lon="0.25047">
        <ele>1082.1</ele>
        <time>2017-03-21T08:59:05Z</time>
      </trkpt>
      <trkpt lat="42.97166" lon="0.25056">
        <ele>1084.44</ele>
        <time>2017-03-21T08:59:24Z</time>
      </trkpt>
      <trkpt lat="42.97161" lon="0.25066">
        <ele>1085.39</ele>
        <time>2017-03-21T08:59:46Z</time>
      </trkpt>
      <trkpt lat="42.97155" lon="0.25076">
        <ele>1089.75</ele>
        <time>2017-03-21T09:00:07Z</time>
      </trkpt>
      <trkpt lat="42.97152" lon="0.25089">
        <ele>1092.53</ele>
        <time>2017-03-21T09:00:31Z</time>
      </trkpt>
      <trkpt lat="42.9715" lon="0.25099">
        <ele>1095.45</ele>
        <time>2017-03-21T09:00:56Z</time>
      </trkpt>
      <trkpt lat="42.97144" lon="0.25111">
        <ele>1097.34</ele>
        <time>2017-03-21T09:01:21Z</time>
      </trkpt>
      <trkpt lat="42.97138" lon="0.25122">
        <ele>1102.02</ele>
        <time>2017-03-21T09:01:44Z</time>
      </trkpt>
      <trkpt lat="42.97132" lon="0.25133">
        <ele>1103.99</ele>
        <time>2017-03-21T09:02:08Z</time>
      </trkpt>
      <trkpt lat="42.97129" lon="0.25144">
        <ele>1106.45</ele>
        <time>2017-03-21T09:02:22Z</time>
      </trkpt>
      <trkpt lat="42.97124" lon="0.25156">
        <ele>1106.84</ele>
        <time>2017-03-21T09:02:34Z</time>
      </trkpt>
      <trkpt lat="42.97118" lon="0.25169">
        <ele>1107.28</ele>
        <time>2017-03-21T09:02:44Z</time>
      </trkpt>
      <trkpt lat="42.97114" lon="0.25182">
        <ele>1107.66</ele>
        <time>2017-03-21T09:02:56Z</time>
      </trkpt>
      <trkpt lat="42.97109" lon="0.25194">
        <ele>1109.39</ele>
        <time>2017-03-21T09:03:11Z</time>
      </trkpt>
      <trkpt lat="42.97104" lon="0.25204">
        <ele>1113.46</ele>
        <time>2017-03-21T09:03:33Z</time>
      </trkpt>
      <trkpt lat="42.97106" lon="0.25219">
        <ele>1116.38</ele>
        <time>2017-03-21T09:03:48Z</time>
      </trkpt>
      <trkpt lat="42.97105" lon="0.25232">
        <ele>1118.19</ele>
        <time>2017-03-21T09:04:03Z</time>
      </trkpt>
      <trkpt lat="42.97102" lon="0.25245">
        <ele>1121.63</ele>
        <time>2017-03-21T09:04:31Z</time>
      </trkpt>
      <trkpt lat="42.97101" lon="0.25261">
        <ele>1123.24</ele>
        <time>2017-03-21T09:04:47Z</time>
      </trkpt>
      <trkpt lat="42.97098" lon="0.25275">
        <ele>1123.69</ele>
        <time>2017-03-21T09:05:01Z</time>
      </trkpt>
      <trkpt lat="42.97099" lon="0.25289">
        <ele>1124.37</ele>
        <time>2017-03-21T09:05:14Z</time>
      </trkpt>
      <trkpt lat="42.97103" lon="0.25303">
        <ele>1123.23</ele>
        <time>2017-03-21T09:05:28Z</time>
      </trkpt>
      <trkpt lat="42.97103" lon="0.25316">
        <ele>1123.38</ele>
        <time>2017-03-21T09:05:45Z</time>
      </trkpt>
      <trkpt lat="42.971" lon="0.25329">
        <ele>1123.01</ele>
        <time>2017-03-21T09:06:01Z</time>
      </trkpt>
      <trkpt lat="42.971" lon="0.25343">
        <ele>1124.39</ele>
        <time>2017-03-21T09:06:16Z</time>
      </trkpt>
      <trkpt lat="42.97095" lon="0.25358">
        <ele>1124.3</ele>
        <time>2017-03-21T09:06:32Z</time>
      </trkpt>
      <trkpt lat="42.97094" lon="0.2537">
        <ele>1125.72</ele>
        <time>2017-03-21T09:06:53Z</time>
      </trkpt>
      <trkpt lat="42.97091" lon="0.25381">
        <ele>1129.31</ele>
        <time>2017-03-21T09:07:15Z</time>
      </trkpt>
      <trkpt lat="42.97092" lon="0.25393">
        <ele>1128.49</ele>
        <time>2017-03-21T09:07:41Z</time>
      </trkpt>
      <trkpt lat="42.97091" lon="0.25404">
        <ele>1129.44</ele>
        <time>2017-03-21T09:08:00Z</time>
      </trkpt>
      <trkpt lat="42.97083" lon="0.25416">
        <ele>1130.01</ele>
        <time>2017-03-21T09:08:17Z</time>
      </trkpt>
      <trkpt lat="42.97079" lon="0.25426">
        <ele>1131.71</ele>
        <time>2017-03-21T09:08:33Z</time>
      </trkpt>
      <trkpt lat="42.97082" lon="0.25443">
        <ele>1134.15</ele>
        <time>2017-03-21T09:08:52Z</time>
      </trkpt>
      <trkpt lat="42.9708" lon="0.25457">
        <ele>1135.77</ele>
        <time>2017-03-21T09:09:10Z</time>
      </trkpt>
      <trkpt lat="42.97081" lon="0.25469">
        <ele>1138.68</ele>
        <time>2017-03-21T09:09:31Z</time>
      </trkpt>
      <trkpt lat="42.97085" lon="0.25487">
        <ele>1138.82</ele>
        <time>2017-03-21T09:09:49Z</time>
      </trkpt>
      <trkpt lat="42.97089" lon="0.25505">
        <ele>1141.49</ele>
        <time>2017-03-21T09:10:07Z</time>
      </trkpt>
      <trkpt lat="42.97094" lon="0.25518">
        <ele>1143.42</ele>
        <time>2017-03-21T09:10:21Z</time>
      </trkpt>
      <trkpt lat="42.97096" lon="0.25531">
        <ele>1143.08</ele>
        <time>2017-03-21T09:10:32Z</time>
      </trkpt>
      <trkpt lat="42.97096" lon="0.25545">
        <ele>1144.87</ele>
        <time>2017-03-21T09:10:49Z</time>
      </trkpt>
      <trkpt lat="42.97102" lon="0.25558">
        <ele>1146.96</ele>
        <time>2017-03-21T09:11:05Z</time>
      </trkpt>
      <trkpt lat="42.97108" lon="0.25571">
        <ele>1148.7</ele>
        <time>2017-03-21T09:11:20Z</time>
      </trkpt>
      <trkpt lat="42.97117" lon="0.2558">
        <ele>1150.53</ele>
        <time>2017-03-21T09:11:33Z</time>
      </trkpt>
      <trkpt lat="42.97125" lon="0.25588">
        <ele>1152.49</ele>
        <time>2017-03-21T09:11:46Z</time>
      </trkpt>
      <trkpt lat="42.97134" lon="0.25595">
        <ele>1154.17</ele>
        <time>2017-03-21T09:12:04Z</time>
      </trkpt>
      <trkpt lat="42.97142" lon="0.25602">
        <ele>1153.6</ele>
        <time>2017-03-21T09:12:24Z</time>
      </trkpt>
      <trkpt lat="42.97149" lon="0.25613">
        <ele>1156.65</ele>
        <time>2017-03-21T09:12:42Z</time>
      </trkpt>
      <trkpt lat="42.97156" lon="0.2562">
        <ele>1159.24</ele>
        <time>2017-03-21T09:13:24Z</time>
      </trkpt>
      <trkpt lat="42.97163" lon="0.25628">
        <ele>1159.18</ele>
        <time>2017-03-21T09:13:53Z</time>
      </trkpt>
      <trkpt lat="42.97172" lon="0.25635">
        <ele>1161.34</ele>
        <time>2017-03-21T09:14:21Z</time>
      </trkpt>
      <trkpt lat="42.97181" lon="0.25641">
        <ele>1162.13</ele>
        <time>2017-03-21T09:14:37Z</time>
      </trkpt>
      <trkpt lat="42.97191" lon="0.25644">
        <ele>1164.27</ele>
        <time>2017-03-21T09:15:00Z</time>
      </trkpt>
      <trkpt lat="42.972" lon="0.25649">
        <ele>1166.36</ele>
        <time>2017-03-21T09:15:13Z</time>
      </trkpt>
      <trkpt lat="42.97207" lon="0.25653">
        <ele>1167.9</ele>
        <time>2017-03-21T09:15:26Z</time>
      </trkpt>
      <trkpt lat="42.97215" lon="0.25658">
        <ele>1169.65</ele>
        <time>2017-03-21T09:15:38Z</time>
      </trkpt>
      <trkpt lat="42.97223" lon="0.25658">
        <ele>1171.05</ele>
        <time>2017-03-21T09:16:05Z</time>
      </trkpt>
      <trkpt lat="42.97218" lon="0.25668">
        <ele>1170.8</ele>
        <time>2017-03-21T09:16:16Z</time>
      </trkpt>
      <trkpt lat="42.97209" lon="0.25674">
        <ele>1170.8</ele>
        <time>2017-03-21T09:16:27Z</time>
      </trkpt>
      <trkpt lat="42.972" lon="0.25679">
        <ele>1173.02</ele>
        <time>2017-03-21T09:16:36Z</time>
      </trkpt>
      <trkpt lat="42.97191" lon="0.25686">
        <ele>1172.34</ele>
        <time>2017-03-21T09:16:45Z</time>
      </trkpt>
      <trkpt lat="42.97182" lon="0.25689">
        <ele>1174.08</ele>
        <time>2017-03-21T09:16:54Z</time>
      </trkpt>
      <trkpt lat="42.97173" lon="0.25693">
        <ele>1174.56</ele>
        <time>2017-03-21T09:17:02Z</time>
      </trkpt>
      <trkpt lat="42.97164" lon="0.25698">
        <ele>1175.48</ele>
        <time>2017-03-21T09:17:11Z</time>
      </trkpt>
      <trkpt lat="42.97155" lon="0.25705">
        <ele>1175.85</ele>
        <time>2017-03-21T09:17:21Z</time>
      </trkpt>
      <trkpt lat="42.97147" lon="0.25714">
        <ele>1173.82</ele>
        <time>2017-03-21T09:17:31Z</time>
      </trkpt>
      <trkpt lat="42.97148" lon="0.25726">
        <ele>1178.98</ele>
        <time>2017-03-21T09:17:45Z</time>
      </trkpt>
      <trkpt lat="42.97158" lon="0.25728">
        <ele>1179.81</ele>
        <time>2017-03-21T09:17:57Z</time>
      </trkpt>
      <trkpt lat="42.97167" lon="0.25727">
        <ele>1181.68</ele>
        <time>2017-03-21T09:18:33Z</time>
      </trkpt>
      <trkpt lat="42.97177" lon="0.25729">
        <ele>1181.66</ele>
        <time>2017-03-21T09:18:47Z</time>
      </trkpt>
      <trkpt lat="42.97186" lon="0.25729">
        <ele>1182.16</ele>
        <time>2017-03-21T09:18:59Z</time>
      </trkpt>
      <trkpt lat="42.97196" lon="0.2573">
        <ele>1182.33</ele>
        <time>2017-03-21T09:19:11Z</time>
      </trkpt>
      <trkpt lat="42.97205" lon="0.25729">
        <ele>1183.69</ele>
        <time>2017-03-21T09:19:24Z</time>
      </trkpt>
      <trkpt lat="42.97214" lon="0.25728">
        <ele>1185.45</ele>
        <time>2017-03-21T09:19:36Z</time>
      </trkpt>
      <trkpt lat="42.97222" lon="0.25727">
        <ele>1186.41</ele>
        <time>2017-03-21T09:19:48Z</time>
      </trkpt>
      <trkpt lat="42.97232" lon="0.25725">
        <ele>1186.34</ele>
        <time>2017-03-21T09:20:01Z</time>
      </trkpt>
      <trkpt lat="42.97242" lon="0.25723">
        <ele>1189.43</ele>
        <time>2017-03-21T09:20:14Z</time>
      </trkpt>
      <trkpt lat="42.97253" lon="0.25724">
        <ele>1188.33</ele>
        <time>2017-03-21T09:20:28Z</time>
      </trkpt>
      <trkpt lat="42.97263" lon="0.25723">
        <ele>1190.8</ele>
        <time>2017-03-21T09:20:42Z</time>
      </trkpt>
      <trkpt lat="42.97272" lon="0.2572">
        <ele>1191.66</ele>
        <time>2017-03-21T09:20:55Z</time>
      </trkpt>
      <trkpt lat="42.97282" lon="0.25718">
        <ele>1192.39</ele>
        <time>2017-03-21T09:21:08Z</time>
      </trkpt>
      <trkpt lat="42.97292" lon="0.25716">
        <ele>1194.84</ele>
        <time>2017-03-21T09:21:20Z</time>
      </trkpt>
      <trkpt lat="42.97301" lon="0.25718">
        <ele>1195.26</ele>
        <time>2017-03-21T09:21:32Z</time>
      </trkpt>
      <trkpt lat="42.9731" lon="0.25716">
        <ele>1195.24</ele>
        <time>2017-03-21T09:21:44Z</time>
      </trkpt>
      <trkpt lat="42.9732" lon="0.25722">
        <ele>1196.95</ele>
        <time>2017-03-21T09:21:57Z</time>
      </trkpt>
      <trkpt lat="42.9733" lon="0.25727">
        <ele>1198.53</ele>
        <time>2017-03-21T09:22:11Z</time>
      </trkpt>
      <trkpt lat="42.9734" lon="0.2573">
        <ele>1199.72</ele>
        <time>2017-03-21T09:22:24Z</time>
      </trkpt>
      <trkpt lat="42.9735" lon="0.25734">
        <ele>1201.91</ele>
        <time>2017-03-21T09:22:37Z</time>
      </trkpt>
      <trkpt lat="42.97359" lon="0.25735">
        <ele>1201.84</ele>
        <time>2017-03-21T09:22:51Z</time>
      </trkpt>
      <trkpt lat="42.97368" lon="0.25737">
        <ele>1204.01</ele>
        <time>2017-03-21T09:23:02Z</time>
      </trkpt>
      <trkpt lat="42.97379" lon="0.25743">
        <ele>1203.94</ele>
        <time>2017-03-21T09:23:15Z</time>
      </trkpt>
      <trkpt lat="42.9739" lon="0.25748">
        <ele>1204.44</ele>
        <time>2017-03-21T09:23:53Z</time>
      </trkpt>
      <trkpt lat="42.97393" lon="0.25741">
        <ele>1205.09</ele>
        <time>2017-03-21T09:24:57Z</time>
      </trkpt>
      <trkpt lat="42.97391" lon="0.25728">
        <ele>1206.34</ele>
        <time>2017-03-21T09:25:12Z</time>
      </trkpt>
      <trkpt lat="42.97386" lon="0.25716">
        <ele>1207.25</ele>
        <time>2017-03-21T09:25:25Z</time>
      </trkpt>
      <trkpt lat="42.97379" lon="0.25702">
        <ele>1209.53</ele>
        <time>2017-03-21T09:25:39Z</time>
      </trkpt>
      <trkpt lat="42.97374" lon="0.2569">
        <ele>1210.01</ele>
        <time>2017-03-21T09:25:51Z</time>
      </trkpt>
      <trkpt lat="42.97373" lon="0.25678">
        <ele>1210.49</ele>
        <time>2017-03-21T09:26:03Z</time>
      </trkpt>
      <trkpt lat="42.97372" lon="0.25664">
        <ele>1210.65</ele>
        <time>2017-03-21T09:26:16Z</time>
      </trkpt>
      <trkpt lat="42.97368" lon="0.25653">
        <ele>1213.75</ele>
        <time>2017-03-21T09:26:30Z</time>
      </trkpt>
      <trkpt lat="42.97364" lon="0.2564">
        <ele>1213.78</ele>
        <time>2017-03-21T09:26:42Z</time>
      </trkpt>
      <trkpt lat="42.97363" lon="0.25628">
        <ele>1216.23</ele>
        <time>2017-03-21T09:26:55Z</time>
      </trkpt>
      <trkpt lat="42.97363" lon="0.25615">
        <ele>1215.53</ele>
        <time>2017-03-21T09:27:07Z</time>
      </trkpt>
      <trkpt lat="42.97367" lon="0.25603">
        <ele>1217.87</ele>
        <time>2017-03-21T09:27:18Z</time>
      </trkpt>
      <trkpt lat="42.97372" lon="0.25593">
        <ele>1218.9</ele>
        <time>2017-03-21T09:27:29Z</time>
      </trkpt>
      <trkpt lat="42.97379" lon="0.25585">
        <ele>1217.67</ele>
        <time>2017-03-21T09:27:41Z</time>
      </trkpt>
      <trkpt lat="42.97386" lon="0.25575">
        <ele>1220.45</ele>
        <time>2017-03-21T09:27:53Z</time>
      </trkpt>
      <trkpt lat="42.97398" lon="0.25571">
        <ele>1221.91</ele>
        <time>2017-03-21T09:28:08Z</time>
      </trkpt>
      <trkpt lat="42.97409" lon="0.25568">
        <ele>1222.29</ele>
        <time>2017-03-21T09:28:21Z</time>
      </trkpt>
      <trkpt lat="42.97417" lon="0.25564">
        <ele>1223.79</ele>
        <time>2017-03-21T09:28:32Z</time>
      </trkpt>
      <trkpt lat="42.97426" lon="0.25563">
        <ele>1223.79</ele>
        <time>2017-03-21T09:28:44Z</time>
      </trkpt>
      <trkpt lat="42.97436" lon="0.25559">
        <ele>1224.18</ele>
        <time>2017-03-21T09:28:55Z</time>
      </trkpt>
      <trkpt lat="42.97444" lon="0.25556">
        <ele>1226.43</ele>
        <time>2017-03-21T09:29:07Z</time>
      </trkpt>
      <trkpt lat="42.97441" lon="0.25564">
        <ele>1227.13</ele>
        <time>2017-03-21T09:29:20Z</time>
      </trkpt>
      <trkpt lat="42.97433" lon="0.25572">
        <ele>1227.32</ele>
        <time>2017-03-21T09:29:32Z</time>
      </trkpt>
      <trkpt lat="42.97425" lon="0.25579">
        <ele>1227.56</ele>
        <time>2017-03-21T09:29:43Z</time>
      </trkpt>
      <trkpt lat="42.97417" lon="0.25586">
        <ele>1227.78</ele>
        <time>2017-03-21T09:29:52Z</time>
      </trkpt>
      <trkpt lat="42.9741" lon="0.25593">
        <ele>1227.51</ele>
        <time>2017-03-21T09:30:01Z</time>
      </trkpt>
      <trkpt lat="42.97403" lon="0.25601">
        <ele>1227.99</ele>
        <time>2017-03-21T09:30:09Z</time>
      </trkpt>
      <trkpt lat="42.97397" lon="0.2561">
        <ele>1227.62</ele>
        <time>2017-03-21T09:30:19Z</time>
      </trkpt>
      <trkpt lat="42.97393" lon="0.25622">
        <ele>1227.72</ele>
        <time>2017-03-21T09:30:29Z</time>
      </trkpt>
      <trkpt lat="42.97395" lon="0.25634">
        <ele>1227.78</ele>
        <time>2017-03-21T09:30:39Z</time>
      </trkpt>
      <trkpt lat="42.974" lon="0.25645">
        <ele>1227.02</ele>
        <time>2017-03-21T09:30:50Z</time>
      </trkpt>
      <trkpt lat="42.97405" lon="0.25656">
        <ele>1226.84</ele>
        <time>2017-03-21T09:31:02Z</time>
      </trkpt>
      <trkpt lat="42.97409" lon="0.25668">
        <ele>1226.31</ele>
        <time>2017-03-21T09:31:12Z</time>
      </trkpt>
      <trkpt lat="42.97411" lon="0.2568">
        <ele>1226.9</ele>
        <time>2017-03-21T09:31:22Z</time>
      </trkpt>
      <trkpt lat="42.97412" lon="0.25693">
        <ele>1226.94</ele>
        <time>2017-03-21T09:31:33Z</time>
      </trkpt>
      <trkpt lat="42.97417" lon="0.25705">
        <ele>1227.12</ele>
        <time>2017-03-21T09:31:43Z</time>
      </trkpt>
      <trkpt lat="42.97422" lon="0.25715">
        <ele>1227.01</ele>
        <time>2017-03-21T09:31:55Z</time>
      </trkpt>
      <trkpt lat="42.97428" lon="0.25726">
        <ele>1227.48</ele>
        <time>2017-03-21T09:32:06Z</time>
      </trkpt>
      <trkpt lat="42.97434" lon="0.25736">
        <ele>1227.36</ele>
        <time>2017-03-21T09:32:15Z</time>
      </trkpt>
      <trkpt lat="42.97441" lon="0.25746">
        <ele>1227.05</ele>
        <time>2017-03-21T09:32:24Z</time>
      </trkpt>
      <trkpt lat="42.97446" lon="0.25756">
        <ele>1227.71</ele>
        <time>2017-03-21T09:32:34Z</time>
      </trkpt>
      <trkpt lat="42.97451" lon="0.25767">
        <ele>1228.36</ele>
        <time>2017-03-21T09:32:44Z</time>
      </trkpt>
      <trkpt lat="42.97455" lon="0.25779">
        <ele>1229.22</ele>
        <time>2017-03-21T09:32:53Z</time>
      </trkpt>
      <trkpt lat="42.97459" lon="0.25792">
        <ele>1229.04</ele>
        <time>2017-03-21T09:33:03Z</time>
      </trkpt>
      <trkpt lat="42.97459" lon="0.25806">
        <ele>1230.07</ele>
        <time>2017-03-21T09:33:12Z</time>
      </trkpt>
      <trkpt lat="42.97459" lon="0.25819">
        <ele>1230.53</ele>
        <time>2017-03-21T09:33:21Z</time>
      </trkpt>
      <trkpt lat="42.97457" lon="0.25828">
        <ele>1229.65</ele>
        <time>2017-03-21T09:34:00Z</time>
      </trkpt>
      <trkpt lat="42.97448" lon="0.25837">
        <ele>1230.49</ele>
        <time>2017-03-21T09:34:10Z</time>
      </trkpt>
      <trkpt lat="42.97438" lon="0.25839">
        <ele>1231.55</ele>
        <time>2017-03-21T09:34:21Z</time>
      </trkpt>
      <trkpt lat="42.97428" lon="0.25843">
        <ele>1232.06</ele>
        <time>2017-03-21T09:34:32Z</time>
      </trkpt>
      <trkpt lat="42.9742" lon="0.25847">
        <ele>1231.81</ele>
        <time>2017-03-21T09:34:41Z</time>
      </trkpt>
      <trkpt lat="42.9741" lon="0.25855">
        <ele>1233.02</ele>
        <time>2017-03-21T09:34:52Z</time>
      </trkpt>
      <trkpt lat="42.97402" lon="0.25859">
        <ele>1233.42</ele>
        <time>2017-03-21T09:35:02Z</time>
      </trkpt>
      <trkpt lat="42.97392" lon="0.25862">
        <ele>1234.54</ele>
        <time>2017-03-21T09:35:12Z</time>
      </trkpt>
      <trkpt lat="42.97383" lon="0.25867">
        <ele>1234.25</ele>
        <time>2017-03-21T09:35:22Z</time>
      </trkpt>
      <trkpt lat="42.97375" lon="0.25872">
        <ele>1236.09</ele>
        <time>2017-03-21T09:35:31Z</time>
      </trkpt>
      <trkpt lat="42.97367" lon="0.25879">
        <ele>1237.69</ele>
        <time>2017-03-21T09:35:41Z</time>
      </trkpt>
      <trkpt lat="42.97358" lon="0.25883">
        <ele>1237.97</ele>
        <time>2017-03-21T09:35:52Z</time>
      </trkpt>
      <trkpt lat="42.97348" lon="0.25888">
        <ele>1238.96</ele>
        <time>2017-03-21T09:36:03Z</time>
      </trkpt>
      <trkpt lat="42.97339" lon="0.25892">
        <ele>1239.87</ele>
        <time>2017-03-21T09:36:13Z</time>
      </trkpt>
      <trkpt lat="42.9733" lon="0.25898">
        <ele>1240.31</ele>
        <time>2017-03-21T09:36:25Z</time>
      </trkpt>
      <trkpt lat="42.97321" lon="0.25902">
        <ele>1240.05</ele>
        <time>2017-03-21T09:36:35Z</time>
      </trkpt>
      <trkpt lat="42.97312" lon="0.25907">
        <ele>1243.5</ele>
        <time>2017-03-21T09:36:46Z</time>
      </trkpt>
      <trkpt lat="42.97303" lon="0.25911">
        <ele>1241.47</ele>
        <time>2017-03-21T09:36:59Z</time>
      </trkpt>
      <trkpt lat="42.97294" lon="0.25917">
        <ele>1242.93</ele>
        <time>2017-03-21T09:37:11Z</time>
      </trkpt>
      <trkpt lat="42.97285" lon="0.25923">
        <ele>1244.31</ele>
        <time>2017-03-21T09:37:23Z</time>
      </trkpt>
      <trkpt lat="42.97277" lon="0.25929">
        <ele>1246.04</ele>
        <time>2017-03-21T09:37:34Z</time>
      </trkpt>
      <trkpt lat="42.97268" lon="0.25935">
        <ele>1247.06</ele>
        <time>2017-03-21T09:37:45Z</time>
      </trkpt>
      <trkpt lat="42.9726" lon="0.25941">
        <ele>1248.13</ele>
        <time>2017-03-21T09:37:56Z</time>
      </trkpt>
      <trkpt lat="42.97251" lon="0.25947">
        <ele>1248.77</ele>
        <time>2017-03-21T09:38:08Z</time>
      </trkpt>
      <trkpt lat="42.97242" lon="0.25955">
        <ele>1250.09</ele>
        <time>2017-03-21T09:38:20Z</time>
      </trkpt>
      <trkpt lat="42.97234" lon="0.25962">
        <ele>1250.93</ele>
        <time>2017-03-21T09:38:31Z</time>
      </trkpt>
      <trkpt lat="42.97227" lon="0.25971">
        <ele>1252.17</ele>
        <time>2017-03-21T09:38:42Z</time>
      </trkpt>
      <trkpt lat="42.97219" lon="0.25979">
        <ele>1253.04</ele>
        <time>2017-03-21T09:38:53Z</time>
      </trkpt>
      <trkpt lat="42.97211" lon="0.25986">
        <ele>1253.23</ele>
        <time>2017-03-21T09:39:03Z</time>
      </trkpt>
      <trkpt lat="42.97204" lon="0.25994">
        <ele>1253.83</ele>
        <time>2017-03-21T09:39:13Z</time>
      </trkpt>
      <trkpt lat="42.97197" lon="0.26002">
        <ele>1255.59</ele>
        <time>2017-03-21T09:39:24Z</time>
      </trkpt>
      <trkpt lat="42.9719" lon="0.2601">
        <ele>1257.06</ele>
        <time>2017-03-21T09:39:35Z</time>
      </trkpt>
      <trkpt lat="42.97182" lon="0.26017">
        <ele>1259.09</ele>
        <time>2017-03-21T09:39:45Z</time>
      </trkpt>
      <trkpt lat="42.97174" lon="0.26023">
        <ele>1258.78</ele>
        <time>2017-03-21T09:39:55Z</time>
      </trkpt>
      <trkpt lat="42.97167" lon="0.26029">
        <ele>1259.64</ele>
        <time>2017-03-21T09:40:05Z</time>
      </trkpt>
      <trkpt lat="42.97158" lon="0.26037">
        <ele>1260.22</ele>
        <time>2017-03-21T09:40:16Z</time>
      </trkpt>
      <trkpt lat="42.97151" lon="0.26044">
        <ele>1261.42</ele>
        <time>2017-03-21T09:40:27Z</time>
      </trkpt>
      <trkpt lat="42.97142" lon="0.26052">
        <ele>1262.21</ele>
        <time>2017-03-21T09:40:38Z</time>
      </trkpt>
      <trkpt lat="42.97135" lon="0.26061">
        <ele>1262.33</ele>
        <time>2017-03-21T09:40:49Z</time>
      </trkpt>
      <trkpt lat="42.97128" lon="0.26069">
        <ele>1263.07</ele>
        <time>2017-03-21T09:41:00Z</time>
      </trkpt>
      <trkpt lat="42.97121" lon="0.26078">
        <ele>1265.53</ele>
        <time>2017-03-21T09:41:11Z</time>
      </trkpt>
      <trkpt lat="42.97114" lon="0.26086">
        <ele>1265.27</ele>
        <time>2017-03-21T09:41:21Z</time>
      </trkpt>
      <trkpt lat="42.97107" lon="0.26094">
        <ele>1265.94</ele>
        <time>2017-03-21T09:41:31Z</time>
      </trkpt>
      <trkpt lat="42.97099" lon="0.26103">
        <ele>1267.03</ele>
        <time>2017-03-21T09:41:41Z</time>
      </trkpt>
      <trkpt lat="42.97092" lon="0.26111">
        <ele>1268.02</ele>
        <time>2017-03-21T09:41:51Z</time>
      </trkpt>
      <trkpt lat="42.97086" lon="0.26121">
        <ele>1268.33</ele>
        <time>2017-03-21T09:42:01Z</time>
      </trkpt>
      <trkpt lat="42.9708" lon="0.2613">
        <ele>1267.87</ele>
        <time>2017-03-21T09:42:10Z</time>
      </trkpt>
      <trkpt lat="42.97074" lon="0.26139">
        <ele>1269.3</ele>
        <time>2017-03-21T09:42:19Z</time>
      </trkpt>
      <trkpt lat="42.97067" lon="0.26147">
        <ele>1269.8</ele>
        <time>2017-03-21T09:42:28Z</time>
      </trkpt>
      <trkpt lat="42.97062" lon="0.26158">
        <ele>1270.8</ele>
        <time>2017-03-21T09:42:38Z</time>
      </trkpt>
      <trkpt lat="42.97056" lon="0.26167">
        <ele>1271.95</ele>
        <time>2017-03-21T09:42:51Z</time>
      </trkpt>
      <trkpt lat="42.9705" lon="0.26178">
        <ele>1272.18</ele>
        <time>2017-03-21T09:43:02Z</time>
      </trkpt>
      <trkpt lat="42.97045" lon="0.26188">
        <ele>1272.71</ele>
        <time>2017-03-21T09:43:12Z</time>
      </trkpt>
      <trkpt lat="42.97042" lon="0.262">
        <ele>1273.82</ele>
        <time>2017-03-21T09:43:23Z</time>
      </trkpt>
      <trkpt lat="42.9704" lon="0.26212">
        <ele>1274.07</ele>
        <time>2017-03-21T09:43:34Z</time>
      </trkpt>
      <trkpt lat="42.97047" lon="0.26213">
        <ele>1274.81</ele>
        <time>2017-03-21T09:43:52Z</time>
      </trkpt>
      <trkpt lat="42.97056" lon="0.26214">
        <ele>1278.59</ele>
        <time>2017-03-21T09:44:08Z</time>
      </trkpt>
      <trkpt lat="42.97064" lon="0.26212">
        <ele>1282.55</ele>
        <time>2017-03-21T09:47:17Z</time>
      </trkpt>
      <trkpt lat="42.97074" lon="0.26212">
        <ele>1282.62</ele>
        <time>2017-03-21T09:47:33Z</time>
      </trkpt>
      <trkpt lat="42.97083" lon="0.26213">
        <ele>1286</ele>
        <time>2017-03-21T09:47:48Z</time>
      </trkpt>
      <trkpt lat="42.97092" lon="0.26212">
        <ele>1286.94</ele>
        <time>2017-03-21T09:48:08Z</time>
      </trkpt>
      <trkpt lat="42.97102" lon="0.26212">
        <ele>1289.25</ele>
        <time>2017-03-21T09:48:29Z</time>
      </trkpt>
      <trkpt lat="42.97111" lon="0.26212">
        <ele>1291.16</ele>
        <time>2017-03-21T09:48:44Z</time>
      </trkpt>
      <trkpt lat="42.97121" lon="0.26212">
        <ele>1292.66</ele>
        <time>2017-03-21T09:49:15Z</time>
      </trkpt>
      <trkpt lat="42.9713" lon="0.2621">
        <ele>1293.5</ele>
        <time>2017-03-21T09:49:31Z</time>
      </trkpt>
      <trkpt lat="42.97139" lon="0.26207">
        <ele>1297.42</ele>
        <time>2017-03-21T09:49:46Z</time>
      </trkpt>
      <trkpt lat="42.97148" lon="0.26204">
        <ele>1298.77</ele>
        <time>2017-03-21T09:50:03Z</time>
      </trkpt>
      <trkpt lat="42.97157" lon="0.26204">
        <ele>1301.87</ele>
        <time>2017-03-21T09:50:19Z</time>
      </trkpt>
      <trkpt lat="42.97166" lon="0.26202">
        <ele>1304.39</ele>
        <time>2017-03-21T09:50:33Z</time>
      </trkpt>
      <trkpt lat="42.97175" lon="0.26201">
        <ele>1305.43</ele>
        <time>2017-03-21T09:50:47Z</time>
      </trkpt>
      <trkpt lat="42.97185" lon="0.26203">
        <ele>1307.58</ele>
        <time>2017-03-21T09:51:06Z</time>
      </trkpt>
      <trkpt lat="42.97193" lon="0.26207">
        <ele>1310.2</ele>
        <time>2017-03-21T09:51:23Z</time>
      </trkpt>
      <trkpt lat="42.97197" lon="0.26214">
        <ele>1314.3</ele>
        <time>2017-03-21T09:51:42Z</time>
      </trkpt>
      <trkpt lat="42.97206" lon="0.26214">
        <ele>1313.06</ele>
        <time>2017-03-21T09:52:01Z</time>
      </trkpt>
      <trkpt lat="42.97214" lon="0.26218">
        <ele>1319.76</ele>
        <time>2017-03-21T09:52:20Z</time>
      </trkpt>
      <trkpt lat="42.97223" lon="0.2622">
        <ele>1320.93</ele>
        <time>2017-03-21T09:52:38Z</time>
      </trkpt>
      <trkpt lat="42.97231" lon="0.26223">
        <ele>1323.79</ele>
        <time>2017-03-21T09:52:56Z</time>
      </trkpt>
      <trkpt lat="42.9724" lon="0.26222">
        <ele>1325.18</ele>
        <time>2017-03-21T09:53:14Z</time>
      </trkpt>
      <trkpt lat="42.97248" lon="0.2622">
        <ele>1328.8</ele>
        <time>2017-03-21T09:53:31Z</time>
      </trkpt>
      <trkpt lat="42.97256" lon="0.2622">
        <ele>1330.33</ele>
        <time>2017-03-21T09:53:50Z</time>
      </trkpt>
      <trkpt lat="42.97266" lon="0.2622">
        <ele>1331.71</ele>
        <time>2017-03-21T09:54:06Z</time>
      </trkpt>
      <trkpt lat="42.97275" lon="0.26223">
        <ele>1332.95</ele>
        <time>2017-03-21T09:54:24Z</time>
      </trkpt>
      <trkpt lat="42.97282" lon="0.26225">
        <ele>1337.77</ele>
        <time>2017-03-21T09:54:47Z</time>
      </trkpt>
      <trkpt lat="42.97288" lon="0.26231">
        <ele>1338.99</ele>
        <time>2017-03-21T09:55:05Z</time>
      </trkpt>
      <trkpt lat="42.97293" lon="0.2624">
        <ele>1344.71</ele>
        <time>2017-03-21T09:55:25Z</time>
      </trkpt>
      <trkpt lat="42.97302" lon="0.26242">
        <ele>1345.98</ele>
        <time>2017-03-21T09:55:56Z</time>
      </trkpt>
      <trkpt lat="42.97311" lon="0.26236">
        <ele>1346.21</ele>
        <time>2017-03-21T09:56:17Z</time>
      </trkpt>
      <trkpt lat="42.97318" lon="0.2623">
        <ele>1345.57</ele>
        <time>2017-03-21T09:56:38Z</time>
      </trkpt>
      <trkpt lat="42.97325" lon="0.26235">
        <ele>1348.31</ele>
        <time>2017-03-21T09:56:58Z</time>
      </trkpt>
      <trkpt lat="42.97335" lon="0.26238">
        <ele>1351.59</ele>
        <time>2017-03-21T09:57:19Z</time>
      </trkpt>
      <trkpt lat="42.97343" lon="0.26239">
        <ele>1355.26</ele>
        <time>2017-03-21T09:57:37Z</time>
      </trkpt>
      <trkpt lat="42.97352" lon="0.2624">
        <ele>1357.49</ele>
        <time>2017-03-21T09:57:54Z</time>
      </trkpt>
      <trkpt lat="42.97359" lon="0.26245">
        <ele>1358.95</ele>
        <time>2017-03-21T09:58:13Z</time>
      </trkpt>
      <trkpt lat="42.97368" lon="0.26247">
        <ele>1363.65</ele>
        <time>2017-03-21T09:58:32Z</time>
      </trkpt>
      <trkpt lat="42.97375" lon="0.26253">
        <ele>1365.41</ele>
        <time>2017-03-21T09:58:52Z</time>
      </trkpt>
      <trkpt lat="42.97383" lon="0.26258">
        <ele>1369.09</ele>
        <time>2017-03-21T09:59:17Z</time>
      </trkpt>
      <trkpt lat="42.97392" lon="0.26263">
        <ele>1371.61</ele>
        <time>2017-03-21T09:59:37Z</time>
      </trkpt>
      <trkpt lat="42.97399" lon="0.26268">
        <ele>1376.84</ele>
        <time>2017-03-21T09:59:56Z</time>
      </trkpt>
      <trkpt lat="42.97408" lon="0.26271">
        <ele>1379.06</ele>
        <time>2017-03-21T10:00:15Z</time>
      </trkpt>
      <trkpt lat="42.97416" lon="0.26274">
        <ele>1380.97</ele>
        <time>2017-03-21T10:00:38Z</time>
      </trkpt>
      <trkpt lat="42.97425" lon="0.26278">
        <ele>1379.56</ele>
        <time>2017-03-21T10:00:58Z</time>
      </trkpt>
      <trkpt lat="42.97433" lon="0.26282">
        <ele>1386.89</ele>
        <time>2017-03-21T10:01:19Z</time>
      </trkpt>
      <trkpt lat="42.97443" lon="0.26281">
        <ele>1385.84</ele>
        <time>2017-03-21T10:01:34Z</time>
      </trkpt>
      <trkpt lat="42.97451" lon="0.26284">
        <ele>1391.71</ele>
        <time>2017-03-21T10:01:55Z</time>
      </trkpt>
      <trkpt lat="42.97457" lon="0.26291">
        <ele>1393.19</ele>
        <time>2017-03-21T10:02:13Z</time>
      </trkpt>
      <trkpt lat="42.97465" lon="0.26291">
        <ele>1394.45</ele>
        <time>2017-03-21T10:02:39Z</time>
      </trkpt>
      <trkpt lat="42.97473" lon="0.26284">
        <ele>1395.74</ele>
        <time>2017-03-21T10:03:08Z</time>
      </trkpt>
      <trkpt lat="42.97483" lon="0.26285">
        <ele>1396.51</ele>
        <time>2017-03-21T10:03:29Z</time>
      </trkpt>
      <trkpt lat="42.97492" lon="0.2629">
        <ele>1399.95</ele>
        <time>2017-03-21T10:03:49Z</time>
      </trkpt>
      <trkpt lat="42.97501" lon="0.26289">
        <ele>1401.31</ele>
        <time>2017-03-21T10:04:06Z</time>
      </trkpt>
      <trkpt lat="42.97509" lon="0.2629">
        <ele>1403.7</ele>
        <time>2017-03-21T10:04:27Z</time>
      </trkpt>
      <trkpt lat="42.97511" lon="0.26296">
        <ele>1405.7</ele>
        <time>2017-03-21T10:06:19Z</time>
      </trkpt>
      <trkpt lat="42.97521" lon="0.26297">
        <ele>1407.14</ele>
        <time>2017-03-21T10:06:33Z</time>
      </trkpt>
      <trkpt lat="42.97529" lon="0.263">
        <ele>1409.04</ele>
        <time>2017-03-21T10:06:50Z</time>
      </trkpt>
      <trkpt lat="42.97537" lon="0.26302">
        <ele>1411.83</ele>
        <time>2017-03-21T10:07:10Z</time>
      </trkpt>
      <trkpt lat="42.97546" lon="0.26305">
        <ele>1413.57</ele>
        <time>2017-03-21T10:07:25Z</time>
      </trkpt>
      <trkpt lat="42.97554" lon="0.26309">
        <ele>1416.58</ele>
        <time>2017-03-21T10:07:45Z</time>
      </trkpt>
      <trkpt lat="42.97562" lon="0.26312">
        <ele>1419.59</ele>
        <time>2017-03-21T10:08:09Z</time>
      </trkpt>
      <trkpt lat="42.97571" lon="0.26315">
        <ele>1420.99</ele>
        <time>2017-03-21T10:08:26Z</time>
      </trkpt>
      <trkpt lat="42.97579" lon="0.26321">
        <ele>1423</ele>
        <time>2017-03-21T10:08:43Z</time>
      </trkpt>
      <trkpt lat="42.97587" lon="0.26325">
        <ele>1424.79</ele>
        <time>2017-03-21T10:08:59Z</time>
      </trkpt>
      <trkpt lat="42.97596" lon="0.26327">
        <ele>1427.9</ele>
        <time>2017-03-21T10:09:13Z</time>
      </trkpt>
      <trkpt lat="42.97605" lon="0.26329">
        <ele>1431.19</ele>
        <time>2017-03-21T10:09:28Z</time>
      </trkpt>
      <trkpt lat="42.97615" lon="0.26332">
        <ele>1432.83</ele>
        <time>2017-03-21T10:09:42Z</time>
      </trkpt>
      <trkpt lat="42.97623" lon="0.26336">
        <ele>1433.02</ele>
        <time>2017-03-21T10:09:55Z</time>
      </trkpt>
      <trkpt lat="42.97631" lon="0.2634">
        <ele>1435.1</ele>
        <time>2017-03-21T10:10:10Z</time>
      </trkpt>
      <trkpt lat="42.97638" lon="0.26347">
        <ele>1438.02</ele>
        <time>2017-03-21T10:10:25Z</time>
      </trkpt>
      <trkpt lat="42.97647" lon="0.26352">
        <ele>1440.3</ele>
        <time>2017-03-21T10:10:41Z</time>
      </trkpt>
      <trkpt lat="42.97656" lon="0.26357">
        <ele>1441.99</ele>
        <time>2017-03-21T10:10:56Z</time>
      </trkpt>
      <trkpt lat="42.97665" lon="0.26358">
        <ele>1443.55</ele>
        <time>2017-03-21T10:11:09Z</time>
      </trkpt>
      <trkpt lat="42.97674" lon="0.26362">
        <ele>1444.38</ele>
        <time>2017-03-21T10:11:22Z</time>
      </trkpt>
      <trkpt lat="42.97682" lon="0.26368">
        <ele>1446.51</ele>
        <time>2017-03-21T10:11:35Z</time>
      </trkpt>
      <trkpt lat="42.9769" lon="0.26375">
        <ele>1448.84</ele>
        <time>2017-03-21T10:11:49Z</time>
      </trkpt>
      <trkpt lat="42.97699" lon="0.26377">
        <ele>1448.67</ele>
        <time>2017-03-21T10:12:01Z</time>
      </trkpt>
      <trkpt lat="42.97708" lon="0.26382">
        <ele>1450.03</ele>
        <time>2017-03-21T10:12:13Z</time>
      </trkpt>
      <trkpt lat="42.97714" lon="0.26386">
        <ele>1451.91</ele>
        <time>2017-03-21T10:12:54Z</time>
      </trkpt>
      <trkpt lat="42.97723" lon="0.26392">
        <ele>1453.31</ele>
        <time>2017-03-21T10:13:06Z</time>
      </trkpt>
      <trkpt lat="42.97732" lon="0.26396">
        <ele>1452.64</ele>
        <time>2017-03-21T10:13:18Z</time>
      </trkpt>
      <trkpt lat="42.97741" lon="0.26398">
        <ele>1454.86</ele>
        <time>2017-03-21T10:13:28Z</time>
      </trkpt>
      <trkpt lat="42.9775" lon="0.264">
        <ele>1455.11</ele>
        <time>2017-03-21T10:13:43Z</time>
      </trkpt>
      <trkpt lat="42.97759" lon="0.26393">
        <ele>1458.54</ele>
        <time>2017-03-21T10:13:57Z</time>
      </trkpt>
      <trkpt lat="42.97765" lon="0.26386">
        <ele>1459.47</ele>
        <time>2017-03-21T10:14:20Z</time>
      </trkpt>
      <trkpt lat="42.97769" lon="0.26375">
        <ele>1461.36</ele>
        <time>2017-03-21T10:14:33Z</time>
      </trkpt>
      <trkpt lat="42.97775" lon="0.26366">
        <ele>1463.53</ele>
        <time>2017-03-21T10:14:48Z</time>
      </trkpt>
      <trkpt lat="42.9778" lon="0.26356">
        <ele>1464.45</ele>
        <time>2017-03-21T10:15:00Z</time>
      </trkpt>
      <trkpt lat="42.97785" lon="0.26346">
        <ele>1464.58</ele>
        <time>2017-03-21T10:15:11Z</time>
      </trkpt>
      <trkpt lat="42.97792" lon="0.26338">
        <ele>1464.64</ele>
        <time>2017-03-21T10:15:22Z</time>
      </trkpt>
      <trkpt lat="42.978" lon="0.26334">
        <ele>1466.13</ele>
        <time>2017-03-21T10:15:34Z</time>
      </trkpt>
      <trkpt lat="42.97805" lon="0.26323">
        <ele>1469.54</ele>
        <time>2017-03-21T10:15:51Z</time>
      </trkpt>
      <trkpt lat="42.9781" lon="0.26314">
        <ele>1472.44</ele>
        <time>2017-03-21T10:16:12Z</time>
      </trkpt>
      <trkpt lat="42.97816" lon="0.26306">
        <ele>1474.32</ele>
        <time>2017-03-21T10:16:29Z</time>
      </trkpt>
      <trkpt lat="42.97823" lon="0.26296">
        <ele>1475.61</ele>
        <time>2017-03-21T10:16:45Z</time>
      </trkpt>
      <trkpt lat="42.9783" lon="0.26289">
        <ele>1478.17</ele>
        <time>2017-03-21T10:16:58Z</time>
      </trkpt>
      <trkpt lat="42.97834" lon="0.26282">
        <ele>1477.9</ele>
        <time>2017-03-21T10:17:57Z</time>
      </trkpt>
      <trkpt lat="42.97837" lon="0.26277">
        <ele>1480.21</ele>
        <time>2017-03-21T10:18:47Z</time>
      </trkpt>
      <trkpt lat="42.97836" lon="0.26276">
        <ele>1479.35</ele>
        <time>2017-03-21T10:19:43Z</time>
      </trkpt>
      <trkpt lat="42.97845" lon="0.26266">
        <ele>1483.08</ele>
        <time>2017-03-21T10:20:02Z</time>
      </trkpt>
      <trkpt lat="42.97851" lon="0.26259">
        <ele>1481.8</ele>
        <time>2017-03-21T10:20:16Z</time>
      </trkpt>
      <trkpt lat="42.97859" lon="0.26257">
        <ele>1486.59</ele>
        <time>2017-03-21T10:20:45Z</time>
      </trkpt>
      <trkpt lat="42.97866" lon="0.26248">
        <ele>1488.18</ele>
        <time>2017-03-21T10:21:02Z</time>
      </trkpt>
      <trkpt lat="42.97869" lon="0.26237">
        <ele>1488.17</ele>
        <time>2017-03-21T10:21:19Z</time>
      </trkpt>
      <trkpt lat="42.97873" lon="0.26224">
        <ele>1490.08</ele>
        <time>2017-03-21T10:21:35Z</time>
      </trkpt>
      <trkpt lat="42.97878" lon="0.26214">
        <ele>1492</ele>
        <time>2017-03-21T10:21:49Z</time>
      </trkpt>
      <trkpt lat="42.97884" lon="0.26206">
        <ele>1491.7</ele>
        <time>2017-03-21T10:22:06Z</time>
      </trkpt>
      <trkpt lat="42.97885" lon="0.26196">
        <ele>1497.38</ele>
        <time>2017-03-21T10:22:25Z</time>
      </trkpt>
      <trkpt lat="42.97887" lon="0.26187">
        <ele>1497.87</ele>
        <time>2017-03-21T10:22:42Z</time>
      </trkpt>
      <trkpt lat="42.9789" lon="0.26177">
        <ele>1496.76</ele>
        <time>2017-03-21T10:22:57Z</time>
      </trkpt>
      <trkpt lat="42.97893" lon="0.26163">
        <ele>1497.61</ele>
        <time>2017-03-21T10:23:11Z</time>
      </trkpt>
      <trkpt lat="42.97895" lon="0.26151">
        <ele>1499.94</ele>
        <time>2017-03-21T10:23:26Z</time>
      </trkpt>
      <trkpt lat="42.97899" lon="0.26138">
        <ele>1501.77</ele>
        <time>2017-03-21T10:23:41Z</time>
      </trkpt>
      <trkpt lat="42.97906" lon="0.2613">
        <ele>1504.49</ele>
        <time>2017-03-21T10:23:58Z</time>
      </trkpt>
      <trkpt lat="42.97909" lon="0.26122">
        <ele>1505.09</ele>
        <time>2017-03-21T10:24:45Z</time>
      </trkpt>
      <trkpt lat="42.97916" lon="0.26113">
        <ele>1505.89</ele>
        <time>2017-03-21T10:24:58Z</time>
      </trkpt>
      <trkpt lat="42.97923" lon="0.26105">
        <ele>1508</ele>
        <time>2017-03-21T10:25:11Z</time>
      </trkpt>
      <trkpt lat="42.97927" lon="0.26094">
        <ele>1507.5</ele>
        <time>2017-03-21T10:25:24Z</time>
      </trkpt>
      <trkpt lat="42.97932" lon="0.26084">
        <ele>1508.98</ele>
        <time>2017-03-21T10:25:36Z</time>
      </trkpt>
      <trkpt lat="42.97938" lon="0.26074">
        <ele>1510.14</ele>
        <time>2017-03-21T10:25:53Z</time>
      </trkpt>
      <trkpt lat="42.9794" lon="0.26062">
        <ele>1510.07</ele>
        <time>2017-03-21T10:26:06Z</time>
      </trkpt>
      <trkpt lat="42.97947" lon="0.26055">
        <ele>1511.87</ele>
        <time>2017-03-21T10:26:25Z</time>
      </trkpt>
      <trkpt lat="42.97951" lon="0.26043">
        <ele>1512.77</ele>
        <time>2017-03-21T10:26:38Z</time>
      </trkpt>
      <trkpt lat="42.97958" lon="0.26036">
        <ele>1513.68</ele>
        <time>2017-03-21T10:26:53Z</time>
      </trkpt>
      <trkpt lat="42.97966" lon="0.26031">
        <ele>1515.96</ele>
        <time>2017-03-21T10:27:07Z</time>
      </trkpt>
      <trkpt lat="42.97975" lon="0.26028">
        <ele>1516.25</ele>
        <time>2017-03-21T10:27:25Z</time>
      </trkpt>
      <trkpt lat="42.97984" lon="0.2602">
        <ele>1518.68</ele>
        <time>2017-03-21T10:27:44Z</time>
      </trkpt>
      <trkpt lat="42.9799" lon="0.26009">
        <ele>1516.24</ele>
        <time>2017-03-21T10:27:58Z</time>
      </trkpt>
      <trkpt lat="42.97997" lon="0.26">
        <ele>1518.12</ele>
        <time>2017-03-21T10:28:14Z</time>
      </trkpt>
      <trkpt lat="42.98005" lon="0.25993">
        <ele>1519.01</ele>
        <time>2017-03-21T10:28:25Z</time>
      </trkpt>
      <trkpt lat="42.9801" lon="0.25983">
        <ele>1516.27</ele>
        <time>2017-03-21T10:28:39Z</time>
      </trkpt>
      <trkpt lat="42.98019" lon="0.25978">
        <ele>1516.36</ele>
        <time>2017-03-21T10:28:52Z</time>
      </trkpt>
      <trkpt lat="42.98025" lon="0.25968">
        <ele>1512.37</ele>
        <time>2017-03-21T10:29:06Z</time>
      </trkpt>
      <trkpt lat="42.98034" lon="0.25962">
        <ele>1514.02</ele>
        <time>2017-03-21T10:29:20Z</time>
      </trkpt>
      <trkpt lat="42.98042" lon="0.25953">
        <ele>1512.77</ele>
        <time>2017-03-21T10:29:33Z</time>
      </trkpt>
      <trkpt lat="42.9805" lon="0.25944">
        <ele>1512.94</ele>
        <time>2017-03-21T10:29:45Z</time>
      </trkpt>
      <trkpt lat="42.98058" lon="0.25937">
        <ele>1515.09</ele>
        <time>2017-03-21T10:29:57Z</time>
      </trkpt>
      <trkpt lat="42.98067" lon="0.25932">
        <ele>1516.35</ele>
        <time>2017-03-21T10:30:09Z</time>
      </trkpt>
      <trkpt lat="42.98075" lon="0.25925">
        <ele>1514.6</ele>
        <time>2017-03-21T10:30:21Z</time>
      </trkpt>
      <trkpt lat="42.98082" lon="0.25918">
        <ele>1514.05</ele>
        <time>2017-03-21T10:30:33Z</time>
      </trkpt>
      <trkpt lat="42.9809" lon="0.2591">
        <ele>1513.84</ele>
        <time>2017-03-21T10:30:48Z</time>
      </trkpt>
      <trkpt lat="42.98097" lon="0.259">
        <ele>1511.8</ele>
        <time>2017-03-21T10:31:02Z</time>
      </trkpt>
      <trkpt lat="42.98106" lon="0.25893">
        <ele>1512</ele>
        <time>2017-03-21T10:31:15Z</time>
      </trkpt>
      <trkpt lat="42.98115" lon="0.25883">
        <ele>1512.9</ele>
        <time>2017-03-21T10:31:31Z</time>
      </trkpt>
      <trkpt lat="42.98124" lon="0.25875">
        <ele>1517.99</ele>
        <time>2017-03-21T10:31:48Z</time>
      </trkpt>
      <trkpt lat="42.98133" lon="0.25871">
        <ele>1517.98</ele>
        <time>2017-03-21T10:32:05Z</time>
      </trkpt>
      <trkpt lat="42.98143" lon="0.25867">
        <ele>1520.01</ele>
        <time>2017-03-21T10:32:18Z</time>
      </trkpt>
      <trkpt lat="42.98148" lon="0.25855">
        <ele>1520.74</ele>
        <time>2017-03-21T10:33:45Z</time>
      </trkpt>
      <trkpt lat="42.98151" lon="0.25842">
        <ele>1517.59</ele>
        <time>2017-03-21T10:33:57Z</time>
      </trkpt>
      <trkpt lat="42.98153" lon="0.25829">
        <ele>1516.23</ele>
        <time>2017-03-21T10:34:09Z</time>
      </trkpt>
      <trkpt lat="42.98156" lon="0.25816">
        <ele>1517.4</ele>
        <time>2017-03-21T10:34:20Z</time>
      </trkpt>
      <trkpt lat="42.98158" lon="0.25803">
        <ele>1519.24</ele>
        <time>2017-03-21T10:34:30Z</time>
      </trkpt>
      <trkpt lat="42.9816" lon="0.25792">
        <ele>1523.8</ele>
        <time>2017-03-21T10:34:44Z</time>
      </trkpt>
      <trkpt lat="42.98161" lon="0.25781">
        <ele>1524.28</ele>
        <time>2017-03-21T10:34:59Z</time>
      </trkpt>
      <trkpt lat="42.9816" lon="0.25769">
        <ele>1525.52</ele>
        <time>2017-03-21T10:35:11Z</time>
      </trkpt>
      <trkpt lat="42.98165" lon="0.25758">
        <ele>1525.32</ele>
        <time>2017-03-21T10:35:23Z</time>
      </trkpt>
      <trkpt lat="42.98172" lon="0.25749">
        <ele>1529.95</ele>
        <time>2017-03-21T10:35:39Z</time>
      </trkpt>
      <trkpt lat="42.98178" lon="0.25742">
        <ele>1533.7</ele>
        <time>2017-03-21T10:35:57Z</time>
      </trkpt>
      <trkpt lat="42.98184" lon="0.25733">
        <ele>1536.67</ele>
        <time>2017-03-21T10:36:15Z</time>
      </trkpt>
      <trkpt lat="42.98188" lon="0.25721">
        <ele>1536.73</ele>
        <time>2017-03-21T10:36:33Z</time>
      </trkpt>
      <trkpt lat="42.98193" lon="0.25712">
        <ele>1541.13</ele>
        <time>2017-03-21T10:36:50Z</time>
      </trkpt>
      <trkpt lat="42.982" lon="0.25703">
        <ele>1542.81</ele>
        <time>2017-03-21T10:37:05Z</time>
      </trkpt>
      <trkpt lat="42.98206" lon="0.25692">
        <ele>1545.49</ele>
        <time>2017-03-21T10:37:25Z</time>
      </trkpt>
      <trkpt lat="42.98207" lon="0.25678">
        <ele>1545.27</ele>
        <time>2017-03-21T10:37:38Z</time>
      </trkpt>
      <trkpt lat="42.98211" lon="0.25667">
        <ele>1548.4</ele>
        <time>2017-03-21T10:37:56Z</time>
      </trkpt>
      <trkpt lat="42.9821" lon="0.25657">
        <ele>1549.17</ele>
        <time>2017-03-21T10:38:13Z</time>
      </trkpt>
      <trkpt lat="42.98212" lon="0.25645">
        <ele>1549.26</ele>
        <time>2017-03-21T10:38:27Z</time>
      </trkpt>
      <trkpt lat="42.98218" lon="0.25633">
        <ele>1547.9</ele>
        <time>2017-03-21T10:38:40Z</time>
      </trkpt>
      <trkpt lat="42.98224" lon="0.25623">
        <ele>1547.83</ele>
        <time>2017-03-21T10:38:54Z</time>
      </trkpt>
      <trkpt lat="42.98229" lon="0.25614">
        <ele>1547.33</ele>
        <time>2017-03-21T10:39:13Z</time>
      </trkpt>
      <trkpt lat="42.98234" lon="0.25606">
        <ele>1547.66</ele>
        <time>2017-03-21T10:39:40Z</time>
      </trkpt>
      <trkpt lat="42.98241" lon="0.25595">
        <ele>1546.64</ele>
        <time>2017-03-21T10:39:54Z</time>
      </trkpt>
      <trkpt lat="42.98246" lon="0.25586">
        <ele>1547.48</ele>
        <time>2017-03-21T10:40:12Z</time>
      </trkpt>
      <trkpt lat="42.98253" lon="0.25574">
        <ele>1547.03</ele>
        <time>2017-03-21T10:40:30Z</time>
      </trkpt>
      <trkpt lat="42.9826" lon="0.25565">
        <ele>1549.87</ele>
        <time>2017-03-21T10:40:48Z</time>
      </trkpt>
      <trkpt lat="42.98267" lon="0.25557">
        <ele>1551.68</ele>
        <time>2017-03-21T10:41:11Z</time>
      </trkpt>
      <trkpt lat="42.98273" lon="0.25549">
        <ele>1550.93</ele>
        <time>2017-03-21T10:42:37Z</time>
      </trkpt>
      <trkpt lat="42.98278" lon="0.25537">
        <ele>1550.39</ele>
        <time>2017-03-21T10:42:52Z</time>
      </trkpt>
      <trkpt lat="42.98282" lon="0.25524">
        <ele>1550.16</ele>
        <time>2017-03-21T10:43:04Z</time>
      </trkpt>
      <trkpt lat="42.98287" lon="0.25515">
        <ele>1550.67</ele>
        <time>2017-03-21T10:43:17Z</time>
      </trkpt>
      <trkpt lat="42.98291" lon="0.25502">
        <ele>1549.55</ele>
        <time>2017-03-21T10:43:29Z</time>
      </trkpt>
      <trkpt lat="42.98294" lon="0.25489">
        <ele>1548.59</ele>
        <time>2017-03-21T10:43:44Z</time>
      </trkpt>
      <trkpt lat="42.98297" lon="0.25477">
        <ele>1547.27</ele>
        <time>2017-03-21T10:43:56Z</time>
      </trkpt>
      <trkpt lat="42.98303" lon="0.25466">
        <ele>1547.91</ele>
        <time>2017-03-21T10:44:07Z</time>
      </trkpt>
      <trkpt lat="42.98307" lon="0.25455">
        <ele>1547.46</ele>
        <time>2017-03-21T10:44:18Z</time>
      </trkpt>
      <trkpt lat="42.98313" lon="0.25445">
        <ele>1546.61</ele>
        <time>2017-03-21T10:44:29Z</time>
      </trkpt>
      <trkpt lat="42.98321" lon="0.25438">
        <ele>1549.21</ele>
        <time>2017-03-21T10:44:43Z</time>
      </trkpt>
      <trkpt lat="42.9833" lon="0.25433">
        <ele>1549.7</ele>
        <time>2017-03-21T10:44:58Z</time>
      </trkpt>
      <trkpt lat="42.9834" lon="0.25423">
        <ele>1548.78</ele>
        <time>2017-03-21T10:45:11Z</time>
      </trkpt>
      <trkpt lat="42.98348" lon="0.25414">
        <ele>1547</ele>
        <time>2017-03-21T10:45:23Z</time>
      </trkpt>
      <trkpt lat="42.98358" lon="0.25404">
        <ele>1545.93</ele>
        <time>2017-03-21T10:45:37Z</time>
      </trkpt>
      <trkpt lat="42.98363" lon="0.25396">
        <ele>1538.49</ele>
        <time>2017-03-21T10:46:07Z</time>
      </trkpt>
      <trkpt lat="42.98374" lon="0.25402">
        <ele>1546.85</ele>
        <time>2017-03-21T10:46:28Z</time>
      </trkpt>
      <trkpt lat="42.98382" lon="0.25402">
        <ele>1548.95</ele>
        <time>2017-03-21T10:46:44Z</time>
      </trkpt>
      <trkpt lat="42.9839" lon="0.25399">
        <ele>1548.36</ele>
        <time>2017-03-21T10:47:08Z</time>
      </trkpt>
      <trkpt lat="42.98399" lon="0.25393">
        <ele>1547.19</ele>
        <time>2017-03-21T10:47:20Z</time>
      </trkpt>
      <trkpt lat="42.98406" lon="0.25387">
        <ele>1545.66</ele>
        <time>2017-03-21T10:47:31Z</time>
      </trkpt>
      <trkpt lat="42.98414" lon="0.25384">
        <ele>1544.66</ele>
        <time>2017-03-21T10:48:00Z</time>
      </trkpt>
      <trkpt lat="42.98424" lon="0.25383">
        <ele>1543.14</ele>
        <time>2017-03-21T10:48:10Z</time>
      </trkpt>
      <trkpt lat="42.98433" lon="0.25379">
        <ele>1542.1</ele>
        <time>2017-03-21T10:48:20Z</time>
      </trkpt>
      <trkpt lat="42.98442" lon="0.25376">
        <ele>1540.81</ele>
        <time>2017-03-21T10:48:36Z</time>
      </trkpt>
      <trkpt lat="42.9845" lon="0.25372">
        <ele>1540.1</ele>
        <time>2017-03-21T10:48:46Z</time>
      </trkpt>
      <trkpt lat="42.98459" lon="0.25366">
        <ele>1538.22</ele>
        <time>2017-03-21T10:48:57Z</time>
      </trkpt>
      <trkpt lat="42.98469" lon="0.25363">
        <ele>1537.4</ele>
        <time>2017-03-21T10:49:07Z</time>
      </trkpt>
      <trkpt lat="42.98476" lon="0.25355">
        <ele>1535.15</ele>
        <time>2017-03-21T10:49:17Z</time>
      </trkpt>
      <trkpt lat="42.98484" lon="0.25348">
        <ele>1532.65</ele>
        <time>2017-03-21T10:49:26Z</time>
      </trkpt>
      <trkpt lat="42.98489" lon="0.25337">
        <ele>1530.57</ele>
        <time>2017-03-21T10:49:36Z</time>
      </trkpt>
      <trkpt lat="42.98493" lon="0.25326">
        <ele>1528.8</ele>
        <time>2017-03-21T10:49:48Z</time>
      </trkpt>
      <trkpt lat="42.98496" lon="0.25314">
        <ele>1526.94</ele>
        <time>2017-03-21T10:49:58Z</time>
      </trkpt>
      <trkpt lat="42.98498" lon="0.25301">
        <ele>1525.14</ele>
        <time>2017-03-21T10:50:08Z</time>
      </trkpt>
      <trkpt lat="42.985" lon="0.2529">
        <ele>1523.26</ele>
        <time>2017-03-21T10:50:17Z</time>
      </trkpt>
      <trkpt lat="42.98501" lon="0.25277">
        <ele>1521.02</ele>
        <time>2017-03-21T10:50:27Z</time>
      </trkpt>
      <trkpt lat="42.98502" lon="0.25265">
        <ele>1519.49</ele>
        <time>2017-03-21T10:50:37Z</time>
      </trkpt>
      <trkpt lat="42.98504" lon="0.25253">
        <ele>1517.21</ele>
        <time>2017-03-21T10:50:47Z</time>
      </trkpt>
      <trkpt lat="42.98506" lon="0.25239">
        <ele>1515.78</ele>
        <time>2017-03-21T10:50:57Z</time>
      </trkpt>
      <trkpt lat="42.9851" lon="0.25227">
        <ele>1514.52</ele>
        <time>2017-03-21T10:51:07Z</time>
      </trkpt>
      <trkpt lat="42.98516" lon="0.25216">
        <ele>1513.85</ele>
        <time>2017-03-21T10:51:17Z</time>
      </trkpt>
      <trkpt lat="42.98523" lon="0.25206">
        <ele>1511.84</ele>
        <time>2017-03-21T10:51:31Z</time>
      </trkpt>
      <trkpt lat="42.98534" lon="0.25198">
        <ele>1510.13</ele>
        <time>2017-03-21T10:51:47Z</time>
      </trkpt>
      <trkpt lat="42.98541" lon="0.25188">
        <ele>1509.22</ele>
        <time>2017-03-21T10:52:02Z</time>
      </trkpt>
      <trkpt lat="42.98548" lon="0.25177">
        <ele>1507.23</ele>
        <time>2017-03-21T10:52:13Z</time>
      </trkpt>
      <trkpt lat="42.98555" lon="0.25172">
        <ele>1504.85</ele>
        <time>2017-03-21T10:52:28Z</time>
      </trkpt>
      <trkpt lat="42.98564" lon="0.25167">
        <ele>1502.18</ele>
        <time>2017-03-21T10:52:40Z</time>
      </trkpt>
      <trkpt lat="42.9857" lon="0.25158">
        <ele>1498.75</ele>
        <time>2017-03-21T10:52:53Z</time>
      </trkpt>
      <trkpt lat="42.98577" lon="0.25154">
        <ele>1495.72</ele>
        <time>2017-03-21T10:53:06Z</time>
      </trkpt>
      <trkpt lat="42.98583" lon="0.25149">
        <ele>1491.8</ele>
        <time>2017-03-21T10:53:23Z</time>
      </trkpt>
      <trkpt lat="42.98586" lon="0.25142">
        <ele>1488.78</ele>
        <time>2017-03-21T10:53:58Z</time>
      </trkpt>
      <trkpt lat="42.98589" lon="0.25134">
        <ele>1486.66</ele>
        <time>2017-03-21T10:54:11Z</time>
      </trkpt>
      <trkpt lat="42.98589" lon="0.25123">
        <ele>1483.69</ele>
        <time>2017-03-21T10:54:21Z</time>
      </trkpt>
      <trkpt lat="42.98587" lon="0.25111">
        <ele>1482.53</ele>
        <time>2017-03-21T10:55:23Z</time>
      </trkpt>
      <trkpt lat="42.98586" lon="0.25097">
        <ele>1480.17</ele>
        <time>2017-03-21T10:55:40Z</time>
      </trkpt>
      <trkpt lat="42.98593" lon="0.25087">
        <ele>1479.18</ele>
        <time>2017-03-21T10:55:53Z</time>
      </trkpt>
      <trkpt lat="42.98594" lon="0.25074">
        <ele>1476.79</ele>
        <time>2017-03-21T10:56:12Z</time>
      </trkpt>
      <trkpt lat="42.98598" lon="0.25063">
        <ele>1475.01</ele>
        <time>2017-03-21T10:56:22Z</time>
      </trkpt>
      <trkpt lat="42.98602" lon="0.25051">
        <ele>1474.49</ele>
        <time>2017-03-21T10:56:33Z</time>
      </trkpt>
      <trkpt lat="42.98604" lon="0.25048">
        <ele>1473.5</ele>
        <time>2017-03-21T10:59:37Z</time>
      </trkpt>
      <trkpt lat="42.98612" lon="0.25045">
        <ele>1472.5</ele>
        <time>2017-03-21T11:00:19Z</time>
      </trkpt>
      <trkpt lat="42.98621" lon="0.2504">
        <ele>1471.69</ele>
        <time>2017-03-21T11:00:28Z</time>
      </trkpt>
      <trkpt lat="42.98631" lon="0.25036">
        <ele>1470.86</ele>
        <time>2017-03-21T11:00:37Z</time>
      </trkpt>
      <trkpt lat="42.98641" lon="0.25032">
        <ele>1469.53</ele>
        <time>2017-03-21T11:00:47Z</time>
      </trkpt>
      <trkpt lat="42.98649" lon="0.25033">
        <ele>1468.68</ele>
        <time>2017-03-21T11:00:57Z</time>
      </trkpt>
      <trkpt lat="42.98658" lon="0.2504">
        <ele>1466.79</ele>
        <time>2017-03-21T11:01:09Z</time>
      </trkpt>
      <trkpt lat="42.98669" lon="0.25039">
        <ele>1464.81</ele>
        <time>2017-03-21T11:01:20Z</time>
      </trkpt>
      <trkpt lat="42.98677" lon="0.25043">
        <ele>1465.31</ele>
        <time>2017-03-21T11:01:30Z</time>
      </trkpt>
      <trkpt lat="42.98687" lon="0.25048">
        <ele>1467.37</ele>
        <time>2017-03-21T11:01:44Z</time>
      </trkpt>
      <trkpt lat="42.98699" lon="0.25052">
        <ele>1469.28</ele>
        <time>2017-03-21T11:02:00Z</time>
      </trkpt>
      <trkpt lat="42.98709" lon="0.25045">
        <ele>1470.85</ele>
        <time>2017-03-21T11:02:14Z</time>
      </trkpt>
      <trkpt lat="42.98716" lon="0.25034">
        <ele>1471.07</ele>
        <time>2017-03-21T11:02:26Z</time>
      </trkpt>
      <trkpt lat="42.98722" lon="0.25024">
        <ele>1471.35</ele>
        <time>2017-03-21T11:02:38Z</time>
      </trkpt>
      <trkpt lat="42.98723" lon="0.25009">
        <ele>1470.98</ele>
        <time>2017-03-21T11:02:52Z</time>
      </trkpt>
      <trkpt lat="42.98727" lon="0.24997">
        <ele>1471.98</ele>
        <time>2017-03-21T11:03:06Z</time>
      </trkpt>
      <trkpt lat="42.9873" lon="0.24986">
        <ele>1472.14</ele>
        <time>2017-03-21T11:03:20Z</time>
      </trkpt>
      <trkpt lat="42.9874" lon="0.24986">
        <ele>1468.25</ele>
        <time>2017-03-21T11:03:51Z</time>
      </trkpt>
      <trkpt lat="42.98744" lon="0.24997">
        <ele>1464.12</ele>
        <time>2017-03-21T11:04:17Z</time>
      </trkpt>
      <trkpt lat="42.98755" lon="0.24983">
        <ele>1462</ele>
        <time>2017-03-21T11:04:35Z</time>
      </trkpt>
      <trkpt lat="42.98764" lon="0.24971">
        <ele>1462.05</ele>
        <time>2017-03-21T11:04:52Z</time>
      </trkpt>
      <trkpt lat="42.9877" lon="0.24955">
        <ele>1461.92</ele>
        <time>2017-03-21T11:05:13Z</time>
      </trkpt>
      <trkpt lat="42.98779" lon="0.24943">
        <ele>1461.43</ele>
        <time>2017-03-21T11:05:31Z</time>
      </trkpt>
      <trkpt lat="42.98787" lon="0.24927">
        <ele>1460.65</ele>
        <time>2017-03-21T11:05:49Z</time>
      </trkpt>
      <trkpt lat="42.98792" lon="0.24913">
        <ele>1460.24</ele>
        <time>2017-03-21T11:06:04Z</time>
      </trkpt>
      <trkpt lat="42.98805" lon="0.24906">
        <ele>1459.63</ele>
        <time>2017-03-21T11:06:23Z</time>
      </trkpt>
      <trkpt lat="42.98819" lon="0.24905">
        <ele>1461.55</ele>
        <time>2017-03-21T11:06:41Z</time>
      </trkpt>
      <trkpt lat="42.9883" lon="0.24908">
        <ele>1463.68</ele>
        <time>2017-03-21T11:06:57Z</time>
      </trkpt>
      <trkpt lat="42.98842" lon="0.24909">
        <ele>1463.72</ele>
        <time>2017-03-21T11:07:14Z</time>
      </trkpt>
      <trkpt lat="42.98856" lon="0.24908">
        <ele>1462.76</ele>
        <time>2017-03-21T11:07:31Z</time>
      </trkpt>
      <trkpt lat="42.98866" lon="0.24905">
        <ele>1461.95</ele>
        <time>2017-03-21T11:07:54Z</time>
      </trkpt>
      <trkpt lat="42.98867" lon="0.249">
        <ele>1462.28</ele>
        <time>2017-03-21T11:08:31Z</time>
      </trkpt>
      <trkpt lat="42.98873" lon="0.2491">
        <ele>1461.95</ele>
        <time>2017-03-21T11:08:53Z</time>
      </trkpt>
      <trkpt lat="42.98886" lon="0.24911">
        <ele>1461.85</ele>
        <time>2017-03-21T11:09:09Z</time>
      </trkpt>
      <trkpt lat="42.98895" lon="0.24909">
        <ele>1465.17</ele>
        <time>2017-03-21T11:09:26Z</time>
      </trkpt>
      <trkpt lat="42.98907" lon="0.24906">
        <ele>1464.19</ele>
        <time>2017-03-21T11:09:42Z</time>
      </trkpt>
      <trkpt lat="42.98914" lon="0.24903">
        <ele>1463.53</ele>
        <time>2017-03-21T11:10:05Z</time>
      </trkpt>
      <trkpt lat="42.98922" lon="0.24894">
        <ele>1462.92</ele>
        <time>2017-03-21T11:10:49Z</time>
      </trkpt>
      <trkpt lat="42.9893" lon="0.24885">
        <ele>1462.88</ele>
        <time>2017-03-21T11:11:04Z</time>
      </trkpt>
      <trkpt lat="42.9894" lon="0.24873">
        <ele>1462.09</ele>
        <time>2017-03-21T11:11:19Z</time>
      </trkpt>
      <trkpt lat="42.98948" lon="0.24863">
        <ele>1460.85</ele>
        <time>2017-03-21T11:11:32Z</time>
      </trkpt>
      <trkpt lat="42.98955" lon="0.24856">
        <ele>1458.87</ele>
        <time>2017-03-21T11:12:02Z</time>
      </trkpt>
      <trkpt lat="42.98961" lon="0.24846">
        <ele>1457.32</ele>
        <time>2017-03-21T11:12:14Z</time>
      </trkpt>
      <trkpt lat="42.98967" lon="0.24839">
        <ele>1455.97</ele>
        <time>2017-03-21T11:12:25Z</time>
      </trkpt>
      <trkpt lat="42.98972" lon="0.2483">
        <ele>1454.08</ele>
        <time>2017-03-21T11:12:38Z</time>
      </trkpt>
      <trkpt lat="42.98978" lon="0.24821">
        <ele>1452.86</ele>
        <time>2017-03-21T11:12:52Z</time>
      </trkpt>
      <trkpt lat="42.98986" lon="0.24813">
        <ele>1450.3</ele>
        <time>2017-03-21T11:13:06Z</time>
      </trkpt>
      <trkpt lat="42.98993" lon="0.24806">
        <ele>1449.01</ele>
        <time>2017-03-21T11:13:17Z</time>
      </trkpt>
      <trkpt lat="42.99001" lon="0.24797">
        <ele>1447.84</ele>
        <time>2017-03-21T11:13:28Z</time>
      </trkpt>
      <trkpt lat="42.99011" lon="0.24793">
        <ele>1444.38</ele>
        <time>2017-03-21T11:13:41Z</time>
      </trkpt>
      <trkpt lat="42.99021" lon="0.24787">
        <ele>1443.15</ele>
        <time>2017-03-21T11:13:51Z</time>
      </trkpt>
      <trkpt lat="42.9903" lon="0.24781">
        <ele>1441.2</ele>
        <time>2017-03-21T11:14:01Z</time>
      </trkpt>
      <trkpt lat="42.99039" lon="0.24776">
        <ele>1440.1</ele>
        <time>2017-03-21T11:14:10Z</time>
      </trkpt>
      <trkpt lat="42.99047" lon="0.24772">
        <ele>1439.06</ele>
        <time>2017-03-21T11:14:19Z</time>
      </trkpt>
      <trkpt lat="42.99056" lon="0.24765">
        <ele>1438.87</ele>
        <time>2017-03-21T11:14:39Z</time>
      </trkpt>
      <trkpt lat="42.9906" lon="0.24753">
        <ele>1438.48</ele>
        <time>2017-03-21T11:14:50Z</time>
      </trkpt>
      <trkpt lat="42.99062" lon="0.2474">
        <ele>1437.98</ele>
        <time>2017-03-21T11:15:00Z</time>
      </trkpt>
      <trkpt lat="42.99069" lon="0.24732">
        <ele>1437.45</ele>
        <time>2017-03-21T11:15:10Z</time>
      </trkpt>
      <trkpt lat="42.9907" lon="0.24721">
        <ele>1436.35</ele>
        <time>2017-03-21T11:15:24Z</time>
      </trkpt>
      <trkpt lat="42.9907" lon="0.24708">
        <ele>1434.45</ele>
        <time>2017-03-21T11:15:33Z</time>
      </trkpt>
      <trkpt lat="42.99071" lon="0.24697">
        <ele>1432.5</ele>
        <time>2017-03-21T11:15:42Z</time>
      </trkpt>
      <trkpt lat="42.99076" lon="0.24687">
        <ele>1430.01</ele>
        <time>2017-03-21T11:15:51Z</time>
      </trkpt>
      <trkpt lat="42.9908" lon="0.24675">
        <ele>1428.37</ele>
        <time>2017-03-21T11:16:00Z</time>
      </trkpt>
      <trkpt lat="42.99083" lon="0.24664">
        <ele>1426.3</ele>
        <time>2017-03-21T11:16:09Z</time>
      </trkpt>
      <trkpt lat="42.99086" lon="0.24652">
        <ele>1423.4</ele>
        <time>2017-03-21T11:16:21Z</time>
      </trkpt>
      <trkpt lat="42.99094" lon="0.24648">
        <ele>1422.03</ele>
        <time>2017-03-21T11:16:32Z</time>
      </trkpt>
      <trkpt lat="42.991" lon="0.24638">
        <ele>1420.15</ele>
        <time>2017-03-21T11:17:21Z</time>
      </trkpt>
      <trkpt lat="42.99107" lon="0.24633">
        <ele>1419.7</ele>
        <time>2017-03-21T11:17:43Z</time>
      </trkpt>
      <trkpt lat="42.99116" lon="0.24627">
        <ele>1419.86</ele>
        <time>2017-03-21T11:17:55Z</time>
      </trkpt>
      <trkpt lat="42.99123" lon="0.24621">
        <ele>1419.75</ele>
        <time>2017-03-21T11:18:04Z</time>
      </trkpt>
      <trkpt lat="42.99131" lon="0.24614">
        <ele>1418.68</ele>
        <time>2017-03-21T11:18:13Z</time>
      </trkpt>
      <trkpt lat="42.99139" lon="0.24609">
        <ele>1418.55</ele>
        <time>2017-03-21T11:18:23Z</time>
      </trkpt>
      <trkpt lat="42.99147" lon="0.24601">
        <ele>1417.72</ele>
        <time>2017-03-21T11:18:33Z</time>
      </trkpt>
      <trkpt lat="42.99156" lon="0.24595">
        <ele>1418.08</ele>
        <time>2017-03-21T11:18:43Z</time>
      </trkpt>
      <trkpt lat="42.99164" lon="0.2459">
        <ele>1418.39</ele>
        <time>2017-03-21T11:18:54Z</time>
      </trkpt>
      <trkpt lat="42.99173" lon="0.24584">
        <ele>1417.07</ele>
        <time>2017-03-21T11:19:04Z</time>
      </trkpt>
      <trkpt lat="42.99182" lon="0.24579">
        <ele>1416.2</ele>
        <time>2017-03-21T11:19:14Z</time>
      </trkpt>
      <trkpt lat="42.9919" lon="0.24573">
        <ele>1414.59</ele>
        <time>2017-03-21T11:19:24Z</time>
      </trkpt>
      <trkpt lat="42.99199" lon="0.24571">
        <ele>1414.15</ele>
        <time>2017-03-21T11:19:35Z</time>
      </trkpt>
      <trkpt lat="42.99208" lon="0.2457">
        <ele>1413.35</ele>
        <time>2017-03-21T11:19:45Z</time>
      </trkpt>
      <trkpt lat="42.99219" lon="0.24571">
        <ele>1413.82</ele>
        <time>2017-03-21T11:19:57Z</time>
      </trkpt>
      <trkpt lat="42.99227" lon="0.24572">
        <ele>1412.95</ele>
        <time>2017-03-21T11:20:20Z</time>
      </trkpt>
      <trkpt lat="42.99236" lon="0.24573">
        <ele>1412.56</ele>
        <time>2017-03-21T11:20:33Z</time>
      </trkpt>
      <trkpt lat="42.99244" lon="0.24567">
        <ele>1409.45</ele>
        <time>2017-03-21T11:20:42Z</time>
      </trkpt>
      <trkpt lat="42.99252" lon="0.24562">
        <ele>1406.47</ele>
        <time>2017-03-21T11:20:53Z</time>
      </trkpt>
      <trkpt lat="42.99261" lon="0.24558">
        <ele>1404.81</ele>
        <time>2017-03-21T11:21:04Z</time>
      </trkpt>
      <trkpt lat="42.99269" lon="0.24554">
        <ele>1400.32</ele>
        <time>2017-03-21T11:21:19Z</time>
      </trkpt>
      <trkpt lat="42.99277" lon="0.24546">
        <ele>1396.72</ele>
        <time>2017-03-21T11:21:33Z</time>
      </trkpt>
      <trkpt lat="42.99281" lon="0.24536">
        <ele>1394.49</ele>
        <time>2017-03-21T11:21:46Z</time>
      </trkpt>
      <trkpt lat="42.99287" lon="0.24526">
        <ele>1387.29</ele>
        <time>2017-03-21T11:21:59Z</time>
      </trkpt>
      <trkpt lat="42.99292" lon="0.24517">
        <ele>1383.52</ele>
        <time>2017-03-21T11:22:11Z</time>
      </trkpt>
      <trkpt lat="42.99298" lon="0.24508">
        <ele>1379.21</ele>
        <time>2017-03-21T11:22:24Z</time>
      </trkpt>
      <trkpt lat="42.99304" lon="0.24498">
        <ele>1374.79</ele>
        <time>2017-03-21T11:22:39Z</time>
      </trkpt>
      <trkpt lat="42.9931" lon="0.2449">
        <ele>1370.95</ele>
        <time>2017-03-21T11:22:54Z</time>
      </trkpt>
      <trkpt lat="42.99314" lon="0.2448">
        <ele>1365.9</ele>
        <time>2017-03-21T11:23:11Z</time>
      </trkpt>
      <trkpt lat="42.99323" lon="0.24476">
        <ele>1362.95</ele>
        <time>2017-03-21T11:23:25Z</time>
      </trkpt>
      <trkpt lat="42.99332" lon="0.24471">
        <ele>1359.58</ele>
        <time>2017-03-21T11:23:39Z</time>
      </trkpt>
      <trkpt lat="42.9934" lon="0.24468">
        <ele>1357.73</ele>
        <time>2017-03-21T11:23:51Z</time>
      </trkpt>
      <trkpt lat="42.99349" lon="0.24467">
        <ele>1356.22</ele>
        <time>2017-03-21T11:24:02Z</time>
      </trkpt>
      <trkpt lat="42.99358" lon="0.24468">
        <ele>1355.07</ele>
        <time>2017-03-21T11:24:14Z</time>
      </trkpt>
      <trkpt lat="42.99366" lon="0.24462">
        <ele>1351.05</ele>
        <time>2017-03-21T11:24:28Z</time>
      </trkpt>
      <trkpt lat="42.99374" lon="0.24456">
        <ele>1347.83</ele>
        <time>2017-03-21T11:24:42Z</time>
      </trkpt>
      <trkpt lat="42.99381" lon="0.24451">
        <ele>1344.28</ele>
        <time>2017-03-21T11:24:55Z</time>
      </trkpt>
      <trkpt lat="42.99387" lon="0.24444">
        <ele>1340.6</ele>
        <time>2017-03-21T11:25:07Z</time>
      </trkpt>
      <trkpt lat="42.99394" lon="0.2444">
        <ele>1337.87</ele>
        <time>2017-03-21T11:25:20Z</time>
      </trkpt>
      <trkpt lat="42.99398" lon="0.24431">
        <ele>1333.78</ele>
        <time>2017-03-21T11:25:40Z</time>
      </trkpt>
      <trkpt lat="42.99403" lon="0.24426">
        <ele>1330.67</ele>
        <time>2017-03-21T11:26:47Z</time>
      </trkpt>
      <trkpt lat="42.99412" lon="0.24426">
        <ele>1328.97</ele>
        <time>2017-03-21T11:27:21Z</time>
      </trkpt>
      <trkpt lat="42.99416" lon="0.24425">
        <ele>1332.09</ele>
        <time>2017-03-21T11:30:25Z</time>
      </trkpt>
      <trkpt lat="42.99422" lon="0.24428">
        <ele>1333.63</ele>
        <time>2017-03-21T11:32:54Z</time>
      </trkpt>
      <trkpt lat="42.99431" lon="0.24428">
        <ele>1332.8</ele>
        <time>2017-03-21T11:33:04Z</time>
      </trkpt>
      <trkpt lat="42.9944" lon="0.2443">
        <ele>1334.57</ele>
        <time>2017-03-21T11:33:15Z</time>
      </trkpt>
      <trkpt lat="42.99449" lon="0.24429">
        <ele>1335.94</ele>
        <time>2017-03-21T11:33:25Z</time>
      </trkpt>
      <trkpt lat="42.99459" lon="0.24427">
        <ele>1333.92</ele>
        <time>2017-03-21T11:33:35Z</time>
      </trkpt>
      <trkpt lat="42.99469" lon="0.24425">
        <ele>1337.43</ele>
        <time>2017-03-21T11:33:47Z</time>
      </trkpt>
      <trkpt lat="42.99478" lon="0.24423">
        <ele>1339.15</ele>
        <time>2017-03-21T11:33:58Z</time>
      </trkpt>
      <trkpt lat="42.99486" lon="0.2442">
        <ele>1338.79</ele>
        <time>2017-03-21T11:34:10Z</time>
      </trkpt>
      <trkpt lat="42.99495" lon="0.24416">
        <ele>1339.92</ele>
        <time>2017-03-21T11:34:22Z</time>
      </trkpt>
      <trkpt lat="42.99504" lon="0.24412">
        <ele>1342.76</ele>
        <time>2017-03-21T11:34:34Z</time>
      </trkpt>
      <trkpt lat="42.99512" lon="0.24406">
        <ele>1343.69</ele>
        <time>2017-03-21T11:34:54Z</time>
      </trkpt>
      <trkpt lat="42.99518" lon="0.24398">
        <ele>1345.32</ele>
        <time>2017-03-21T11:35:08Z</time>
      </trkpt>
      <trkpt lat="42.99527" lon="0.24395">
        <ele>1348.26</ele>
        <time>2017-03-21T11:35:21Z</time>
      </trkpt>
      <trkpt lat="42.99534" lon="0.24387">
        <ele>1349.44</ele>
        <time>2017-03-21T11:35:34Z</time>
      </trkpt>
      <trkpt lat="42.99541" lon="0.24379">
        <ele>1350.11</ele>
        <time>2017-03-21T11:35:48Z</time>
      </trkpt>
      <trkpt lat="42.99549" lon="0.24375">
        <ele>1351.36</ele>
        <time>2017-03-21T11:36:04Z</time>
      </trkpt>
      <trkpt lat="42.99557" lon="0.24367">
        <ele>1353.64</ele>
        <time>2017-03-21T11:36:17Z</time>
      </trkpt>
      <trkpt lat="42.99564" lon="0.24361">
        <ele>1355.9</ele>
        <time>2017-03-21T11:36:30Z</time>
      </trkpt>
      <trkpt lat="42.99571" lon="0.24354">
        <ele>1357.81</ele>
        <time>2017-03-21T11:36:44Z</time>
      </trkpt>
      <trkpt lat="42.99579" lon="0.24347">
        <ele>1360.25</ele>
        <time>2017-03-21T11:36:57Z</time>
      </trkpt>
      <trkpt lat="42.99585" lon="0.24337">
        <ele>1359.82</ele>
        <time>2017-03-21T11:37:11Z</time>
      </trkpt>
      <trkpt lat="42.99592" lon="0.24327">
        <ele>1362.34</ele>
        <time>2017-03-21T11:37:26Z</time>
      </trkpt>
      <trkpt lat="42.99599" lon="0.24319">
        <ele>1363.3</ele>
        <time>2017-03-21T11:37:39Z</time>
      </trkpt>
      <trkpt lat="42.99604" lon="0.24308">
        <ele>1363.22</ele>
        <time>2017-03-21T11:37:52Z</time>
      </trkpt>
      <trkpt lat="42.99609" lon="0.24296">
        <ele>1365.8</ele>
        <time>2017-03-21T11:39:08Z</time>
      </trkpt>
      <trkpt lat="42.99615" lon="0.24286">
        <ele>1364.74</ele>
        <time>2017-03-21T11:39:18Z</time>
      </trkpt>
      <trkpt lat="42.99621" lon="0.24277">
        <ele>1367.94</ele>
        <time>2017-03-21T11:39:28Z</time>
      </trkpt>
      <trkpt lat="42.99626" lon="0.24266">
        <ele>1367.59</ele>
        <time>2017-03-21T11:39:39Z</time>
      </trkpt>
      <trkpt lat="42.9963" lon="0.24254">
        <ele>1367.59</ele>
        <time>2017-03-21T11:39:50Z</time>
      </trkpt>
      <trkpt lat="42.99634" lon="0.24241">
        <ele>1368.28</ele>
        <time>2017-03-21T11:40:00Z</time>
      </trkpt>
      <trkpt lat="42.99635" lon="0.2423">
        <ele>1367.8</ele>
        <time>2017-03-21T11:40:26Z</time>
      </trkpt>
      <trkpt lat="42.99636" lon="0.24219">
        <ele>1368.59</ele>
        <time>2017-03-21T11:41:04Z</time>
      </trkpt>
      <trkpt lat="42.99636" lon="0.24207">
        <ele>1367.63</ele>
        <time>2017-03-21T11:41:14Z</time>
      </trkpt>
      <trkpt lat="42.99635" lon="0.24194">
        <ele>1367.47</ele>
        <time>2017-03-21T11:41:24Z</time>
      </trkpt>
      <trkpt lat="42.99635" lon="0.24181">
        <ele>1367.47</ele>
        <time>2017-03-21T11:41:46Z</time>
      </trkpt>
      <trkpt lat="42.99635" lon="0.24168">
        <ele>1367.79</ele>
        <time>2017-03-21T11:41:56Z</time>
      </trkpt>
      <trkpt lat="42.99635" lon="0.24155">
        <ele>1367.34</ele>
        <time>2017-03-21T11:42:06Z</time>
      </trkpt>
      <trkpt lat="42.99637" lon="0.24142">
        <ele>1366.51</ele>
        <time>2017-03-21T11:42:16Z</time>
      </trkpt>
      <trkpt lat="42.99637" lon="0.24129">
        <ele>1366.46</ele>
        <time>2017-03-21T11:42:34Z</time>
      </trkpt>
      <trkpt lat="42.99636" lon="0.24117">
        <ele>1365.62</ele>
        <time>2017-03-21T11:42:43Z</time>
      </trkpt>
      <trkpt lat="42.99636" lon="0.24103">
        <ele>1364.67</ele>
        <time>2017-03-21T11:42:52Z</time>
      </trkpt>
      <trkpt lat="42.99636" lon="0.24091">
        <ele>1364.69</ele>
        <time>2017-03-21T11:43:01Z</time>
      </trkpt>
      <trkpt lat="42.99633" lon="0.24078">
        <ele>1362.96</ele>
        <time>2017-03-21T11:43:10Z</time>
      </trkpt>
      <trkpt lat="42.99632" lon="0.24066">
        <ele>1363.62</ele>
        <time>2017-03-21T11:43:18Z</time>
      </trkpt>
      <trkpt lat="42.99633" lon="0.24053">
        <ele>1363.48</ele>
        <time>2017-03-21T11:43:27Z</time>
      </trkpt>
      <trkpt lat="42.99633" lon="0.24041">
        <ele>1363.53</ele>
        <time>2017-03-21T11:43:35Z</time>
      </trkpt>
      <trkpt lat="42.99633" lon="0.24029">
        <ele>1362.34</ele>
        <time>2017-03-21T11:43:43Z</time>
      </trkpt>
      <trkpt lat="42.99634" lon="0.24016">
        <ele>1363.14</ele>
        <time>2017-03-21T11:43:51Z</time>
      </trkpt>
      <trkpt lat="42.99634" lon="0.24002">
        <ele>1362.59</ele>
        <time>2017-03-21T11:44:00Z</time>
      </trkpt>
      <trkpt lat="42.99634" lon="0.23989">
        <ele>1361.53</ele>
        <time>2017-03-21T11:44:09Z</time>
      </trkpt>
      <trkpt lat="42.99632" lon="0.23978">
        <ele>1359.31</ele>
        <time>2017-03-21T11:44:52Z</time>
      </trkpt>
      <trkpt lat="42.99631" lon="0.23964">
        <ele>1359.84</ele>
        <time>2017-03-21T11:45:02Z</time>
      </trkpt>
      <trkpt lat="42.99628" lon="0.23952">
        <ele>1359.34</ele>
        <time>2017-03-21T11:45:11Z</time>
      </trkpt>
      <trkpt lat="42.99625" lon="0.2394">
        <ele>1358.66</ele>
        <time>2017-03-21T11:45:21Z</time>
      </trkpt>
      <trkpt lat="42.99623" lon="0.23928">
        <ele>1357.75</ele>
        <time>2017-03-21T11:45:39Z</time>
      </trkpt>
      <trkpt lat="42.99621" lon="0.23916">
        <ele>1357.49</ele>
        <time>2017-03-21T11:45:48Z</time>
      </trkpt>
      <trkpt lat="42.9962" lon="0.23903">
        <ele>1357.17</ele>
        <time>2017-03-21T11:45:57Z</time>
      </trkpt>
      <trkpt lat="42.99619" lon="0.2389">
        <ele>1356.93</ele>
        <time>2017-03-21T11:46:06Z</time>
      </trkpt>
      <trkpt lat="42.99619" lon="0.23877">
        <ele>1357.13</ele>
        <time>2017-03-21T11:46:15Z</time>
      </trkpt>
      <trkpt lat="42.99617" lon="0.23864">
        <ele>1355.63</ele>
        <time>2017-03-21T11:46:23Z</time>
      </trkpt>
      <trkpt lat="42.99615" lon="0.23852">
        <ele>1354.18</ele>
        <time>2017-03-21T11:46:31Z</time>
      </trkpt>
      <trkpt lat="42.99612" lon="0.2384">
        <ele>1354.51</ele>
        <time>2017-03-21T11:46:39Z</time>
      </trkpt>
      <trkpt lat="42.9961" lon="0.23828">
        <ele>1354.09</ele>
        <time>2017-03-21T11:46:47Z</time>
      </trkpt>
      <trkpt lat="42.99606" lon="0.23815">
        <ele>1354.15</ele>
        <time>2017-03-21T11:46:56Z</time>
      </trkpt>
      <trkpt lat="42.99602" lon="0.23804">
        <ele>1353.51</ele>
        <time>2017-03-21T11:47:05Z</time>
      </trkpt>
      <trkpt lat="42.99597" lon="0.23792">
        <ele>1352.48</ele>
        <time>2017-03-21T11:47:16Z</time>
      </trkpt>
      <trkpt lat="42.99593" lon="0.2378">
        <ele>1353.5</ele>
        <time>2017-03-21T11:47:25Z</time>
      </trkpt>
      <trkpt lat="42.99591" lon="0.23768">
        <ele>1352.49</ele>
        <time>2017-03-21T11:47:37Z</time>
      </trkpt>
      <trkpt lat="42.9959" lon="0.23755">
        <ele>1351.84</ele>
        <time>2017-03-21T11:47:51Z</time>
      </trkpt>
      <trkpt lat="42.99585" lon="0.23744">
        <ele>1351.46</ele>
        <time>2017-03-21T11:48:10Z</time>
      </trkpt>
      <trkpt lat="42.99582" lon="0.23732">
        <ele>1350.21</ele>
        <time>2017-03-21T11:48:23Z</time>
      </trkpt>
      <trkpt lat="42.99577" lon="0.23722">
        <ele>1347.61</ele>
        <time>2017-03-21T11:48:37Z</time>
      </trkpt>
      <trkpt lat="42.99572" lon="0.23715">
        <ele>1345.58</ele>
        <time>2017-03-21T11:48:51Z</time>
      </trkpt>
      <trkpt lat="42.99573" lon="0.23704">
        <ele>1341.85</ele>
        <time>2017-03-21T11:50:06Z</time>
      </trkpt>
      <trkpt lat="42.99575" lon="0.23699">
        <ele>1342.36</ele>
        <time>2017-03-21T11:53:54Z</time>
      </trkpt>
      <trkpt lat="42.99571" lon="0.23689">
        <ele>1338.56</ele>
        <time>2017-03-21T12:14:44Z</time>
      </trkpt>
      <trkpt lat="42.9957" lon="0.23695">
        <ele>1339.94</ele>
        <time>2017-03-21T12:16:19Z</time>
      </trkpt>
      <trkpt lat="42.99569" lon="0.23695">
        <ele>1339.64</ele>
        <time>2017-03-21T12:25:55Z</time>
      </trkpt>
      <trkpt lat="42.99566" lon="0.23686">
        <ele>1336.51</ele>
        <time>2017-03-21T12:26:08Z</time>
      </trkpt>
      <trkpt lat="42.99566" lon="0.23673">
        <ele>1334.18</ele>
        <time>2017-03-21T12:26:17Z</time>
      </trkpt>
      <trkpt lat="42.99563" lon="0.23661">
        <ele>1332.01</ele>
        <time>2017-03-21T12:26:28Z</time>
      </trkpt>
      <trkpt lat="42.99557" lon="0.23651">
        <ele>1330.27</ele>
        <time>2017-03-21T12:26:38Z</time>
      </trkpt>
      <trkpt lat="42.99552" lon="0.23639">
        <ele>1327.37</ele>
        <time>2017-03-21T12:26:49Z</time>
      </trkpt>
      <trkpt lat="42.99546" lon="0.23631">
        <ele>1324.85</ele>
        <time>2017-03-21T12:26:59Z</time>
      </trkpt>
      <trkpt lat="42.99547" lon="0.23617">
        <ele>1322.88</ele>
        <time>2017-03-21T12:27:08Z</time>
      </trkpt>
      <trkpt lat="42.9955" lon="0.23606">
        <ele>1321.19</ele>
        <time>2017-03-21T12:27:18Z</time>
      </trkpt>
      <trkpt lat="42.99549" lon="0.23595">
        <ele>1319.63</ele>
        <time>2017-03-21T12:27:31Z</time>
      </trkpt>
      <trkpt lat="42.99555" lon="0.23585">
        <ele>1317.33</ele>
        <time>2017-03-21T12:27:40Z</time>
      </trkpt>
      <trkpt lat="42.99558" lon="0.23574">
        <ele>1315.01</ele>
        <time>2017-03-21T12:27:50Z</time>
      </trkpt>
      <trkpt lat="42.99563" lon="0.23562">
        <ele>1313.03</ele>
        <time>2017-03-21T12:28:00Z</time>
      </trkpt>
      <trkpt lat="42.99568" lon="0.23552">
        <ele>1310.13</ele>
        <time>2017-03-21T12:28:10Z</time>
      </trkpt>
      <trkpt lat="42.99575" lon="0.23541">
        <ele>1308.85</ele>
        <time>2017-03-21T12:28:19Z</time>
      </trkpt>
      <trkpt lat="42.9958" lon="0.2353">
        <ele>1306.42</ele>
        <time>2017-03-21T12:28:28Z</time>
      </trkpt>
      <trkpt lat="42.99585" lon="0.23518">
        <ele>1303.55</ele>
        <time>2017-03-21T12:28:37Z</time>
      </trkpt>
      <trkpt lat="42.9959" lon="0.23508">
        <ele>1300.78</ele>
        <time>2017-03-21T12:28:46Z</time>
      </trkpt>
      <trkpt lat="42.99595" lon="0.23496">
        <ele>1298.25</ele>
        <time>2017-03-21T12:28:56Z</time>
      </trkpt>
      <trkpt lat="42.996" lon="0.23486">
        <ele>1296.92</ele>
        <time>2017-03-21T12:29:07Z</time>
      </trkpt>
      <trkpt lat="42.99604" lon="0.23475">
        <ele>1294.65</ele>
        <time>2017-03-21T12:29:23Z</time>
      </trkpt>
      <trkpt lat="42.9961" lon="0.23466">
        <ele>1293.18</ele>
        <time>2017-03-21T12:29:34Z</time>
      </trkpt>
      <trkpt lat="42.99616" lon="0.23457">
        <ele>1290.07</ele>
        <time>2017-03-21T12:29:46Z</time>
      </trkpt>
      <trkpt lat="42.9962" lon="0.23445">
        <ele>1288.64</ele>
        <time>2017-03-21T12:29:56Z</time>
      </trkpt>
      <trkpt lat="42.99624" lon="0.23433">
        <ele>1285.47</ele>
        <time>2017-03-21T12:30:06Z</time>
      </trkpt>
      <trkpt lat="42.99625" lon="0.2342">
        <ele>1284.04</ele>
        <time>2017-03-21T12:30:16Z</time>
      </trkpt>
      <trkpt lat="42.99629" lon="0.23409">
        <ele>1282.03</ele>
        <time>2017-03-21T12:30:31Z</time>
      </trkpt>
      <trkpt lat="42.99631" lon="0.23396">
        <ele>1279.87</ele>
        <time>2017-03-21T12:30:44Z</time>
      </trkpt>
      <trkpt lat="42.99632" lon="0.23383">
        <ele>1277.5</ele>
        <time>2017-03-21T12:30:55Z</time>
      </trkpt>
      <trkpt lat="42.99634" lon="0.2337">
        <ele>1276.01</ele>
        <time>2017-03-21T12:31:04Z</time>
      </trkpt>
      <trkpt lat="42.99632" lon="0.23357">
        <ele>1272.11</ele>
        <time>2017-03-21T12:31:13Z</time>
      </trkpt>
      <trkpt lat="42.99631" lon="0.23344">
        <ele>1272.24</ele>
        <time>2017-03-21T12:31:21Z</time>
      </trkpt>
      <trkpt lat="42.99629" lon="0.23332">
        <ele>1271.3</ele>
        <time>2017-03-21T12:31:29Z</time>
      </trkpt>
      <trkpt lat="42.99627" lon="0.23318">
        <ele>1269.35</ele>
        <time>2017-03-21T12:31:37Z</time>
      </trkpt>
      <trkpt lat="42.99624" lon="0.23305">
        <ele>1269.35</ele>
        <time>2017-03-21T12:31:45Z</time>
      </trkpt>
      <trkpt lat="42.99621" lon="0.23293">
        <ele>1268.62</ele>
        <time>2017-03-21T12:31:54Z</time>
      </trkpt>
      <trkpt lat="42.9962" lon="0.2328">
        <ele>1265.36</ele>
        <time>2017-03-21T12:32:04Z</time>
      </trkpt>
      <trkpt lat="42.99621" lon="0.23267">
        <ele>1263.99</ele>
        <time>2017-03-21T12:32:14Z</time>
      </trkpt>
      <trkpt lat="42.99621" lon="0.23254">
        <ele>1261.85</ele>
        <time>2017-03-21T12:32:23Z</time>
      </trkpt>
      <trkpt lat="42.99623" lon="0.23242">
        <ele>1259.8</ele>
        <time>2017-03-21T12:32:34Z</time>
      </trkpt>
      <trkpt lat="42.99625" lon="0.23229">
        <ele>1257.51</ele>
        <time>2017-03-21T12:32:45Z</time>
      </trkpt>
      <trkpt lat="42.99628" lon="0.23218">
        <ele>1255.44</ele>
        <time>2017-03-21T12:32:58Z</time>
      </trkpt>
      <trkpt lat="42.99633" lon="0.23208">
        <ele>1252.62</ele>
        <time>2017-03-21T12:33:12Z</time>
      </trkpt>
      <trkpt lat="42.99638" lon="0.23197">
        <ele>1251.32</ele>
        <time>2017-03-21T12:33:21Z</time>
      </trkpt>
      <trkpt lat="42.99643" lon="0.23187">
        <ele>1250.11</ele>
        <time>2017-03-21T12:33:34Z</time>
      </trkpt>
      <trkpt lat="42.99646" lon="0.23176">
        <ele>1248.16</ele>
        <time>2017-03-21T12:33:49Z</time>
      </trkpt>
      <trkpt lat="42.99652" lon="0.23166">
        <ele>1246.22</ele>
        <time>2017-03-21T12:34:01Z</time>
      </trkpt>
      <trkpt lat="42.99656" lon="0.23155">
        <ele>1243.49</ele>
        <time>2017-03-21T12:34:13Z</time>
      </trkpt>
      <trkpt lat="42.99661" lon="0.23143">
        <ele>1239.87</ele>
        <time>2017-03-21T12:34:29Z</time>
      </trkpt>
      <trkpt lat="42.99664" lon="0.2313">
        <ele>1237.54</ele>
        <time>2017-03-21T12:34:43Z</time>
      </trkpt>
      <trkpt lat="42.99669" lon="0.23119">
        <ele>1235.02</ele>
        <time>2017-03-21T12:35:03Z</time>
      </trkpt>
      <trkpt lat="42.99672" lon="0.23108">
        <ele>1232.95</ele>
        <time>2017-03-21T12:35:20Z</time>
      </trkpt>
      <trkpt lat="42.99676" lon="0.23098">
        <ele>1229.67</ele>
        <time>2017-03-21T12:35:35Z</time>
      </trkpt>
      <trkpt lat="42.99682" lon="0.23088">
        <ele>1228.29</ele>
        <time>2017-03-21T12:35:46Z</time>
      </trkpt>
      <trkpt lat="42.99686" lon="0.23077">
        <ele>1225.22</ele>
        <time>2017-03-21T12:36:02Z</time>
      </trkpt>
      <trkpt lat="42.99689" lon="0.23066">
        <ele>1222.81</ele>
        <time>2017-03-21T12:36:19Z</time>
      </trkpt>
      <trkpt lat="42.99693" lon="0.23054">
        <ele>1218.44</ele>
        <time>2017-03-21T12:36:37Z</time>
      </trkpt>
      <trkpt lat="42.99697" lon="0.23044">
        <ele>1214.95</ele>
        <time>2017-03-21T12:36:55Z</time>
      </trkpt>
      <trkpt lat="42.99701" lon="0.23033">
        <ele>1213.15</ele>
        <time>2017-03-21T12:37:15Z</time>
      </trkpt>
      <trkpt lat="42.99705" lon="0.23021">
        <ele>1210.44</ele>
        <time>2017-03-21T12:37:35Z</time>
      </trkpt>
      <trkpt lat="42.9971" lon="0.23011">
        <ele>1207.98</ele>
        <time>2017-03-21T12:37:49Z</time>
      </trkpt>
      <trkpt lat="42.99714" lon="0.23001">
        <ele>1206.12</ele>
        <time>2017-03-21T12:38:14Z</time>
      </trkpt>
      <trkpt lat="42.99714" lon="0.2299">
        <ele>1203.16</ele>
        <time>2017-03-21T12:38:32Z</time>
      </trkpt>
      <trkpt lat="42.99715" lon="0.22978">
        <ele>1199.14</ele>
        <time>2017-03-21T12:38:58Z</time>
      </trkpt>
      <trkpt lat="42.99714" lon="0.22965">
        <ele>1196.19</ele>
        <time>2017-03-21T12:39:14Z</time>
      </trkpt>
      <trkpt lat="42.99706" lon="0.2297">
        <ele>1193.1</ele>
        <time>2017-03-21T12:39:28Z</time>
      </trkpt>
      <trkpt lat="42.99697" lon="0.22976">
        <ele>1189.77</ele>
        <time>2017-03-21T12:39:42Z</time>
      </trkpt>
      <trkpt lat="42.99688" lon="0.22981">
        <ele>1187.25</ele>
        <time>2017-03-21T12:40:02Z</time>
      </trkpt>
      <trkpt lat="42.9968" lon="0.22987">
        <ele>1182.97</ele>
        <time>2017-03-21T12:40:22Z</time>
      </trkpt>
      <trkpt lat="42.99671" lon="0.22993">
        <ele>1181.52</ele>
        <time>2017-03-21T12:40:36Z</time>
      </trkpt>
      <trkpt lat="42.99671" lon="0.22984">
        <ele>1178.5</ele>
        <time>2017-03-21T12:40:53Z</time>
      </trkpt>
      <trkpt lat="42.99674" lon="0.22971">
        <ele>1176.09</ele>
        <time>2017-03-21T12:41:10Z</time>
      </trkpt>
      <trkpt lat="42.99675" lon="0.22958">
        <ele>1173.56</ele>
        <time>2017-03-21T12:41:26Z</time>
      </trkpt>
      <trkpt lat="42.99676" lon="0.22946">
        <ele>1169.41</ele>
        <time>2017-03-21T12:41:48Z</time>
      </trkpt>
      <trkpt lat="42.99676" lon="0.22932">
        <ele>1165.58</ele>
        <time>2017-03-21T12:42:04Z</time>
      </trkpt>
      <trkpt lat="42.99672" lon="0.2292">
        <ele>1163.87</ele>
        <time>2017-03-21T12:42:14Z</time>
      </trkpt>
      <trkpt lat="42.99672" lon="0.22907">
        <ele>1162.42</ele>
        <time>2017-03-21T12:42:23Z</time>
      </trkpt>
      <trkpt lat="42.9967" lon="0.22894">
        <ele>1159.79</ele>
        <time>2017-03-21T12:42:44Z</time>
      </trkpt>
      <trkpt lat="42.99669" lon="0.22883">
        <ele>1157.82</ele>
        <time>2017-03-21T12:43:05Z</time>
      </trkpt>
      <trkpt lat="42.99666" lon="0.22873">
        <ele>1154.62</ele>
        <time>2017-03-21T12:43:29Z</time>
      </trkpt>
      <trkpt lat="42.99667" lon="0.22861">
        <ele>1151.54</ele>
        <time>2017-03-21T12:43:50Z</time>
      </trkpt>
      <trkpt lat="42.99664" lon="0.22848">
        <ele>1148.03</ele>
        <time>2017-03-21T12:44:08Z</time>
      </trkpt>
      <trkpt lat="42.99658" lon="0.22839">
        <ele>1144.41</ele>
        <time>2017-03-21T12:44:29Z</time>
      </trkpt>
      <trkpt lat="42.99652" lon="0.22829">
        <ele>1142.11</ele>
        <time>2017-03-21T12:44:43Z</time>
      </trkpt>
      <trkpt lat="42.99645" lon="0.22821">
        <ele>1140.05</ele>
        <time>2017-03-21T12:45:00Z</time>
      </trkpt>
      <trkpt lat="42.99641" lon="0.2281">
        <ele>1136.99</ele>
        <time>2017-03-21T12:45:19Z</time>
      </trkpt>
      <trkpt lat="42.99641" lon="0.22798">
        <ele>1135.17</ele>
        <time>2017-03-21T12:45:34Z</time>
      </trkpt>
      <trkpt lat="42.99641" lon="0.22786">
        <ele>1132.02</ele>
        <time>2017-03-21T12:45:51Z</time>
      </trkpt>
      <trkpt lat="42.99641" lon="0.22773">
        <ele>1129.37</ele>
        <time>2017-03-21T12:46:10Z</time>
      </trkpt>
      <trkpt lat="42.99642" lon="0.2276">
        <ele>1126.53</ele>
        <time>2017-03-21T12:46:25Z</time>
      </trkpt>
      <trkpt lat="42.99642" lon="0.22747">
        <ele>1125.37</ele>
        <time>2017-03-21T12:46:35Z</time>
      </trkpt>
      <trkpt lat="42.99642" lon="0.22734">
        <ele>1122.15</ele>
        <time>2017-03-21T12:46:46Z</time>
      </trkpt>
      <trkpt lat="42.99643" lon="0.22722">
        <ele>1120.32</ele>
        <time>2017-03-21T12:46:59Z</time>
      </trkpt>
      <trkpt lat="42.99643" lon="0.22709">
        <ele>1116.11</ele>
        <time>2017-03-21T12:47:15Z</time>
      </trkpt>
      <trkpt lat="42.99644" lon="0.22698">
        <ele>1114.12</ele>
        <time>2017-03-21T12:47:31Z</time>
      </trkpt>
      <trkpt lat="42.99638" lon="0.22688">
        <ele>1111.06</ele>
        <time>2017-03-21T12:47:48Z</time>
      </trkpt>
      <trkpt lat="42.99633" lon="0.22681">
        <ele>1110.37</ele>
        <time>2017-03-21T12:48:57Z</time>
      </trkpt>
      <trkpt lat="42.99629" lon="0.22671">
        <ele>1110.04</ele>
        <time>2017-03-21T12:49:09Z</time>
      </trkpt>
      <trkpt lat="42.99629" lon="0.22659">
        <ele>1107.89</ele>
        <time>2017-03-21T12:49:29Z</time>
      </trkpt>
      <trkpt lat="42.99629" lon="0.22646">
        <ele>1105.26</ele>
        <time>2017-03-21T12:49:43Z</time>
      </trkpt>
      <trkpt lat="42.99628" lon="0.22634">
        <ele>1103.49</ele>
        <time>2017-03-21T12:49:57Z</time>
      </trkpt>
      <trkpt lat="42.99627" lon="0.22622">
        <ele>1100.03</ele>
        <time>2017-03-21T12:50:16Z</time>
      </trkpt>
      <trkpt lat="42.99625" lon="0.2261">
        <ele>1097.94</ele>
        <time>2017-03-21T12:50:30Z</time>
      </trkpt>
      <trkpt lat="42.99622" lon="0.22598">
        <ele>1096.2</ele>
        <time>2017-03-21T12:50:44Z</time>
      </trkpt>
      <trkpt lat="42.99616" lon="0.22603">
        <ele>1093.13</ele>
        <time>2017-03-21T12:50:59Z</time>
      </trkpt>
      <trkpt lat="42.99614" lon="0.22615">
        <ele>1089.95</ele>
        <time>2017-03-21T12:51:13Z</time>
      </trkpt>
      <trkpt lat="42.9961" lon="0.22625">
        <ele>1087.04</ele>
        <time>2017-03-21T12:51:33Z</time>
      </trkpt>
      <trkpt lat="42.99605" lon="0.22636">
        <ele>1084.02</ele>
        <time>2017-03-21T12:51:52Z</time>
      </trkpt>
      <trkpt lat="42.996" lon="0.22646">
        <ele>1081.1</ele>
        <time>2017-03-21T12:52:05Z</time>
      </trkpt>
      <trkpt lat="42.99596" lon="0.22657">
        <ele>1079.1</ele>
        <time>2017-03-21T12:52:21Z</time>
      </trkpt>
      <trkpt lat="42.99592" lon="0.22664">
        <ele>1075.73</ele>
        <time>2017-03-21T12:52:36Z</time>
      </trkpt>
      <trkpt lat="42.99589" lon="0.22652">
        <ele>1074.38</ele>
        <time>2017-03-21T12:52:47Z</time>
      </trkpt>
      <trkpt lat="42.99589" lon="0.22642">
        <ele>1072.62</ele>
        <time>2017-03-21T12:53:13Z</time>
      </trkpt>
      <trkpt lat="42.99589" lon="0.22629">
        <ele>1070.73</ele>
        <time>2017-03-21T12:53:23Z</time>
      </trkpt>
      <trkpt lat="42.99588" lon="0.22616">
        <ele>1067.54</ele>
        <time>2017-03-21T12:53:36Z</time>
      </trkpt>
      <trkpt lat="42.99588" lon="0.22605">
        <ele>1065.68</ele>
        <time>2017-03-21T12:53:48Z</time>
      </trkpt>
      <trkpt lat="42.99591" lon="0.22592">
        <ele>1063.28</ele>
        <time>2017-03-21T12:54:00Z</time>
      </trkpt>
      <trkpt lat="42.99594" lon="0.22581">
        <ele>1061.76</ele>
        <time>2017-03-21T12:54:09Z</time>
      </trkpt>
      <trkpt lat="42.99598" lon="0.22568">
        <ele>1059.74</ele>
        <time>2017-03-21T12:54:19Z</time>
      </trkpt>
      <trkpt lat="42.99602" lon="0.22556">
        <ele>1058.96</ele>
        <time>2017-03-21T12:54:28Z</time>
      </trkpt>
      <trkpt lat="42.9961" lon="0.22551">
        <ele>1057.49</ele>
        <time>2017-03-21T12:54:38Z</time>
      </trkpt>
      <trkpt lat="42.99614" lon="0.22542">
        <ele>1055.24</ele>
        <time>2017-03-21T12:54:51Z</time>
      </trkpt>
      <trkpt lat="42.99616" lon="0.22529">
        <ele>1052.74</ele>
        <time>2017-03-21T12:55:03Z</time>
      </trkpt>
      <trkpt lat="42.99615" lon="0.22516">
        <ele>1049.25</ele>
        <time>2017-03-21T12:55:19Z</time>
      </trkpt>
      <trkpt lat="42.99613" lon="0.22502">
        <ele>1045.31</ele>
        <time>2017-03-21T12:55:34Z</time>
      </trkpt>
      <trkpt lat="42.99613" lon="0.22489">
        <ele>1042.88</ele>
        <time>2017-03-21T12:55:48Z</time>
      </trkpt>
      <trkpt lat="42.99614" lon="0.22476">
        <ele>1039.34</ele>
        <time>2017-03-21T12:56:00Z</time>
      </trkpt>
      <trkpt lat="42.99616" lon="0.22463">
        <ele>1036.18</ele>
        <time>2017-03-21T12:56:12Z</time>
      </trkpt>
      <trkpt lat="42.99619" lon="0.22451">
        <ele>1033.13</ele>
        <time>2017-03-21T12:56:24Z</time>
      </trkpt>
      <trkpt lat="42.99623" lon="0.22439">
        <ele>1030.84</ele>
        <time>2017-03-21T12:56:40Z</time>
      </trkpt>
      <trkpt lat="42.99629" lon="0.22428">
        <ele>1028.26</ele>
        <time>2017-03-21T12:56:58Z</time>
      </trkpt>
      <trkpt lat="42.99636" lon="0.22419">
        <ele>1025.94</ele>
        <time>2017-03-21T12:57:12Z</time>
      </trkpt>
      <trkpt lat="42.99643" lon="0.2241">
        <ele>1022.4</ele>
        <time>2017-03-21T12:57:24Z</time>
      </trkpt>
      <trkpt lat="42.9965" lon="0.22402">
        <ele>1019.87</ele>
        <time>2017-03-21T12:57:36Z</time>
      </trkpt>
      <trkpt lat="42.99657" lon="0.22392">
        <ele>1018.24</ele>
        <time>2017-03-21T12:57:48Z</time>
      </trkpt>
      <trkpt lat="42.99663" lon="0.22383">
        <ele>1015.07</ele>
        <time>2017-03-21T12:58:00Z</time>
      </trkpt>
      <trkpt lat="42.99669" lon="0.22372">
        <ele>1011.91</ele>
        <time>2017-03-21T12:58:12Z</time>
      </trkpt>
      <trkpt lat="42.99675" lon="0.22363">
        <ele>1009.56</ele>
        <time>2017-03-21T12:58:25Z</time>
      </trkpt>
      <trkpt lat="42.99673" lon="0.22349">
        <ele>1006.79</ele>
        <time>2017-03-21T12:58:42Z</time>
      </trkpt>
      <trkpt lat="42.99675" lon="0.22337">
        <ele>1003.67</ele>
        <time>2017-03-21T12:58:57Z</time>
      </trkpt>
      <trkpt lat="42.99678" lon="0.22324">
        <ele>1000.41</ele>
        <time>2017-03-21T12:59:10Z</time>
      </trkpt>
      <trkpt lat="42.99678" lon="0.22312">
        <ele>998.85</ele>
        <time>2017-03-21T12:59:22Z</time>
      </trkpt>
      <trkpt lat="42.99677" lon="0.223">
        <ele>996.4</ele>
        <time>2017-03-21T12:59:33Z</time>
      </trkpt>
      <trkpt lat="42.99672" lon="0.2229">
        <ele>994.05</ele>
        <time>2017-03-21T12:59:52Z</time>
      </trkpt>
      <trkpt lat="42.99671" lon="0.22277">
        <ele>992.01</ele>
        <time>2017-03-21T13:00:07Z</time>
      </trkpt>
      <trkpt lat="42.99669" lon="0.22265">
        <ele>989.08</ele>
        <time>2017-03-21T13:00:23Z</time>
      </trkpt>
      <trkpt lat="42.99669" lon="0.22252">
        <ele>986.43</ele>
        <time>2017-03-21T13:00:39Z</time>
      </trkpt>
      <trkpt lat="42.9967" lon="0.22239">
        <ele>984.38</ele>
        <time>2017-03-21T13:00:51Z</time>
      </trkpt>
      <trkpt lat="42.99671" lon="0.22227">
        <ele>982.07</ele>
        <time>2017-03-21T13:01:01Z</time>
      </trkpt>
      <trkpt lat="42.99673" lon="0.22215">
        <ele>981.03</ele>
        <time>2017-03-21T13:01:11Z</time>
      </trkpt>
      <trkpt lat="42.99676" lon="0.22203">
        <ele>978.76</ele>
        <time>2017-03-21T13:01:21Z</time>
      </trkpt>
      <trkpt lat="42.99677" lon="0.22191">
        <ele>975.59</ele>
        <time>2017-03-21T13:01:36Z</time>
      </trkpt>
      <trkpt lat="42.99679" lon="0.22178">
        <ele>972.52</ele>
        <time>2017-03-21T13:01:49Z</time>
      </trkpt>
      <trkpt lat="42.99683" lon="0.22165">
        <ele>971.22</ele>
        <time>2017-03-21T13:02:02Z</time>
      </trkpt>
      <trkpt lat="42.99686" lon="0.22152">
        <ele>969.58</ele>
        <time>2017-03-21T13:02:13Z</time>
      </trkpt>
      <trkpt lat="42.9969" lon="0.22141">
        <ele>967.63</ele>
        <time>2017-03-21T13:02:23Z</time>
      </trkpt>
      <trkpt lat="42.9969" lon="0.22127">
        <ele>967.06</ele>
        <time>2017-03-21T13:02:38Z</time>
      </trkpt>
      <trkpt lat="42.99692" lon="0.22115">
        <ele>964.84</ele>
        <time>2017-03-21T13:02:50Z</time>
      </trkpt>
      <trkpt lat="42.99694" lon="0.22102">
        <ele>963.72</ele>
        <time>2017-03-21T13:03:01Z</time>
      </trkpt>
      <trkpt lat="42.99695" lon="0.22089">
        <ele>960.27</ele>
        <time>2017-03-21T13:03:15Z</time>
      </trkpt>
      <trkpt lat="42.99693" lon="0.22076">
        <ele>958.49</ele>
        <time>2017-03-21T13:03:29Z</time>
      </trkpt>
      <trkpt lat="42.99691" lon="0.22064">
        <ele>956.29</ele>
        <time>2017-03-21T13:03:42Z</time>
      </trkpt>
      <trkpt lat="42.99689" lon="0.22053">
        <ele>953.49</ele>
        <time>2017-03-21T13:03:56Z</time>
      </trkpt>
      <trkpt lat="42.9969" lon="0.22042">
        <ele>950.09</ele>
        <time>2017-03-21T13:04:11Z</time>
      </trkpt>
      <trkpt lat="42.99688" lon="0.22029">
        <ele>947.65</ele>
        <time>2017-03-21T13:04:28Z</time>
      </trkpt>
      <trkpt lat="42.99687" lon="0.22018">
        <ele>944.46</ele>
        <time>2017-03-21T13:04:42Z</time>
      </trkpt>
      <trkpt lat="42.99687" lon="0.22006">
        <ele>942.12</ele>
        <time>2017-03-21T13:04:55Z</time>
      </trkpt>
      <trkpt lat="42.99685" lon="0.21993">
        <ele>940.45</ele>
        <time>2017-03-21T13:05:07Z</time>
      </trkpt>
      <trkpt lat="42.99686" lon="0.21981">
        <ele>938.28</ele>
        <time>2017-03-21T13:05:21Z</time>
      </trkpt>
      <trkpt lat="42.99684" lon="0.21969">
        <ele>934.8</ele>
        <time>2017-03-21T13:05:45Z</time>
      </trkpt>
      <trkpt lat="42.99685" lon="0.21956">
        <ele>931.9</ele>
        <time>2017-03-21T13:06:00Z</time>
      </trkpt>
      <trkpt lat="42.99686" lon="0.21944">
        <ele>929.02</ele>
        <time>2017-03-21T13:06:16Z</time>
      </trkpt>
      <trkpt lat="42.99687" lon="0.21931">
        <ele>927.64</ele>
        <time>2017-03-21T13:06:27Z</time>
      </trkpt>
      <trkpt lat="42.9969" lon="0.2192">
        <ele>924.93</ele>
        <time>2017-03-21T13:06:38Z</time>
      </trkpt>
      <trkpt lat="42.99691" lon="0.21907">
        <ele>922.5</ele>
        <time>2017-03-21T13:06:53Z</time>
      </trkpt>
      <trkpt lat="42.99694" lon="0.21894">
        <ele>920.66</ele>
        <time>2017-03-21T13:07:03Z</time>
      </trkpt>
      <trkpt lat="42.99697" lon="0.21881">
        <ele>918.47</ele>
        <time>2017-03-21T13:07:13Z</time>
      </trkpt>
      <trkpt lat="42.99698" lon="0.21868">
        <ele>916.77</ele>
        <time>2017-03-21T13:07:23Z</time>
      </trkpt>
      <trkpt lat="42.99699" lon="0.21855">
        <ele>915.67</ele>
        <time>2017-03-21T13:07:33Z</time>
      </trkpt>
      <trkpt lat="42.997" lon="0.21842">
        <ele>913.47</ele>
        <time>2017-03-21T13:07:44Z</time>
      </trkpt>
      <trkpt lat="42.99703" lon="0.2183">
        <ele>911.62</ele>
        <time>2017-03-21T13:07:54Z</time>
      </trkpt>
      <trkpt lat="42.99705" lon="0.21818">
        <ele>910.16</ele>
        <time>2017-03-21T13:08:05Z</time>
      </trkpt>
      <trkpt lat="42.99708" lon="0.21805">
        <ele>908.13</ele>
        <time>2017-03-21T13:08:14Z</time>
      </trkpt>
      <trkpt lat="42.9971" lon="0.21793">
        <ele>907.26</ele>
        <time>2017-03-21T13:08:24Z</time>
      </trkpt>
      <trkpt lat="42.99712" lon="0.21781">
        <ele>906.51</ele>
        <time>2017-03-21T13:08:33Z</time>
      </trkpt>
      <trkpt lat="42.99715" lon="0.21769">
        <ele>905.62</ele>
        <time>2017-03-21T13:08:42Z</time>
      </trkpt>
      <trkpt lat="42.9972" lon="0.21757">
        <ele>903.73</ele>
        <time>2017-03-21T13:08:51Z</time>
      </trkpt>
      <trkpt lat="42.99724" lon="0.21746">
        <ele>904.05</ele>
        <time>2017-03-21T13:08:59Z</time>
      </trkpt>
      <trkpt lat="42.99728" lon="0.21735">
        <ele>903.25</ele>
        <time>2017-03-21T13:09:13Z</time>
      </trkpt>
      <trkpt lat="42.99732" lon="0.21724">
        <ele>901.87</ele>
        <time>2017-03-21T13:09:35Z</time>
      </trkpt>
      <trkpt lat="42.99737" lon="0.21717">
        <ele>900.3</ele>
        <time>2017-03-21T13:10:55Z</time>
      </trkpt>
      <trkpt lat="42.99742" lon="0.21706">
        <ele>898.61</ele>
        <time>2017-03-21T13:11:05Z</time>
      </trkpt>
      <trkpt lat="42.99744" lon="0.21694">
        <ele>897.51</ele>
        <time>2017-03-21T13:11:43Z</time>
      </trkpt>
      <trkpt lat="42.99748" lon="0.21682">
        <ele>895.92</ele>
        <time>2017-03-21T13:11:59Z</time>
      </trkpt>
      <trkpt lat="42.99747" lon="0.21677">
        <ele>895.13</ele>
        <time>2017-03-21T13:13:02Z</time>
      </trkpt>
      <trkpt lat="42.99751" lon="0.21675">
        <ele>896.31</ele>
        <time>2017-03-21T13:13:37Z</time>
      </trkpt>
      <trkpt lat="42.99752" lon="0.21668">
        <ele>896.94</ele>
        <time>2017-03-21T13:16:00Z</time>
      </trkpt>
      <trkpt lat="42.99748" lon="0.2168">
        <ele>896.44</ele>
        <time>2017-03-21T13:16:17Z</time>
      </trkpt>
      <trkpt lat="42.99748" lon="0.2167">
        <ele>893.95</ele>
        <time>2017-03-21T13:16:33Z</time>
      </trkpt>
      <trkpt lat="42.99748" lon="0.21658">
        <ele>891.16</ele>
        <time>2017-03-21T13:16:49Z</time>
      </trkpt>
      <trkpt lat="42.99749" lon="0.21645">
        <ele>889.5</ele>
        <time>2017-03-21T13:17:02Z</time>
      </trkpt>
      <trkpt lat="42.99752" lon="0.21633">
        <ele>887.61</ele>
        <time>2017-03-21T13:17:16Z</time>
      </trkpt>
      <trkpt lat="42.99752" lon="0.21622">
        <ele>885.66</ele>
        <time>2017-03-21T13:17:29Z</time>
      </trkpt>
      <trkpt lat="42.99754" lon="0.2161">
        <ele>883.74</ele>
        <time>2017-03-21T13:17:42Z</time>
      </trkpt>
      <trkpt lat="42.99755" lon="0.21597">
        <ele>882.34</ele>
        <time>2017-03-21T13:17:53Z</time>
      </trkpt>
      <trkpt lat="42.99757" lon="0.21585">
        <ele>880.44</ele>
        <time>2017-03-21T13:18:04Z</time>
      </trkpt>
      <trkpt lat="42.99759" lon="0.21571">
        <ele>878.98</ele>
        <time>2017-03-21T13:18:13Z</time>
      </trkpt>
      <trkpt lat="42.99762" lon="0.21558">
        <ele>877.61</ele>
        <time>2017-03-21T13:18:22Z</time>
      </trkpt>
      <trkpt lat="42.99765" lon="0.21545">
        <ele>877.85</ele>
        <time>2017-03-21T13:18:32Z</time>
      </trkpt>
      <trkpt lat="42.99767" lon="0.21532">
        <ele>875.77</ele>
        <time>2017-03-21T13:18:45Z</time>
      </trkpt>
      <trkpt lat="42.99763" lon="0.21519">
        <ele>873.95</ele>
        <time>2017-03-21T13:18:57Z</time>
      </trkpt>
      <trkpt lat="42.99763" lon="0.21504">
        <ele>871.99</ele>
        <time>2017-03-21T13:19:06Z</time>
      </trkpt>
      <trkpt lat="42.99766" lon="0.21491">
        <ele>871.98</ele>
        <time>2017-03-21T13:19:15Z</time>
      </trkpt>
      <trkpt lat="42.99769" lon="0.21478">
        <ele>870.88</ele>
        <time>2017-03-21T13:19:24Z</time>
      </trkpt>
      <trkpt lat="42.99771" lon="0.21464">
        <ele>869.29</ele>
        <time>2017-03-21T13:19:33Z</time>
      </trkpt>
      <trkpt lat="42.99773" lon="0.21452">
        <ele>868.3</ele>
        <time>2017-03-21T13:19:41Z</time>
      </trkpt>
      <trkpt lat="42.99776" lon="0.21439">
        <ele>866.26</ele>
        <time>2017-03-21T13:19:49Z</time>
      </trkpt>
      <trkpt lat="42.99779" lon="0.21426">
        <ele>865.29</ele>
        <time>2017-03-21T13:19:57Z</time>
      </trkpt>
      <trkpt lat="42.99784" lon="0.21415">
        <ele>863.93</ele>
        <time>2017-03-21T13:20:05Z</time>
      </trkpt>
      <trkpt lat="42.99788" lon="0.21404">
        <ele>862.96</ele>
        <time>2017-03-21T13:20:13Z</time>
      </trkpt>
      <trkpt lat="42.99794" lon="0.21395">
        <ele>861.95</ele>
        <time>2017-03-21T13:20:21Z</time>
      </trkpt>
      <trkpt lat="42.99801" lon="0.21388">
        <ele>860.35</ele>
        <time>2017-03-21T13:20:31Z</time>
      </trkpt>
      <trkpt lat="42.99804" lon="0.21377">
        <ele>858.54</ele>
        <time>2017-03-21T13:20:43Z</time>
      </trkpt>
      <trkpt lat="42.99803" lon="0.21363">
        <ele>856.47</ele>
        <time>2017-03-21T13:20:52Z</time>
      </trkpt>
      <trkpt lat="42.99803" lon="0.2135">
        <ele>855.28</ele>
        <time>2017-03-21T13:21:02Z</time>
      </trkpt>
      <trkpt lat="42.99809" lon="0.21341">
        <ele>853.82</ele>
        <time>2017-03-21T13:21:13Z</time>
      </trkpt>
      <trkpt lat="42.99815" lon="0.21333">
        <ele>850.37</ele>
        <time>2017-03-21T13:21:24Z</time>
      </trkpt>
      <trkpt lat="42.99823" lon="0.21325">
        <ele>846.48</ele>
        <time>2017-03-21T13:21:39Z</time>
      </trkpt>
      <trkpt lat="42.99833" lon="0.21315">
        <ele>843.98</ele>
        <time>2017-03-21T13:21:50Z</time>
      </trkpt>
      <trkpt lat="42.99842" lon="0.21308">
        <ele>843.95</ele>
        <time>2017-03-21T13:22:00Z</time>
      </trkpt>
      <trkpt lat="42.9985" lon="0.21294">
        <ele>841.74</ele>
        <time>2017-03-21T13:22:09Z</time>
      </trkpt>
      <trkpt lat="42.99849" lon="0.21278">
        <ele>842.09</ele>
        <time>2017-03-21T13:22:17Z</time>
      </trkpt>
      <trkpt lat="42.99844" lon="0.21267">
        <ele>840.7</ele>
        <time>2017-03-21T13:22:26Z</time>
      </trkpt>
      <trkpt lat="42.99834" lon="0.21256">
        <ele>839.88</ele>
        <time>2017-03-21T13:22:36Z</time>
      </trkpt>
      <trkpt lat="42.99829" lon="0.21244">
        <ele>838.11</ele>
        <time>2017-03-21T13:22:47Z</time>
      </trkpt>
      <trkpt lat="42.99826" lon="0.21231">
        <ele>835.98</ele>
        <time>2017-03-21T13:22:59Z</time>
      </trkpt>
      <trkpt lat="42.99823" lon="0.21218">
        <ele>834.14</ele>
        <time>2017-03-21T13:23:09Z</time>
      </trkpt>
      <trkpt lat="42.99823" lon="0.21204">
        <ele>832.37</ele>
        <time>2017-03-21T13:23:22Z</time>
      </trkpt>
      <trkpt lat="42.99827" lon="0.21191">
        <ele>831.84</ele>
        <time>2017-03-21T13:23:31Z</time>
      </trkpt>
      <trkpt lat="42.99833" lon="0.21179">
        <ele>828.66</ele>
        <time>2017-03-21T13:23:40Z</time>
      </trkpt>
      <trkpt lat="42.9984" lon="0.21169">
        <ele>827.9</ele>
        <time>2017-03-21T13:23:49Z</time>
      </trkpt>
      <trkpt lat="42.99845" lon="0.21157">
        <ele>826.19</ele>
        <time>2017-03-21T13:23:58Z</time>
      </trkpt>
      <trkpt lat="42.99849" lon="0.21144">
        <ele>824.39</ele>
        <time>2017-03-21T13:24:07Z</time>
      </trkpt>
      <trkpt lat="42.99853" lon="0.21131">
        <ele>823.37</ele>
        <time>2017-03-21T13:24:16Z</time>
      </trkpt>
      <trkpt lat="42.99857" lon="0.21119">
        <ele>821.88</ele>
        <time>2017-03-21T13:24:26Z</time>
      </trkpt>
      <trkpt lat="42.99864" lon="0.21107">
        <ele>821.3</ele>
        <time>2017-03-21T13:24:35Z</time>
      </trkpt>
      <trkpt lat="42.99869" lon="0.21092">
        <ele>820.4</ele>
        <time>2017-03-21T13:24:45Z</time>
      </trkpt>
      <trkpt lat="42.99874" lon="0.2108">
        <ele>819.12</ele>
        <time>2017-03-21T13:24:58Z</time>
      </trkpt>
      <trkpt lat="42.99878" lon="0.21065">
        <ele>817.51</ele>
        <time>2017-03-21T13:25:12Z</time>
      </trkpt>
      <trkpt lat="42.99883" lon="0.2105">
        <ele>815.67</ele>
        <time>2017-03-21T13:25:25Z</time>
      </trkpt>
      <trkpt lat="42.99887" lon="0.21035">
        <ele>814.94</ele>
        <time>2017-03-21T13:25:36Z</time>
      </trkpt>
      <trkpt lat="42.99894" lon="0.21021">
        <ele>812.48</ele>
        <time>2017-03-21T13:25:54Z</time>
      </trkpt>
      <trkpt lat="42.99898" lon="0.21007">
        <ele>808.55</ele>
        <time>2017-03-21T13:26:07Z</time>
      </trkpt>
      <trkpt lat="42.99901" lon="0.20994">
        <ele>806.48</ele>
        <time>2017-03-21T13:26:27Z</time>
      </trkpt>
      <trkpt lat="42.999" lon="0.20982">
        <ele>801.7</ele>
        <time>2017-03-21T13:26:48Z</time>
      </trkpt>
      <trkpt lat="42.99899" lon="0.20969">
        <ele>798.91</ele>
        <time>2017-03-21T13:27:12Z</time>
      </trkpt>
      <trkpt lat="42.99898" lon="0.20954">
        <ele>794.33</ele>
        <time>2017-03-21T13:27:34Z</time>
      </trkpt>
      <trkpt lat="42.99893" lon="0.20949">
        <ele>791</ele>
        <time>2017-03-21T13:28:00Z</time>
      </trkpt>
      <trkpt lat="42.99892" lon="0.2094">
        <ele>786.24</ele>
        <time>2017-03-21T13:28:24Z</time>
      </trkpt>
      <trkpt lat="42.99891" lon="0.2093">
        <ele>784.46</ele>
        <time>2017-03-21T13:28:45Z</time>
      </trkpt>
      <trkpt lat="42.99881" lon="0.20923">
        <ele>780.45</ele>
        <time>2017-03-21T13:29:01Z</time>
      </trkpt>
      <trkpt lat="42.99884" lon="0.20912">
        <ele>777.9</ele>
        <time>2017-03-21T13:29:26Z</time>
      </trkpt>
      <trkpt lat="42.99884" lon="0.20905">
        <ele>774.08</ele>
        <time>2017-03-21T13:29:50Z</time>
      </trkpt>
      <trkpt lat="42.99879" lon="0.20899">
        <ele>769.84</ele>
        <time>2017-03-21T13:30:10Z</time>
      </trkpt>
      <trkpt lat="42.99876" lon="0.20893">
        <ele>767.66</ele>
        <time>2017-03-21T13:30:30Z</time>
      </trkpt>
      <trkpt lat="42.99872" lon="0.20893">
        <ele>768.12</ele>
        <time>2017-03-21T13:31:13Z</time>
      </trkpt>
      <trkpt lat="42.99869" lon="0.20898">
        <ele>768.73</ele>
        <time>2017-03-21T13:31:56Z</time>
      </trkpt>
      <trkpt lat="42.9987" lon="0.20889">
        <ele>767.18</ele>
        <time>2017-03-21T13:32:33Z</time>
      </trkpt>
      <trkpt lat="42.99876" lon="0.20886">
        <ele>767.24</ele>
        <time>2017-03-21T13:33:13Z</time>
      </trkpt>
      <trkpt lat="42.99873" lon="0.20886">
        <ele>766.9</ele>
        <time>2017-03-21T13:33:49Z</time>
      </trkpt>
      <trkpt lat="42.99874" lon="0.20886">
        <ele>767.28</ele>
        <time>2017-03-21T13:34:30Z</time>
      </trkpt>
      <trkpt lat="42.99882" lon="0.20877">
        <ele>767.24</ele>
        <time>2017-03-21T13:34:48Z</time>
      </trkpt>
      <trkpt lat="42.99889" lon="0.20867">
        <ele>768.07</ele>
        <time>2017-03-21T13:35:00Z</time>
      </trkpt>
      <trkpt lat="42.99895" lon="0.20855">
        <ele>769.42</ele>
        <time>2017-03-21T13:35:13Z</time>
      </trkpt>
      <trkpt lat="42.99903" lon="0.20846">
        <ele>770.55</ele>
        <time>2017-03-21T13:35:27Z</time>
      </trkpt>
      <trkpt lat="42.9991" lon="0.20839">
        <ele>772.2</ele>
        <time>2017-03-21T13:35:40Z</time>
      </trkpt>
      <trkpt lat="42.99917" lon="0.20829">
        <ele>773.25</ele>
        <time>2017-03-21T13:36:09Z</time>
      </trkpt>
      <trkpt lat="42.99925" lon="0.2082">
        <ele>774.57</ele>
        <time>2017-03-21T13:36:22Z</time>
      </trkpt>
      <trkpt lat="42.9993" lon="0.20813">
        <ele>773.91</ele>
        <time>2017-03-21T13:37:08Z</time>
      </trkpt>
      <trkpt lat="42.99937" lon="0.20803">
        <ele>777.51</ele>
        <time>2017-03-21T13:37:20Z</time>
      </trkpt>
      <trkpt lat="42.99944" lon="0.20794">
        <ele>779.89</ele>
        <time>2017-03-21T13:37:32Z</time>
      </trkpt>
      <trkpt lat="42.99954" lon="0.20782">
        <ele>780.21</ele>
        <time>2017-03-21T13:37:47Z</time>
      </trkpt>
      <trkpt lat="42.99961" lon="0.20768">
        <ele>782.71</ele>
        <time>2017-03-21T13:38:02Z</time>
      </trkpt>
      <trkpt lat="42.99967" lon="0.20756">
        <ele>785.65</ele>
        <time>2017-03-21T13:38:15Z</time>
      </trkpt>
      <trkpt lat="42.99976" lon="0.20749">
        <ele>787.4</ele>
        <time>2017-03-21T13:38:29Z</time>
      </trkpt>
      <trkpt lat="42.99986" lon="0.20743">
        <ele>789.32</ele>
        <time>2017-03-21T13:38:45Z</time>
      </trkpt>
      <trkpt lat="42.99996" lon="0.20738">
        <ele>792.26</ele>
        <time>2017-03-21T13:39:03Z</time>
      </trkpt>
      <trkpt lat="43.00006" lon="0.20731">
        <ele>796.85</ele>
        <time>2017-03-21T13:39:20Z</time>
      </trkpt>
      <trkpt lat="43.00014" lon="0.2072">
        <ele>800.65</ele>
        <time>2017-03-21T13:39:37Z</time>
      </trkpt>
      <trkpt lat="43.00022" lon="0.20708">
        <ele>802.92</ele>
        <time>2017-03-21T13:39:53Z</time>
      </trkpt>
      <trkpt lat="43.0003" lon="0.20705">
        <ele>803.28</ele>
        <time>2017-03-21T13:40:08Z</time>
      </trkpt>
      <trkpt lat="43.00038" lon="0.20704">
        <ele>805.41</ele>
        <time>2017-03-21T13:40:25Z</time>
      </trkpt>
      <trkpt lat="43.00048" lon="0.20707">
        <ele>810.38</ele>
        <time>2017-03-21T13:40:45Z</time>
      </trkpt>
      <trkpt lat="43.00058" lon="0.20704">
        <ele>812.95</ele>
        <time>2017-03-21T13:41:02Z</time>
      </trkpt>
      <trkpt lat="43.00066" lon="0.20701">
        <ele>817.02</ele>
        <time>2017-03-21T13:41:28Z</time>
      </trkpt>
      <trkpt lat="43.00076" lon="0.207">
        <ele>820.85</ele>
        <time>2017-03-21T13:41:53Z</time>
      </trkpt>
      <trkpt lat="43.00084" lon="0.20698">
        <ele>822.11</ele>
        <time>2017-03-21T13:42:14Z</time>
      </trkpt>
      <trkpt lat="43.00094" lon="0.20697">
        <ele>826.62</ele>
        <time>2017-03-21T13:42:35Z</time>
      </trkpt>
      <trkpt lat="43.00104" lon="0.20695">
        <ele>832.48</ele>
        <time>2017-03-21T13:42:59Z</time>
      </trkpt>
      <trkpt lat="43.00114" lon="0.20694">
        <ele>835.12</ele>
        <time>2017-03-21T13:43:25Z</time>
      </trkpt>
      <trkpt lat="43.00125" lon="0.20692">
        <ele>838.14</ele>
        <time>2017-03-21T13:43:47Z</time>
      </trkpt>
      <trkpt lat="43.00136" lon="0.20691">
        <ele>842.68</ele>
        <time>2017-03-21T13:44:07Z</time>
      </trkpt>
      <trkpt lat="43.00145" lon="0.20682">
        <ele>843.05</ele>
        <time>2017-03-21T13:44:28Z</time>
      </trkpt>
      <trkpt lat="43.00154" lon="0.20675">
        <ele>847.99</ele>
        <time>2017-03-21T13:44:44Z</time>
      </trkpt>
      <trkpt lat="43.00162" lon="0.20666">
        <ele>850.49</ele>
        <time>2017-03-21T13:45:00Z</time>
      </trkpt>
      <trkpt lat="43.0017" lon="0.20657">
        <ele>850.61</ele>
        <time>2017-03-21T13:45:17Z</time>
      </trkpt>
      <trkpt lat="43.00181" lon="0.20652">
        <ele>853.66</ele>
        <time>2017-03-21T13:45:37Z</time>
      </trkpt>
      <trkpt lat="43.00189" lon="0.20643">
        <ele>855.23</ele>
        <time>2017-03-21T13:45:54Z</time>
      </trkpt>
      <trkpt lat="43.00197" lon="0.20637">
        <ele>859.2</ele>
        <time>2017-03-21T13:46:11Z</time>
      </trkpt>
      <trkpt lat="43.00207" lon="0.2063">
        <ele>861.23</ele>
        <time>2017-03-21T13:46:29Z</time>
      </trkpt>
      <trkpt lat="43.00216" lon="0.20622">
        <ele>863.18</ele>
        <time>2017-03-21T13:46:47Z</time>
      </trkpt>
      <trkpt lat="43.00224" lon="0.20615">
        <ele>866.91</ele>
        <time>2017-03-21T13:47:07Z</time>
      </trkpt>
      <trkpt lat="43.00234" lon="0.20612">
        <ele>868.81</ele>
        <time>2017-03-21T13:47:28Z</time>
      </trkpt>
      <trkpt lat="43.00245" lon="0.20606">
        <ele>872.2</ele>
        <time>2017-03-21T13:47:49Z</time>
      </trkpt>
      <trkpt lat="43.00255" lon="0.20599">
        <ele>873</ele>
        <time>2017-03-21T13:48:10Z</time>
      </trkpt>
      <trkpt lat="43.00263" lon="0.20592">
        <ele>875.82</ele>
        <time>2017-03-21T13:48:34Z</time>
      </trkpt>
      <trkpt lat="43.0027" lon="0.20587">
        <ele>880.56</ele>
        <time>2017-03-21T13:51:39Z</time>
      </trkpt>
      <trkpt lat="43.00275" lon="0.20575">
        <ele>880.42</ele>
        <time>2017-03-21T13:51:56Z</time>
      </trkpt>
      <trkpt lat="43.00279" lon="0.20564">
        <ele>882.76</ele>
        <time>2017-03-21T13:52:13Z</time>
      </trkpt>
      <trkpt lat="43.00282" lon="0.20552">
        <ele>886.41</ele>
        <time>2017-03-21T13:52:30Z</time>
      </trkpt>
      <trkpt lat="43.00286" lon="0.20541">
        <ele>887.72</ele>
        <time>2017-03-21T13:52:47Z</time>
      </trkpt>
      <trkpt lat="43.00289" lon="0.20527">
        <ele>888.94</ele>
        <time>2017-03-21T13:53:02Z</time>
      </trkpt>
      <trkpt lat="43.00291" lon="0.20514">
        <ele>891.85</ele>
        <time>2017-03-21T13:53:18Z</time>
      </trkpt>
      <trkpt lat="43.00295" lon="0.20501">
        <ele>892.81</ele>
        <time>2017-03-21T13:53:32Z</time>
      </trkpt>
      <trkpt lat="43.00298" lon="0.20489">
        <ele>893.66</ele>
        <time>2017-03-21T13:53:44Z</time>
      </trkpt>
      <trkpt lat="43.00303" lon="0.20478">
        <ele>894.3</ele>
        <time>2017-03-21T13:53:57Z</time>
      </trkpt>
      <trkpt lat="43.00309" lon="0.20468">
        <ele>894.62</ele>
        <time>2017-03-21T13:54:12Z</time>
      </trkpt>
      <trkpt lat="43.00313" lon="0.20458">
        <ele>894.69</ele>
        <time>2017-03-21T13:59:26Z</time>
      </trkpt>
      <trkpt lat="43.00321" lon="0.2045">
        <ele>893.49</ele>
        <time>2017-03-21T13:59:40Z</time>
      </trkpt>
      <trkpt lat="43.00329" lon="0.20445">
        <ele>894</ele>
        <time>2017-03-21T13:59:50Z</time>
      </trkpt>
      <trkpt lat="43.00339" lon="0.20439">
        <ele>895.43</ele>
        <time>2017-03-21T14:00:17Z</time>
      </trkpt>
      <trkpt lat="43.00349" lon="0.20439">
        <ele>898.03</ele>
        <time>2017-03-21T14:00:30Z</time>
      </trkpt>
      <trkpt lat="43.00357" lon="0.20439">
        <ele>895.8</ele>
        <time>2017-03-21T14:00:43Z</time>
      </trkpt>
      <trkpt lat="43.00367" lon="0.20434">
        <ele>894.51</ele>
        <time>2017-03-21T14:00:55Z</time>
      </trkpt>
      <trkpt lat="43.00375" lon="0.20426">
        <ele>894</ele>
        <time>2017-03-21T14:01:31Z</time>
      </trkpt>
      <trkpt lat="43.00385" lon="0.20422">
        <ele>893.58</ele>
        <time>2017-03-21T14:01:46Z</time>
      </trkpt>
      <trkpt lat="43.00396" lon="0.20418">
        <ele>891.73</ele>
        <time>2017-03-21T14:01:58Z</time>
      </trkpt>
      <trkpt lat="43.00404" lon="0.20412">
        <ele>890.73</ele>
        <time>2017-03-21T14:02:11Z</time>
      </trkpt>
      <trkpt lat="43.00411" lon="0.20418">
        <ele>893.58</ele>
        <time>2017-03-21T14:02:22Z</time>
      </trkpt>
      <trkpt lat="43.00418" lon="0.20424">
        <ele>893.45</ele>
        <time>2017-03-21T14:02:41Z</time>
      </trkpt>
      <trkpt lat="43.00426" lon="0.20432">
        <ele>893.93</ele>
        <time>2017-03-21T14:03:00Z</time>
      </trkpt>
      <trkpt lat="43.00436" lon="0.20436">
        <ele>892.43</ele>
        <time>2017-03-21T14:03:15Z</time>
      </trkpt>
      <trkpt lat="43.00446" lon="0.20438">
        <ele>891.32</ele>
        <time>2017-03-21T14:03:25Z</time>
      </trkpt>
      <trkpt lat="43.00456" lon="0.20441">
        <ele>892.29</ele>
        <time>2017-03-21T14:03:37Z</time>
      </trkpt>
      <trkpt lat="43.00464" lon="0.20437">
        <ele>891.83</ele>
        <time>2017-03-21T14:03:57Z</time>
      </trkpt>
      <trkpt lat="43.00474" lon="0.20434">
        <ele>889.86</ele>
        <time>2017-03-21T14:04:11Z</time>
      </trkpt>
      <trkpt lat="43.00484" lon="0.2043">
        <ele>887.52</ele>
        <time>2017-03-21T14:04:27Z</time>
      </trkpt>
      <trkpt lat="43.00494" lon="0.20429">
        <ele>885.99</ele>
        <time>2017-03-21T14:04:42Z</time>
      </trkpt>
      <trkpt lat="43.00502" lon="0.20435">
        <ele>886.13</ele>
        <time>2017-03-21T14:04:59Z</time>
      </trkpt>
      <trkpt lat="43.00511" lon="0.20436">
        <ele>890.9</ele>
        <time>2017-03-21T14:05:17Z</time>
      </trkpt>
      <trkpt lat="43.00521" lon="0.20444">
        <ele>894.53</ele>
        <time>2017-03-21T14:05:40Z</time>
      </trkpt>
      <trkpt lat="43.00534" lon="0.20446">
        <ele>893.95</ele>
        <time>2017-03-21T14:05:50Z</time>
      </trkpt>
      <trkpt lat="43.00545" lon="0.20449">
        <ele>894.63</ele>
        <time>2017-03-21T14:06:00Z</time>
      </trkpt>
      <trkpt lat="43.00555" lon="0.2045">
        <ele>893.61</ele>
        <time>2017-03-21T14:06:12Z</time>
      </trkpt>
      <trkpt lat="43.00566" lon="0.20447">
        <ele>889.85</ele>
        <time>2017-03-21T14:06:32Z</time>
      </trkpt>
      <trkpt lat="43.00572" lon="0.20439">
        <ele>886.73</ele>
        <time>2017-03-21T14:06:56Z</time>
      </trkpt>
      <trkpt lat="43.00567" lon="0.20426">
        <ele>886.86</ele>
        <time>2017-03-21T14:07:13Z</time>
      </trkpt>
      <trkpt lat="43.00561" lon="0.20419">
        <ele>890.94</ele>
        <time>2017-03-21T14:07:32Z</time>
      </trkpt>
      <trkpt lat="43.00555" lon="0.20404">
        <ele>891.78</ele>
        <time>2017-03-21T14:07:48Z</time>
      </trkpt>
      <trkpt lat="43.00552" lon="0.20389">
        <ele>892.62</ele>
        <time>2017-03-21T14:08:05Z</time>
      </trkpt>
      <trkpt lat="43.0055" lon="0.20374">
        <ele>895.81</ele>
        <time>2017-03-21T14:08:22Z</time>
      </trkpt>
      <trkpt lat="43.00549" lon="0.20361">
        <ele>897.22</ele>
        <time>2017-03-21T14:08:39Z</time>
      </trkpt>
      <trkpt lat="43.00546" lon="0.20347">
        <ele>899.86</ele>
        <time>2017-03-21T14:08:55Z</time>
      </trkpt>
      <trkpt lat="43.00546" lon="0.20333">
        <ele>902.55</ele>
        <time>2017-03-21T14:09:10Z</time>
      </trkpt>
      <trkpt lat="43.00546" lon="0.20321">
        <ele>901.27</ele>
        <time>2017-03-21T14:09:26Z</time>
      </trkpt>
      <trkpt lat="43.00548" lon="0.20307">
        <ele>907.18</ele>
        <time>2017-03-21T14:09:45Z</time>
      </trkpt>
      <trkpt lat="43.0055" lon="0.20293">
        <ele>912.83</ele>
        <time>2017-03-21T14:10:05Z</time>
      </trkpt>
      <trkpt lat="43.00553" lon="0.20281">
        <ele>917.02</ele>
        <time>2017-03-21T14:10:30Z</time>
      </trkpt>
      <trkpt lat="43.0056" lon="0.20277">
        <ele>918.61</ele>
        <time>2017-03-21T14:10:55Z</time>
      </trkpt>
      <trkpt lat="43.00565" lon="0.20269">
        <ele>919.62</ele>
        <time>2017-03-21T14:11:19Z</time>
      </trkpt>
      <trkpt lat="43.00577" lon="0.20264">
        <ele>921.56</ele>
        <time>2017-03-21T14:14:10Z</time>
      </trkpt>
      <trkpt lat="43.00576" lon="0.20271">
        <ele>921.75</ele>
        <time>2017-03-21T14:15:16Z</time>
      </trkpt>
      <trkpt lat="43.00573" lon="0.20266">
        <ele>921.39</ele>
        <time>2017-03-21T14:16:16Z</time>
      </trkpt>
      <trkpt lat="43.00576" lon="0.20263">
        <ele>920.08</ele>
        <time>2017-03-21T14:18:38Z</time>
      </trkpt>
      <trkpt lat="43.00584" lon="0.20261">
        <ele>920.64</ele>
        <time>2017-03-21T14:18:49Z</time>
      </trkpt>
      <trkpt lat="43.00595" lon="0.20261">
        <ele>920.66</ele>
        <time>2017-03-21T14:19:01Z</time>
      </trkpt>
      <trkpt lat="43.00603" lon="0.20261">
        <ele>921.54</ele>
        <time>2017-03-21T14:19:15Z</time>
      </trkpt>
      <trkpt lat="43.00614" lon="0.20257">
        <ele>921.39</ele>
        <time>2017-03-21T14:19:32Z</time>
      </trkpt>
      <trkpt lat="43.00624" lon="0.20255">
        <ele>923.09</ele>
        <time>2017-03-21T14:19:46Z</time>
      </trkpt>
      <trkpt lat="43.00633" lon="0.20252">
        <ele>922.65</ele>
        <time>2017-03-21T14:19:58Z</time>
      </trkpt>
      <trkpt lat="43.00641" lon="0.20243">
        <ele>921.37</ele>
        <time>2017-03-21T14:20:14Z</time>
      </trkpt>
      <trkpt lat="43.00654" lon="0.20232">
        <ele>919.38</ele>
        <time>2017-03-21T14:20:31Z</time>
      </trkpt>
      <trkpt lat="43.00661" lon="0.20225">
        <ele>916.4</ele>
        <time>2017-03-21T14:20:58Z</time>
      </trkpt>
      <trkpt lat="43.00664" lon="0.20212">
        <ele>912.37</ele>
        <time>2017-03-21T14:21:18Z</time>
      </trkpt>
      <trkpt lat="43.00673" lon="0.20203">
        <ele>911.21</ele>
        <time>2017-03-21T14:21:45Z</time>
      </trkpt>
      <trkpt lat="43.00673" lon="0.20191">
        <ele>909.8</ele>
        <time>2017-03-21T14:22:04Z</time>
      </trkpt>
      <trkpt lat="43.00671" lon="0.20177">
        <ele>909.2</ele>
        <time>2017-03-21T14:22:16Z</time>
      </trkpt>
      <trkpt lat="43.00667" lon="0.20166">
        <ele>906.67</ele>
        <time>2017-03-21T14:22:29Z</time>
      </trkpt>
      <trkpt lat="43.00661" lon="0.20155">
        <ele>905.54</ele>
        <time>2017-03-21T14:22:42Z</time>
      </trkpt>
      <trkpt lat="43.0066" lon="0.20141">
        <ele>905.48</ele>
        <time>2017-03-21T14:22:53Z</time>
      </trkpt>
      <trkpt lat="43.00659" lon="0.20125">
        <ele>906</ele>
        <time>2017-03-21T14:23:07Z</time>
      </trkpt>
      <trkpt lat="43.00655" lon="0.2011">
        <ele>905.35</ele>
        <time>2017-03-21T14:23:20Z</time>
      </trkpt>
      <trkpt lat="43.00652" lon="0.20094">
        <ele>905.45</ele>
        <time>2017-03-21T14:23:33Z</time>
      </trkpt>
      <trkpt lat="43.00647" lon="0.20077">
        <ele>907.84</ele>
        <time>2017-03-21T14:23:48Z</time>
      </trkpt>
      <trkpt lat="43.00647" lon="0.20059">
        <ele>908.45</ele>
        <time>2017-03-21T14:24:01Z</time>
      </trkpt>
      <trkpt lat="43.0065" lon="0.20045">
        <ele>906.92</ele>
        <time>2017-03-21T14:24:10Z</time>
      </trkpt>
      <trkpt lat="43.00655" lon="0.20034">
        <ele>909.71</ele>
        <time>2017-03-21T14:24:20Z</time>
      </trkpt>
      <trkpt lat="43.0066" lon="0.20023">
        <ele>909.39</ele>
        <time>2017-03-21T14:24:33Z</time>
      </trkpt>
      <trkpt lat="43.00669" lon="0.20011">
        <ele>909.54</ele>
        <time>2017-03-21T14:24:46Z</time>
      </trkpt>
      <trkpt lat="43.00679" lon="0.20004">
        <ele>907.19</ele>
        <time>2017-03-21T14:25:01Z</time>
      </trkpt>
      <trkpt lat="43.0069" lon="0.19998">
        <ele>904.96</ele>
        <time>2017-03-21T14:25:13Z</time>
      </trkpt>
      <trkpt lat="43.00701" lon="0.19993">
        <ele>904.37</ele>
        <time>2017-03-21T14:25:23Z</time>
      </trkpt>
      <trkpt lat="43.00712" lon="0.19991">
        <ele>904.31</ele>
        <time>2017-03-21T14:25:36Z</time>
      </trkpt>
      <trkpt lat="43.00724" lon="0.19988">
        <ele>904.42</ele>
        <time>2017-03-21T14:25:48Z</time>
      </trkpt>
      <trkpt lat="43.00736" lon="0.19984">
        <ele>903.1</ele>
        <time>2017-03-21T14:25:59Z</time>
      </trkpt>
      <trkpt lat="43.00749" lon="0.1998">
        <ele>901.82</ele>
        <time>2017-03-21T14:26:10Z</time>
      </trkpt>
      <trkpt lat="43.00758" lon="0.1998">
        <ele>902.8</ele>
        <time>2017-03-21T14:26:21Z</time>
      </trkpt>
      <trkpt lat="43.00768" lon="0.1998">
        <ele>901.82</ele>
        <time>2017-03-21T14:26:39Z</time>
      </trkpt>
      <trkpt lat="43.0078" lon="0.1997">
        <ele>902.26</ele>
        <time>2017-03-21T14:26:57Z</time>
      </trkpt>
      <trkpt lat="43.00793" lon="0.19962">
        <ele>902.14</ele>
        <time>2017-03-21T14:27:11Z</time>
      </trkpt>
      <trkpt lat="43.00803" lon="0.19957">
        <ele>902.08</ele>
        <time>2017-03-21T14:27:24Z</time>
      </trkpt>
      <trkpt lat="43.00809" lon="0.19948">
        <ele>899.02</ele>
        <time>2017-03-21T14:28:11Z</time>
      </trkpt>
      <trkpt lat="43.00803" lon="0.19936">
        <ele>900.54</ele>
        <time>2017-03-21T14:28:34Z</time>
      </trkpt>
      <trkpt lat="43.00798" lon="0.19923">
        <ele>899.25</ele>
        <time>2017-03-21T14:28:47Z</time>
      </trkpt>
      <trkpt lat="43.0079" lon="0.19909">
        <ele>898.09</ele>
        <time>2017-03-21T14:29:02Z</time>
      </trkpt>
      <trkpt lat="43.00785" lon="0.19895">
        <ele>896.35</ele>
        <time>2017-03-21T14:29:15Z</time>
      </trkpt>
      <trkpt lat="43.0078" lon="0.19879">
        <ele>895.71</ele>
        <time>2017-03-21T14:29:27Z</time>
      </trkpt>
      <trkpt lat="43.00775" lon="0.19865">
        <ele>896</ele>
        <time>2017-03-21T14:29:37Z</time>
      </trkpt>
      <trkpt lat="43.00773" lon="0.19846">
        <ele>896.94</ele>
        <time>2017-03-21T14:29:48Z</time>
      </trkpt>
      <trkpt lat="43.00774" lon="0.19832">
        <ele>899</ele>
        <time>2017-03-21T14:30:02Z</time>
      </trkpt>
      <trkpt lat="43.00774" lon="0.19817">
        <ele>898.87</ele>
        <time>2017-03-21T14:30:12Z</time>
      </trkpt>
      <trkpt lat="43.00776" lon="0.19804">
        <ele>898.71</ele>
        <time>2017-03-21T14:30:22Z</time>
      </trkpt>
      <trkpt lat="43.00778" lon="0.19791">
        <ele>898.03</ele>
        <time>2017-03-21T14:30:33Z</time>
      </trkpt>
      <trkpt lat="43.00782" lon="0.19779">
        <ele>899.68</ele>
        <time>2017-03-21T14:30:45Z</time>
      </trkpt>
      <trkpt lat="43.00786" lon="0.19767">
        <ele>899.34</ele>
        <time>2017-03-21T14:30:56Z</time>
      </trkpt>
      <trkpt lat="43.00793" lon="0.19758">
        <ele>899.13</ele>
        <time>2017-03-21T14:31:06Z</time>
      </trkpt>
      <trkpt lat="43.008" lon="0.19749">
        <ele>900.97</ele>
        <time>2017-03-21T14:31:22Z</time>
      </trkpt>
      <trkpt lat="43.00806" lon="0.19739">
        <ele>901.29</ele>
        <time>2017-03-21T14:31:33Z</time>
      </trkpt>
      <trkpt lat="43.00811" lon="0.19728">
        <ele>899.95</ele>
        <time>2017-03-21T14:31:43Z</time>
      </trkpt>
      <trkpt lat="43.00818" lon="0.19718">
        <ele>899.01</ele>
        <time>2017-03-21T14:31:57Z</time>
      </trkpt>
      <trkpt lat="43.00824" lon="0.19706">
        <ele>896.31</ele>
        <time>2017-03-21T14:32:09Z</time>
      </trkpt>
      <trkpt lat="43.0083" lon="0.19696">
        <ele>894.51</ele>
        <time>2017-03-21T14:32:21Z</time>
      </trkpt>
      <trkpt lat="43.00836" lon="0.19687">
        <ele>893.09</ele>
        <time>2017-03-21T14:32:35Z</time>
      </trkpt>
      <trkpt lat="43.00842" lon="0.19675">
        <ele>889.91</ele>
        <time>2017-03-21T14:32:53Z</time>
      </trkpt>
      <trkpt lat="43.00849" lon="0.19665">
        <ele>888.13</ele>
        <time>2017-03-21T14:33:03Z</time>
      </trkpt>
      <trkpt lat="43.00859" lon="0.1966">
        <ele>886.53</ele>
        <time>2017-03-21T14:33:13Z</time>
      </trkpt>
      <trkpt lat="43.00868" lon="0.19653">
        <ele>886.68</ele>
        <time>2017-03-21T14:33:23Z</time>
      </trkpt>
      <trkpt lat="43.00879" lon="0.19647">
        <ele>886</ele>
        <time>2017-03-21T14:33:33Z</time>
      </trkpt>
      <trkpt lat="43.0089" lon="0.19645">
        <ele>884.9</ele>
        <time>2017-03-21T14:33:44Z</time>
      </trkpt>
      <trkpt lat="43.009" lon="0.19645">
        <ele>883.83</ele>
        <time>2017-03-21T14:33:56Z</time>
      </trkpt>
      <trkpt lat="43.00905" lon="0.19633">
        <ele>881.91</ele>
        <time>2017-03-21T14:34:19Z</time>
      </trkpt>
      <trkpt lat="43.00904" lon="0.19616">
        <ele>881.67</ele>
        <time>2017-03-21T14:34:33Z</time>
      </trkpt>
      <trkpt lat="43.00905" lon="0.19601">
        <ele>880.86</ele>
        <time>2017-03-21T14:34:44Z</time>
      </trkpt>
      <trkpt lat="43.00904" lon="0.19587">
        <ele>880.64</ele>
        <time>2017-03-21T14:34:56Z</time>
      </trkpt>
      <trkpt lat="43.00904" lon="0.19571">
        <ele>880.88</ele>
        <time>2017-03-21T14:35:08Z</time>
      </trkpt>
      <trkpt lat="43.00905" lon="0.19556">
        <ele>879.7</ele>
        <time>2017-03-21T14:35:20Z</time>
      </trkpt>
      <trkpt lat="43.00908" lon="0.19541">
        <ele>878.89</ele>
        <time>2017-03-21T14:35:31Z</time>
      </trkpt>
      <trkpt lat="43.00911" lon="0.19527">
        <ele>877.54</ele>
        <time>2017-03-21T14:35:42Z</time>
      </trkpt>
      <trkpt lat="43.00916" lon="0.19513">
        <ele>876.04</ele>
        <time>2017-03-21T14:35:54Z</time>
      </trkpt>
      <trkpt lat="43.00922" lon="0.19498">
        <ele>874.65</ele>
        <time>2017-03-21T14:36:08Z</time>
      </trkpt>
      <trkpt lat="43.00926" lon="0.19482">
        <ele>872.05</ele>
        <time>2017-03-21T14:36:19Z</time>
      </trkpt>
      <trkpt lat="43.00932" lon="0.19469">
        <ele>870.31</ele>
        <time>2017-03-21T14:36:31Z</time>
      </trkpt>
      <trkpt lat="43.00938" lon="0.19459">
        <ele>867.05</ele>
        <time>2017-03-21T14:36:45Z</time>
      </trkpt>
      <trkpt lat="43.00941" lon="0.19448">
        <ele>865.95</ele>
        <time>2017-03-21T14:36:59Z</time>
      </trkpt>
      <trkpt lat="43.00944" lon="0.19436">
        <ele>864.35</ele>
        <time>2017-03-21T14:37:13Z</time>
      </trkpt>
      <trkpt lat="43.00948" lon="0.19425">
        <ele>861.14</ele>
        <time>2017-03-21T14:37:29Z</time>
      </trkpt>
      <trkpt lat="43.00951" lon="0.19414">
        <ele>860.41</ele>
        <time>2017-03-21T14:37:40Z</time>
      </trkpt>
      <trkpt lat="43.00957" lon="0.19403">
        <ele>858.46</ele>
        <time>2017-03-21T14:37:53Z</time>
      </trkpt>
      <trkpt lat="43.00961" lon="0.19391">
        <ele>856.97</ele>
        <time>2017-03-21T14:38:04Z</time>
      </trkpt>
      <trkpt lat="43.00965" lon="0.1938">
        <ele>854.76</ele>
        <time>2017-03-21T14:38:14Z</time>
      </trkpt>
      <trkpt lat="43.0097" lon="0.1937">
        <ele>852.71</ele>
        <time>2017-03-21T14:38:25Z</time>
      </trkpt>
      <trkpt lat="43.00974" lon="0.1936">
        <ele>850.18</ele>
        <time>2017-03-21T14:38:36Z</time>
      </trkpt>
      <trkpt lat="43.00978" lon="0.19348">
        <ele>848.11</ele>
        <time>2017-03-21T14:38:47Z</time>
      </trkpt>
      <trkpt lat="43.00983" lon="0.19338">
        <ele>846.54</ele>
        <time>2017-03-21T14:38:57Z</time>
      </trkpt>
      <trkpt lat="43.00985" lon="0.19327">
        <ele>844.72</ele>
        <time>2017-03-21T14:39:10Z</time>
      </trkpt>
      <trkpt lat="43.0099" lon="0.19317">
        <ele>842.65</ele>
        <time>2017-03-21T14:39:22Z</time>
      </trkpt>
      <trkpt lat="43.00994" lon="0.19305">
        <ele>840.75</ele>
        <time>2017-03-21T14:39:36Z</time>
      </trkpt>
      <trkpt lat="43.01" lon="0.19295">
        <ele>839.34</ele>
        <time>2017-03-21T14:39:44Z</time>
      </trkpt>
      <trkpt lat="43.01006" lon="0.19286">
        <ele>838.57</ele>
        <time>2017-03-21T14:39:52Z</time>
      </trkpt>
      <trkpt lat="43.01013" lon="0.19277">
        <ele>837.98</ele>
        <time>2017-03-21T14:40:00Z</time>
      </trkpt>
      <trkpt lat="43.01019" lon="0.19267">
        <ele>837.36</ele>
        <time>2017-03-21T14:40:08Z</time>
      </trkpt>
      <trkpt lat="43.01026" lon="0.19259">
        <ele>837.13</ele>
        <time>2017-03-21T14:40:16Z</time>
      </trkpt>
      <trkpt lat="43.01033" lon="0.19251">
        <ele>836.21</ele>
        <time>2017-03-21T14:40:24Z</time>
      </trkpt>
      <trkpt lat="43.0104" lon="0.19242">
        <ele>835.24</ele>
        <time>2017-03-21T14:40:32Z</time>
      </trkpt>
      <trkpt lat="43.01046" lon="0.19233">
        <ele>835.17</ele>
        <time>2017-03-21T14:40:41Z</time>
      </trkpt>
      <trkpt lat="43.01052" lon="0.19222">
        <ele>834.3</ele>
        <time>2017-03-21T14:40:50Z</time>
      </trkpt>
      <trkpt lat="43.01059" lon="0.19212">
        <ele>834.41</ele>
        <time>2017-03-21T14:40:59Z</time>
      </trkpt>
      <trkpt lat="43.01066" lon="0.19204">
        <ele>834.23</ele>
        <time>2017-03-21T14:41:07Z</time>
      </trkpt>
      <trkpt lat="43.01072" lon="0.19193">
        <ele>834.58</ele>
        <time>2017-03-21T14:41:15Z</time>
      </trkpt>
      <trkpt lat="43.01078" lon="0.19183">
        <ele>833.36</ele>
        <time>2017-03-21T14:41:23Z</time>
      </trkpt>
      <trkpt lat="43.01085" lon="0.19172">
        <ele>831.68</ele>
        <time>2017-03-21T14:41:32Z</time>
      </trkpt>
      <trkpt lat="43.01089" lon="0.19161">
        <ele>832.01</ele>
        <time>2017-03-21T14:41:41Z</time>
      </trkpt>
      <trkpt lat="43.01096" lon="0.19152">
        <ele>830.34</ele>
        <time>2017-03-21T14:41:51Z</time>
      </trkpt>
      <trkpt lat="43.01101" lon="0.19141">
        <ele>828.77</ele>
        <time>2017-03-21T14:42:00Z</time>
      </trkpt>
      <trkpt lat="43.01107" lon="0.19132">
        <ele>827.32</ele>
        <time>2017-03-21T14:42:09Z</time>
      </trkpt>
      <trkpt lat="43.01113" lon="0.19121">
        <ele>825.82</ele>
        <time>2017-03-21T14:42:20Z</time>
      </trkpt>
      <trkpt lat="43.01116" lon="0.19109">
        <ele>822.29</ele>
        <time>2017-03-21T14:42:30Z</time>
      </trkpt>
      <trkpt lat="43.01124" lon="0.19101">
        <ele>821.62</ele>
        <time>2017-03-21T14:42:39Z</time>
      </trkpt>
      <trkpt lat="43.01131" lon="0.19093">
        <ele>819.61</ele>
        <time>2017-03-21T14:42:49Z</time>
      </trkpt>
      <trkpt lat="43.01138" lon="0.19082">
        <ele>818.11</ele>
        <time>2017-03-21T14:43:00Z</time>
      </trkpt>
      <trkpt lat="43.01143" lon="0.1907">
        <ele>815.42</ele>
        <time>2017-03-21T14:43:12Z</time>
      </trkpt>
      <trkpt lat="43.01149" lon="0.1906">
        <ele>813.09</ele>
        <time>2017-03-21T14:43:22Z</time>
      </trkpt>
      <trkpt lat="43.01154" lon="0.19048">
        <ele>810.22</ele>
        <time>2017-03-21T14:43:33Z</time>
      </trkpt>
      <trkpt lat="43.0116" lon="0.19039">
        <ele>809.03</ele>
        <time>2017-03-21T14:43:43Z</time>
      </trkpt>
      <trkpt lat="43.01164" lon="0.19028">
        <ele>806.89</ele>
        <time>2017-03-21T14:43:53Z</time>
      </trkpt>
      <trkpt lat="43.01168" lon="0.19018">
        <ele>804.6</ele>
        <time>2017-03-21T14:44:03Z</time>
      </trkpt>
      <trkpt lat="43.01174" lon="0.19009">
        <ele>801.37</ele>
        <time>2017-03-21T14:44:13Z</time>
      </trkpt>
      <trkpt lat="43.01182" lon="0.19001">
        <ele>800.07</ele>
        <time>2017-03-21T14:44:24Z</time>
      </trkpt>
      <trkpt lat="43.01186" lon="0.18991">
        <ele>797.44</ele>
        <time>2017-03-21T14:44:36Z</time>
      </trkpt>
      <trkpt lat="43.01191" lon="0.18981">
        <ele>794.3</ele>
        <time>2017-03-21T14:44:49Z</time>
      </trkpt>
      <trkpt lat="43.01196" lon="0.18972">
        <ele>791.24</ele>
        <time>2017-03-21T14:45:05Z</time>
      </trkpt>
      <trkpt lat="43.01201" lon="0.18963">
        <ele>788.44</ele>
        <time>2017-03-21T14:45:23Z</time>
      </trkpt>
      <trkpt lat="43.01205" lon="0.1895">
        <ele>784.7</ele>
        <time>2017-03-21T14:45:43Z</time>
      </trkpt>
      <trkpt lat="43.01208" lon="0.18939">
        <ele>781.8</ele>
        <time>2017-03-21T14:46:00Z</time>
      </trkpt>
      <trkpt lat="43.01204" lon="0.18928">
        <ele>778.82</ele>
        <time>2017-03-21T14:46:38Z</time>
      </trkpt>
      <trkpt lat="43.01211" lon="0.18919">
        <ele>776.08</ele>
        <time>2017-03-21T14:46:53Z</time>
      </trkpt>
      <trkpt lat="43.01219" lon="0.18911">
        <ele>772.98</ele>
        <time>2017-03-21T14:47:09Z</time>
      </trkpt>
      <trkpt lat="43.0123" lon="0.18909">
        <ele>768.96</ele>
        <time>2017-03-21T14:47:40Z</time>
      </trkpt>
      <trkpt lat="43.01234" lon="0.18902">
        <ele>765.6</ele>
        <time>2017-03-21T14:48:00Z</time>
      </trkpt>
      <trkpt lat="43.01241" lon="0.18899">
        <ele>763.61</ele>
        <time>2017-03-21T14:48:39Z</time>
      </trkpt>
      <trkpt lat="43.0125" lon="0.189">
        <ele>759.24</ele>
        <time>2017-03-21T14:49:05Z</time>
      </trkpt>
      <trkpt lat="43.0126" lon="0.18902">
        <ele>755.41</ele>
        <time>2017-03-21T14:49:25Z</time>
      </trkpt>
      <trkpt lat="43.01266" lon="0.18895">
        <ele>754.32</ele>
        <time>2017-03-21T14:49:59Z</time>
      </trkpt>
      <trkpt lat="43.01274" lon="0.18896">
        <ele>751.03</ele>
        <time>2017-03-21T14:50:30Z</time>
      </trkpt>
      <trkpt lat="43.0128" lon="0.18887">
        <ele>747.45</ele>
        <time>2017-03-21T14:50:51Z</time>
      </trkpt>
      <trkpt lat="43.01288" lon="0.18877">
        <ele>743.78</ele>
        <time>2017-03-21T14:51:09Z</time>
      </trkpt>
      <trkpt lat="43.01285" lon="0.18863">
        <ele>745.58</ele>
        <time>2017-03-21T14:51:21Z</time>
      </trkpt>
      <trkpt lat="43.01282" lon="0.18849">
        <ele>744.98</ele>
        <time>2017-03-21T14:51:32Z</time>
      </trkpt>
      <trkpt lat="43.01277" lon="0.18837">
        <ele>745.92</ele>
        <time>2017-03-21T14:51:43Z</time>
      </trkpt>
      <trkpt lat="43.01272" lon="0.18825">
        <ele>745.79</ele>
        <time>2017-03-21T14:51:53Z</time>
      </trkpt>
      <trkpt lat="43.01267" lon="0.18812">
        <ele>745.32</ele>
        <time>2017-03-21T14:52:02Z</time>
      </trkpt>
      <trkpt lat="43.01263" lon="0.18799">
        <ele>745.99</ele>
        <time>2017-03-21T14:52:13Z</time>
      </trkpt>
      <trkpt lat="43.01259" lon="0.18784">
        <ele>745.42</ele>
        <time>2017-03-21T14:52:24Z</time>
      </trkpt>
      <trkpt lat="43.01262" lon="0.18771">
        <ele>745.51</ele>
        <time>2017-03-21T14:52:35Z</time>
      </trkpt>
      <trkpt lat="43.01268" lon="0.18757">
        <ele>746.59</ele>
        <time>2017-03-21T14:52:46Z</time>
      </trkpt>
      <trkpt lat="43.01266" lon="0.18742">
        <ele>746.33</ele>
        <time>2017-03-21T14:52:56Z</time>
      </trkpt>
      <trkpt lat="43.01267" lon="0.18736">
        <ele>741.78</ele>
        <time>2017-03-21T14:53:19Z</time>
      </trkpt>
      <trkpt lat="43.0127" lon="0.18728">
        <ele>745.99</ele>
        <time>2017-03-21T14:53:47Z</time>
      </trkpt>
      <trkpt lat="43.01267" lon="0.18716">
        <ele>745.49</ele>
        <time>2017-03-21T14:53:55Z</time>
      </trkpt>
      <trkpt lat="43.0127" lon="0.18704">
        <ele>745.37</ele>
        <time>2017-03-21T14:54:03Z</time>
      </trkpt>
      <trkpt lat="43.01272" lon="0.18692">
        <ele>743.55</ele>
        <time>2017-03-21T14:54:11Z</time>
      </trkpt>
      <trkpt lat="43.01274" lon="0.1868">
        <ele>742.76</ele>
        <time>2017-03-21T14:54:18Z</time>
      </trkpt>
      <trkpt lat="43.01278" lon="0.18669">
        <ele>741.35</ele>
        <time>2017-03-21T14:54:26Z</time>
      </trkpt>
      <trkpt lat="43.01284" lon="0.18659">
        <ele>739.78</ele>
        <time>2017-03-21T14:54:33Z</time>
      </trkpt>
      <trkpt lat="43.01292" lon="0.18648">
        <ele>738.81</ele>
        <time>2017-03-21T14:54:42Z</time>
      </trkpt>
      <trkpt lat="43.01297" lon="0.18637">
        <ele>737.6</ele>
        <time>2017-03-21T14:54:51Z</time>
      </trkpt>
      <trkpt lat="43.01302" lon="0.18627">
        <ele>736.51</ele>
        <time>2017-03-21T14:55:00Z</time>
      </trkpt>
      <trkpt lat="43.01308" lon="0.18615">
        <ele>733.99</ele>
        <time>2017-03-21T14:55:11Z</time>
      </trkpt>
      <trkpt lat="43.01314" lon="0.18605">
        <ele>732.76</ele>
        <time>2017-03-21T14:55:19Z</time>
      </trkpt>
      <trkpt lat="43.01321" lon="0.18595">
        <ele>731.12</ele>
        <time>2017-03-21T14:55:28Z</time>
      </trkpt>
      <trkpt lat="43.01328" lon="0.18586">
        <ele>730.46</ele>
        <time>2017-03-21T14:55:38Z</time>
      </trkpt>
      <trkpt lat="43.01335" lon="0.18577">
        <ele>729.42</ele>
        <time>2017-03-21T14:55:47Z</time>
      </trkpt>
      <trkpt lat="43.01343" lon="0.18569">
        <ele>728.33</ele>
        <time>2017-03-21T14:55:56Z</time>
      </trkpt>
      <trkpt lat="43.01351" lon="0.18562">
        <ele>727.59</ele>
        <time>2017-03-21T14:56:05Z</time>
      </trkpt>
      <trkpt lat="43.01358" lon="0.18555">
        <ele>728.1</ele>
        <time>2017-03-21T14:56:14Z</time>
      </trkpt>
      <trkpt lat="43.01366" lon="0.18549">
        <ele>728.47</ele>
        <time>2017-03-21T14:56:25Z</time>
      </trkpt>
      <trkpt lat="43.01373" lon="0.18539">
        <ele>727.48</ele>
        <time>2017-03-21T14:56:36Z</time>
      </trkpt>
      <trkpt lat="43.01376" lon="0.18527">
        <ele>726.27</ele>
        <time>2017-03-21T14:56:45Z</time>
      </trkpt>
      <trkpt lat="43.01382" lon="0.18517">
        <ele>725.09</ele>
        <time>2017-03-21T14:56:56Z</time>
      </trkpt>
      <trkpt lat="43.01388" lon="0.18508">
        <ele>723.23</ele>
        <time>2017-03-21T14:57:05Z</time>
      </trkpt>
      <trkpt lat="43.01394" lon="0.18498">
        <ele>722.66</ele>
        <time>2017-03-21T14:57:14Z</time>
      </trkpt>
      <trkpt lat="43.014" lon="0.18488">
        <ele>721.6</ele>
        <time>2017-03-21T14:57:23Z</time>
      </trkpt>
      <trkpt lat="43.01405" lon="0.18478">
        <ele>719.63</ele>
        <time>2017-03-21T14:57:33Z</time>
      </trkpt>
      <trkpt lat="43.0141" lon="0.18466">
        <ele>717.43</ele>
        <time>2017-03-21T14:57:46Z</time>
      </trkpt>
      <trkpt lat="43.01415" lon="0.18454">
        <ele>714.82</ele>
        <time>2017-03-21T14:58:01Z</time>
      </trkpt>
      <trkpt lat="43.01421" lon="0.18444">
        <ele>711.63</ele>
        <time>2017-03-21T14:58:14Z</time>
      </trkpt>
      <trkpt lat="43.01427" lon="0.18433">
        <ele>709.81</ele>
        <time>2017-03-21T14:58:29Z</time>
      </trkpt>
      <trkpt lat="43.01434" lon="0.18422">
        <ele>706</ele>
        <time>2017-03-21T14:58:48Z</time>
      </trkpt>
      <trkpt lat="43.01441" lon="0.18411">
        <ele>704.52</ele>
        <time>2017-03-21T14:59:00Z</time>
      </trkpt>
      <trkpt lat="43.01448" lon="0.18396">
        <ele>700.75</ele>
        <time>2017-03-21T14:59:13Z</time>
      </trkpt>
      <trkpt lat="43.01456" lon="0.18383">
        <ele>699.39</ele>
        <time>2017-03-21T14:59:24Z</time>
      </trkpt>
      <trkpt lat="43.01463" lon="0.1837">
        <ele>697.07</ele>
        <time>2017-03-21T14:59:36Z</time>
      </trkpt>
      <trkpt lat="43.01469" lon="0.18355">
        <ele>694.63</ele>
        <time>2017-03-21T14:59:50Z</time>
      </trkpt>
      <trkpt lat="43.01476" lon="0.18345">
        <ele>692.52</ele>
        <time>2017-03-21T15:00:02Z</time>
      </trkpt>
      <trkpt lat="43.01484" lon="0.18339">
        <ele>691.95</ele>
        <time>2017-03-21T15:00:15Z</time>
      </trkpt>
      <trkpt lat="43.01493" lon="0.1832">
        <ele>690.31</ele>
        <time>2017-03-21T15:00:31Z</time>
      </trkpt>
      <trkpt lat="43.015" lon="0.18306">
        <ele>688.71</ele>
        <time>2017-03-21T15:00:41Z</time>
      </trkpt>
      <trkpt lat="43.01508" lon="0.18294">
        <ele>687.72</ele>
        <time>2017-03-21T15:00:52Z</time>
      </trkpt>
      <trkpt lat="43.01515" lon="0.18281">
        <ele>686.36</ele>
        <time>2017-03-21T15:01:03Z</time>
      </trkpt>
      <trkpt lat="43.01518" lon="0.18268">
        <ele>684.26</ele>
        <time>2017-03-21T15:01:15Z</time>
      </trkpt>
      <trkpt lat="43.01525" lon="0.18255">
        <ele>682.86</ele>
        <time>2017-03-21T15:01:28Z</time>
      </trkpt>
      <trkpt lat="43.01534" lon="0.18245">
        <ele>682.33</ele>
        <time>2017-03-21T15:01:38Z</time>
      </trkpt>
      <trkpt lat="43.01542" lon="0.18234">
        <ele>682.13</ele>
        <time>2017-03-21T15:01:49Z</time>
      </trkpt>
      <trkpt lat="43.01547" lon="0.18219">
        <ele>679.7</ele>
        <time>2017-03-21T15:02:00Z</time>
      </trkpt>
      <trkpt lat="43.01553" lon="0.18207">
        <ele>678.52</ele>
        <time>2017-03-21T15:02:12Z</time>
      </trkpt>
      <trkpt lat="43.01563" lon="0.18195">
        <ele>677.07</ele>
        <time>2017-03-21T15:02:24Z</time>
      </trkpt>
      <trkpt lat="43.0157" lon="0.18184">
        <ele>674.94</ele>
        <time>2017-03-21T15:02:36Z</time>
      </trkpt>
      <trkpt lat="43.01581" lon="0.18173">
        <ele>671.95</ele>
        <time>2017-03-21T15:02:51Z</time>
      </trkpt>
      <trkpt lat="43.01588" lon="0.18161">
        <ele>670.17</ele>
        <time>2017-03-21T15:03:04Z</time>
      </trkpt>
      <trkpt lat="43.01596" lon="0.18148">
        <ele>665.99</ele>
        <time>2017-03-21T15:03:21Z</time>
      </trkpt>
      <trkpt lat="43.01607" lon="0.18136">
        <ele>663.66</ele>
        <time>2017-03-21T15:03:36Z</time>
      </trkpt>
      <trkpt lat="43.01613" lon="0.18122">
        <ele>662.58</ele>
        <time>2017-03-21T15:03:47Z</time>
      </trkpt>
      <trkpt lat="43.01618" lon="0.18107">
        <ele>660.82</ele>
        <time>2017-03-21T15:03:57Z</time>
      </trkpt>
      <trkpt lat="43.01628" lon="0.18097">
        <ele>659.68</ele>
        <time>2017-03-21T15:04:07Z</time>
      </trkpt>
      <trkpt lat="43.01636" lon="0.18088">
        <ele>659.34</ele>
        <time>2017-03-21T15:04:16Z</time>
      </trkpt>
      <trkpt lat="43.01642" lon="0.18076">
        <ele>658.46</ele>
        <time>2017-03-21T15:04:26Z</time>
      </trkpt>
      <trkpt lat="43.01649" lon="0.18066">
        <ele>656.88</ele>
        <time>2017-03-21T15:04:35Z</time>
      </trkpt>
      <trkpt lat="43.01662" lon="0.18064">
        <ele>656.69</ele>
        <time>2017-03-21T15:04:44Z</time>
      </trkpt>
      <trkpt lat="43.01672" lon="0.18061">
        <ele>656.22</ele>
        <time>2017-03-21T15:04:53Z</time>
      </trkpt>
      <trkpt lat="43.0168" lon="0.18055">
        <ele>654.41</ele>
        <time>2017-03-21T15:05:04Z</time>
      </trkpt>
      <trkpt lat="43.01688" lon="0.18049">
        <ele>654.37</ele>
        <time>2017-03-21T15:05:12Z</time>
      </trkpt>
      <trkpt lat="43.01695" lon="0.18039">
        <ele>652.32</ele>
        <time>2017-03-21T15:05:21Z</time>
      </trkpt>
      <trkpt lat="43.01703" lon="0.18032">
        <ele>652.9</ele>
        <time>2017-03-21T15:05:30Z</time>
      </trkpt>
      <trkpt lat="43.01712" lon="0.18022">
        <ele>650.57</ele>
        <time>2017-03-21T15:05:41Z</time>
      </trkpt>
      <trkpt lat="43.01714" lon="0.1801">
        <ele>649.18</ele>
        <time>2017-03-21T15:05:51Z</time>
      </trkpt>
      <trkpt lat="43.01711" lon="0.18003">
        <ele>648.81</ele>
        <time>2017-03-21T15:06:12Z</time>
      </trkpt>
      <trkpt lat="43.01701" lon="0.18003">
        <ele>648.8</ele>
        <time>2017-03-21T15:06:26Z</time>
      </trkpt>
      <trkpt lat="43.0169" lon="0.17995">
        <ele>649.92</ele>
        <time>2017-03-21T15:06:43Z</time>
      </trkpt>
      <trkpt lat="43.01686" lon="0.17981">
        <ele>650.04</ele>
        <time>2017-03-21T15:06:55Z</time>
      </trkpt>
      <trkpt lat="43.01688" lon="0.17967">
        <ele>650.34</ele>
        <time>2017-03-21T15:07:04Z</time>
      </trkpt>
      <trkpt lat="43.01693" lon="0.17957">
        <ele>650.17</ele>
        <time>2017-03-21T15:07:14Z</time>
      </trkpt>
      <trkpt lat="43.01698" lon="0.17945">
        <ele>650.72</ele>
        <time>2017-03-21T15:07:24Z</time>
      </trkpt>
      <trkpt lat="43.01702" lon="0.17933">
        <ele>650.08</ele>
        <time>2017-03-21T15:07:34Z</time>
      </trkpt>
      <trkpt lat="43.01708" lon="0.17921">
        <ele>651.04</ele>
        <time>2017-03-21T15:07:43Z</time>
      </trkpt>
      <trkpt lat="43.01714" lon="0.1791">
        <ele>651.61</ele>
        <time>2017-03-21T15:07:53Z</time>
      </trkpt>
      <trkpt lat="43.0172" lon="0.179">
        <ele>652.21</ele>
        <time>2017-03-21T15:08:03Z</time>
      </trkpt>
      <trkpt lat="43.01727" lon="0.1789">
        <ele>654.02</ele>
        <time>2017-03-21T15:08:12Z</time>
      </trkpt>
      <trkpt lat="43.01734" lon="0.17881">
        <ele>653.95</ele>
        <time>2017-03-21T15:08:21Z</time>
      </trkpt>
      <trkpt lat="43.01742" lon="0.17874">
        <ele>653.9</ele>
        <time>2017-03-21T15:08:31Z</time>
      </trkpt>
      <trkpt lat="43.0175" lon="0.17869">
        <ele>653.58</ele>
        <time>2017-03-21T15:08:41Z</time>
      </trkpt>
      <trkpt lat="43.01759" lon="0.17862">
        <ele>653.57</ele>
        <time>2017-03-21T15:08:50Z</time>
      </trkpt>
      <trkpt lat="43.01768" lon="0.17857">
        <ele>652.59</ele>
        <time>2017-03-21T15:08:57Z</time>
      </trkpt>
      <trkpt lat="43.01775" lon="0.17848">
        <ele>652.52</ele>
        <time>2017-03-21T15:09:05Z</time>
      </trkpt>
      <trkpt lat="43.01782" lon="0.17841">
        <ele>652.13</ele>
        <time>2017-03-21T15:09:12Z</time>
      </trkpt>
      <trkpt lat="43.0179" lon="0.17833">
        <ele>652.05</ele>
        <time>2017-03-21T15:09:21Z</time>
      </trkpt>
      <trkpt lat="43.01798" lon="0.17828">
        <ele>653.16</ele>
        <time>2017-03-21T15:09:30Z</time>
      </trkpt>
      <trkpt lat="43.01805" lon="0.1782">
        <ele>651.52</ele>
        <time>2017-03-21T15:09:38Z</time>
      </trkpt>
      <trkpt lat="43.01813" lon="0.17816">
        <ele>651.31</ele>
        <time>2017-03-21T15:09:47Z</time>
      </trkpt>
      <trkpt lat="43.0181" lon="0.17811">
        <ele>649.2</ele>
        <time>2017-03-21T15:10:34Z</time>
      </trkpt>
      <trkpt lat="43.0181" lon="0.17814">
        <ele>649.26</ele>
        <time>2017-03-21T15:11:34Z</time>
      </trkpt>
      <trkpt lat="43.01812" lon="0.17816">
        <ele>650.04</ele>
        <time>2017-03-21T15:12:26Z</time>
      </trkpt>
      <trkpt lat="43.01819" lon="0.17815">
        <ele>649.23</ele>
        <time>2017-03-21T15:12:42Z</time>
      </trkpt>
      <trkpt lat="43.01813" lon="0.1782">
        <ele>649.47</ele>
        <time>2017-03-21T15:13:02Z</time>
      </trkpt>
      <trkpt lat="43.01812" lon="0.17822">
        <ele>650.03</ele>
        <time>2017-03-21T15:14:10Z</time>
      </trkpt>
      <trkpt lat="43.01809" lon="0.17819">
        <ele>649.54</ele>
        <time>2017-03-21T15:15:04Z</time>
      </trkpt>
    </trkseg>
  </trk>
</gpx>